Time,TemperatureF,DewpointF,PressureIn,WindDirection,WindDirectionDegrees,WindSpeedMPH,WindSpeedGustMPH,Humidity,HourlyPrecipIn,Conditions,Clouds,dailyrainin,SoftwareType,DateUTC
2013-03-03 00:00:00,35.1,24.5,29.62,NW,315,7.2,7.8,65,0.00,,SKC,0.00,VWS V14.01,2013-03-03 05:00:00,
2013-03-03 00:02:00,34.3,24.5,29.62,NW,315,7.6,7.6,67,0.00,,SKC,0.00,VWS V14.01,2013-03-03 05:02:00,
2013-03-03 00:04:00,34.2,24.4,29.62,NNW,338,8.7,10.5,67,0.00,,SKC,0.00,VWS V14.01,2013-03-03 05:04:00,
2013-03-03 00:05:00,35.1,24.1,29.62,NW,315,7.4,8.1,64,0.00,,SKC,0.00,VWS V14.01,2013-03-03 05:05:00,
2013-03-03 00:06:00,34.2,24.4,29.62,NNW,338,6.5,8.7,67,0.00,,SKC,0.00,VWS V14.01,2013-03-03 05:06:00,
2013-03-03 00:08:00,34.2,24.4,29.62,NW,315,10.1,10.1,67,0.00,,SKC,0.00,VWS V14.01,2013-03-03 05:08:00,
2013-03-03 00:10:00,34.9,24.0,29.62,NW,315,3.6,6.3,64,0.00,,SKC,0.00,VWS V14.01,2013-03-03 05:10:00,
2013-03-03 00:12:00,34.0,24.2,29.62,NW,315,6.5,11.0,67,0.00,,SKC,0.00,VWS V14.01,2013-03-03 05:12:00,
2013-03-03 00:14:00,34.0,24.2,29.62,NW,315,8.5,9.6,67,0.00,,SKC,0.00,VWS V14.01,2013-03-03 05:14:00,
2013-03-03 00:15:00,34.9,24.0,29.62,NW,315,7.4,7.4,64,0.00,,SKC,0.00,VWS V14.01,2013-03-03 05:15:00,
2013-03-03 00:16:00,34.0,24.2,29.62,North,0,7.2,8.1,67,0.00,,SKC,0.00,VWS V14.01,2013-03-03 05:16:00,
2013-03-03 00:18:00,34.0,24.2,29.62,WNW,292,5.8,6.5,67,0.00,,SKC,0.00,VWS V14.01,2013-03-03 05:18:00,
2013-03-03 00:20:00,34.9,24.3,29.62,NW,315,5.8,8.5,65,0.00,,SKC,0.00,VWS V14.01,2013-03-03 05:20:00,
2013-03-03 00:22:00,34.0,24.2,29.62,WNW,292,5.8,7.6,67,0.00,,SKC,0.00,VWS V14.01,2013-03-03 05:22:00,
2013-03-03 00:24:00,34.0,24.2,29.62,NNW,338,7.8,10.7,67,0.00,,SKC,0.00,VWS V14.01,2013-03-03 05:24:00,
2013-03-03 00:25:00,34.9,24.7,29.62,NW,315,5.6,8.1,66,0.00,,SKC,0.00,VWS V14.01,2013-03-03 05:25:00,
2013-03-03 00:26:00,34.0,24.2,29.62,NW,315,10.3,10.3,67,0.00,,SKC,0.00,VWS V14.01,2013-03-03 05:26:00,
2013-03-03 00:28:00,34.0,24.2,29.62,NNW,338,7.6,8.7,67,0.00,,SKC,0.00,VWS V14.01,2013-03-03 05:28:00,
2013-03-03 00:30:00,34.9,24.7,29.62,NNW,338,7.4,7.4,66,0.00,,SKC,0.00,VWS V14.01,2013-03-03 05:30:00,
2013-03-03 00:32:00,33.8,24.0,29.62,NW,315,7.4,10.1,67,0.00,,SKC,0.00,VWS V14.01,2013-03-03 05:32:00,
2013-03-03 00:34:00,33.8,24.0,29.62,NW,315,7.4,8.7,67,0.00,,SKC,0.00,VWS V14.01,2013-03-03 05:34:00,
2013-03-03 00:35:00,34.7,24.5,29.62,WNW,292,5.8,8.7,66,0.00,,SKC,0.00,VWS V14.01,2013-03-03 05:35:00,
2013-03-03 00:36:00,33.8,24.0,29.62,NW,315,8.1,8.7,67,0.00,,SKC,0.00,VWS V14.01,2013-03-03 05:36:00,
2013-03-03 00:38:00,33.8,24.0,29.62,NW,315,5.8,8.5,67,0.00,,SKC,0.00,VWS V14.01,2013-03-03 05:38:00,
2013-03-03 00:40:00,34.7,24.5,29.62,West,270,6.3,8.7,66,0.00,,SKC,0.00,VWS V14.01,2013-03-03 05:40:00,
2013-03-03 00:42:00,33.8,24.0,29.62,NW,315,4.9,7.6,67,0.00,,SKC,0.00,VWS V14.01,2013-03-03 05:42:00,
2013-03-03 00:44:00,33.8,24.0,29.62,NW,315,5.8,9.8,67,0.00,,SKC,0.00,VWS V14.01,2013-03-03 05:44:00,
2013-03-03 00:45:00,34.5,24.4,29.62,NW,315,9.2,9.2,66,0.00,,SKC,0.00,VWS V14.01,2013-03-03 05:45:00,
2013-03-03 00:46:00,33.8,24.0,29.62,NW,315,6.5,8.7,67,0.00,,SKC,0.00,VWS V14.01,2013-03-03 05:46:00,
2013-03-03 00:48:00,33.8,24.0,29.62,NNW,338,5.8,7.2,67,0.00,,SKC,0.00,VWS V14.01,2013-03-03 05:48:00,
2013-03-03 00:50:00,34.5,24.4,29.62,NW,315,7.6,9.0,66,0.00,,SKC,0.00,VWS V14.01,2013-03-03 05:50:00,
2013-03-03 00:52:00,33.8,24.0,29.62,NW,315,6.3,8.5,67,0.00,,SKC,0.00,VWS V14.01,2013-03-03 05:52:00,
2013-03-03 00:54:00,33.8,24.0,29.62,NW,315,5.4,8.5,67,0.00,,SKC,0.00,VWS V14.01,2013-03-03 05:54:00,
2013-03-03 00:55:00,34.3,24.5,29.62,NW,315,3.1,8.5,67,0.00,,SKC,0.00,VWS V14.01,2013-03-03 05:55:00,
2013-03-03 00:56:00,33.8,24.0,29.62,NW,315,10.7,10.7,67,0.00,,SKC,0.00,VWS V14.01,2013-03-03 05:56:00,
2013-03-03 00:58:00,33.6,23.9,29.62,NNW,338,7.2,7.6,67,0.00,,SKC,0.00,VWS V14.01,2013-03-03 05:58:00,
2013-03-03 01:00:00,34.3,24.5,29.62,NW,315,6.3,6.3,67,0.00,,SKC,0.00,VWS V14.01,2013-03-03 06:00:00,
2013-03-03 01:02:00,33.6,23.9,29.62,NW,315,9.8,9.8,67,0.00,,SKC,0.00,VWS V14.01,2013-03-03 06:02:00,
2013-03-03 01:04:00,33.6,23.9,29.62,NW,315,8.7,8.7,67,0.00,,SKC,0.00,VWS V14.01,2013-03-03 06:04:00,
2013-03-03 01:05:00,34.2,24.4,29.62,NNW,338,8.5,8.7,67,0.00,,SKC,0.00,VWS V14.01,2013-03-03 06:05:00,
2013-03-03 01:06:00,33.6,23.9,29.62,NNW,338,5.6,8.7,67,0.00,,SKC,0.00,VWS V14.01,2013-03-03 06:06:00,
2013-03-03 01:08:00,33.6,23.9,29.62,NW,315,6.0,6.0,67,0.00,,SKC,0.00,VWS V14.01,2013-03-03 06:08:00,
2013-03-03 01:10:00,34.0,24.2,29.62,NW,315,10.1,10.1,67,0.00,,SKC,0.00,VWS V14.01,2013-03-03 06:10:00,
2013-03-03 01:12:00,33.6,23.5,29.62,NNW,338,8.1,8.1,66,0.00,,SKC,0.00,VWS V14.01,2013-03-03 06:12:00,
2013-03-03 01:14:00,33.6,23.5,29.59,NNW,338,6.5,8.5,66,0.00,,SKC,0.00,VWS V14.01,2013-03-03 06:14:00,
2013-03-03 01:15:00,34.0,24.2,29.62,NW,315,6.0,8.1,67,0.00,,SKC,0.00,VWS V14.01,2013-03-03 06:15:00,
2013-03-03 01:16:00,33.6,23.5,29.59,NW,315,6.3,7.4,66,0.00,,SKC,0.00,VWS V14.01,2013-03-03 06:16:00,
2013-03-03 01:18:00,33.6,23.5,29.59,NW,315,6.0,8.1,66,0.00,,SKC,0.00,VWS V14.01,2013-03-03 06:18:00,
2013-03-03 01:20:00,34.0,24.2,29.62,NW,315,7.6,8.7,67,0.00,,SKC,0.00,VWS V14.01,2013-03-03 06:20:00,
2013-03-03 01:22:00,33.4,23.3,29.59,NNW,338,8.5,9.0,66,0.00,,SKC,0.00,VWS V14.01,2013-03-03 06:22:00,
2013-03-03 01:24:00,33.4,23.3,29.59,NW,315,6.3,7.8,66,0.00,,SKC,0.00,VWS V14.01,2013-03-03 06:24:00,
2013-03-03 01:25:00,34.0,24.2,29.62,NW,315,10.3,10.3,67,0.00,,SKC,0.00,VWS V14.01,2013-03-03 06:25:00,
2013-03-03 01:26:00,33.4,23.3,29.59,NW,315,6.3,11.0,66,0.00,,SKC,0.00,VWS V14.01,2013-03-03 06:26:00,
2013-03-03 01:28:00,33.4,23.0,29.59,NW,315,8.5,8.5,65,0.00,,SKC,0.00,VWS V14.01,2013-03-03 06:28:00,
2013-03-03 01:30:00,33.8,23.7,29.62,NW,315,6.3,7.8,66,0.00,,SKC,0.00,VWS V14.01,2013-03-03 06:30:00,
2013-03-03 01:32:00,33.3,22.8,29.59,NW,315,7.8,7.8,65,0.00,,SKC,0.00,VWS V14.01,2013-03-03 06:32:00,
2013-03-03 01:34:00,33.3,22.8,29.59,WNW,292,6.5,10.1,65,0.00,,SKC,0.00,VWS V14.01,2013-03-03 06:34:00,
2013-03-03 01:36:00,33.8,24.0,29.62,NW,315,8.1,8.7,67,0.00,,SKC,0.00,VWS V14.01,2013-03-03 06:36:00,
2013-03-03 01:38:00,33.3,23.1,29.59,NW,315,5.8,6.7,66,0.00,,SKC,0.00,VWS V14.01,2013-03-03 06:38:00,
2013-03-03 01:40:00,33.3,23.1,29.59,NNW,338,6.5,6.5,66,0.00,,SKC,0.00,VWS V14.01,2013-03-03 06:40:00,
2013-03-03 01:41:00,33.8,23.7,29.62,NW,315,5.8,7.8,66,0.00,,SKC,0.00,VWS V14.01,2013-03-03 06:41:00,
2013-03-03 01:42:00,33.3,23.1,29.59,NW,315,6.0,10.1,66,0.00,,SKC,0.00,VWS V14.01,2013-03-03 06:42:00,
2013-03-03 01:44:00,33.3,22.8,29.62,NW,315,7.8,7.8,65,0.00,,SKC,0.00,VWS V14.01,2013-03-03 06:44:00,
2013-03-03 01:46:00,33.8,24.0,29.62,NW,315,6.5,8.7,67,0.00,,SKC,0.00,VWS V14.01,2013-03-03 06:46:00,
2013-03-03 01:48:00,33.3,22.8,29.62,NW,315,6.5,7.2,65,0.00,,SKC,0.00,VWS V14.01,2013-03-03 06:48:00,
2013-03-03 01:50:00,33.3,23.1,29.62,NW,315,7.2,7.6,66,0.00,,SKC,0.00,VWS V14.01,2013-03-03 06:50:00,
2013-03-03 01:51:00,33.8,24.0,29.62,NW,315,7.6,8.7,67,0.00,,SKC,0.00,VWS V14.01,2013-03-03 06:51:00,
2013-03-03 01:52:00,33.3,23.1,29.62,WNW,292,7.4,8.5,66,0.00,,SKC,0.00,VWS V14.01,2013-03-03 06:52:00,
2013-03-03 01:54:00,33.3,23.1,29.62,NNW,338,6.3,8.7,66,0.00,,SKC,0.00,VWS V14.01,2013-03-03 06:54:00,
2013-03-03 01:56:00,33.6,23.9,29.62,NW,315,10.7,10.7,67,0.00,,SKC,0.00,VWS V14.01,2013-03-03 06:56:00,
2013-03-03 01:58:00,33.3,23.1,29.62,NW,315,6.3,10.5,66,0.00,,SKC,0.00,VWS V14.01,2013-03-03 06:58:00,
2013-03-03 02:00:00,33.1,22.6,29.62,NNW,338,4.9,7.4,65,0.00,,SKC,0.00,VWS V14.01,2013-03-03 07:00:00,
2013-03-03 02:01:00,33.6,23.9,29.62,NW,315,6.9,9.0,67,0.00,,SKC,0.00,VWS V14.01,2013-03-03 07:01:00,
2013-03-03 02:02:00,33.1,22.6,29.62,NNW,338,9.8,9.8,65,0.00,,SKC,0.00,VWS V14.01,2013-03-03 07:02:00,
2013-03-03 02:04:00,33.1,22.6,29.62,NW,315,5.6,9.6,65,0.00,,SKC,0.00,VWS V14.01,2013-03-03 07:04:00,
2013-03-03 02:06:00,33.6,23.9,29.62,NW,315,4.9,8.7,67,0.00,,SKC,0.00,VWS V14.01,2013-03-03 07:06:00,
2013-03-03 02:08:00,33.1,22.6,29.62,NNW,338,13.0,13.0,65,0.00,,SKC,0.00,VWS V14.01,2013-03-03 07:08:00,
2013-03-03 02:10:00,33.1,22.6,29.62,NW,315,9.2,12.1,65,0.00,,SKC,0.00,VWS V14.01,2013-03-03 07:10:00,
2013-03-03 02:11:00,33.6,23.9,29.62,NW,315,6.5,7.4,67,0.00,,SKC,0.00,VWS V14.01,2013-03-03 07:11:00,
2013-03-03 02:12:00,33.1,22.6,29.62,NW,315,8.1,9.2,65,0.00,,SKC,0.00,VWS V14.01,2013-03-03 07:12:00,
2013-03-03 02:14:00,33.1,22.6,29.62,NNW,338,7.6,8.7,65,0.00,,SKC,0.00,VWS V14.01,2013-03-03 07:14:00,
2013-03-03 02:16:00,33.6,23.5,29.59,NW,315,5.8,7.4,66,0.00,,SKC,0.00,VWS V14.01,2013-03-03 07:16:00,
2013-03-03 02:18:00,33.1,22.6,29.62,NNW,338,7.8,8.1,65,0.00,,SKC,0.00,VWS V14.01,2013-03-03 07:18:00,
2013-03-03 02:20:00,33.1,22.6,29.62,NNW,338,6.0,9.2,65,0.00,,SKC,0.00,VWS V14.01,2013-03-03 07:20:00,
2013-03-03 02:21:00,33.4,23.3,29.59,NW,315,7.6,9.8,66,0.00,,SKC,0.00,VWS V14.01,2013-03-03 07:21:00,
2013-03-03 02:22:00,33.1,22.6,29.62,NNW,338,6.5,6.5,65,0.00,,SKC,0.00,VWS V14.01,2013-03-03 07:22:00,
2013-03-03 02:24:00,33.1,22.6,29.62,NNW,338,5.8,8.1,65,0.00,,SKC,0.00,VWS V14.01,2013-03-03 07:24:00,
2013-03-03 02:26:00,33.4,23.3,29.59,NW,315,8.7,10.3,66,0.00,,SKC,0.00,VWS V14.01,2013-03-03 07:26:00,
2013-03-03 02:28:00,32.9,22.4,29.62,NNW,338,6.3,8.1,65,0.00,,SKC,0.00,VWS V14.01,2013-03-03 07:28:00,
2013-03-03 02:30:00,32.9,22.4,29.62,NW,315,4.9,10.3,65,0.00,,SKC,0.00,VWS V14.01,2013-03-03 07:30:00,
2013-03-03 02:31:00,33.3,22.8,29.59,NW,315,7.6,7.8,65,0.00,,SKC,0.00,VWS V14.01,2013-03-03 07:31:00,
2013-03-03 02:32:00,32.9,22.4,29.62,NW,315,5.8,8.5,65,0.00,,SKC,0.00,VWS V14.01,2013-03-03 07:32:00,
2013-03-03 02:34:00,32.9,22.4,29.62,NW,315,9.6,9.6,65,0.00,,SKC,0.00,VWS V14.01,2013-03-03 07:34:00,
2013-03-03 02:36:00,33.3,23.1,29.59,NW,315,9.8,9.8,66,0.00,,SKC,0.00,VWS V14.01,2013-03-03 07:36:00,
2013-03-03 02:38:00,32.9,22.4,29.62,NW,315,5.6,6.3,65,0.00,,SKC,0.00,VWS V14.01,2013-03-03 07:38:00,
2013-03-03 02:40:00,32.9,22.4,29.62,NW,315,6.3,10.5,65,0.00,,SKC,0.00,VWS V14.01,2013-03-03 07:40:00,
2013-03-03 02:41:00,33.3,23.1,29.59,NW,315,4.3,10.1,66,0.00,,SKC,0.00,VWS V14.01,2013-03-03 07:41:00,
2013-03-03 02:42:00,32.9,22.4,29.62,NNW,338,10.1,10.3,65,0.00,,SKC,0.00,VWS V14.01,2013-03-03 07:42:00,
2013-03-03 02:44:00,32.7,22.3,29.65,NNW,338,5.6,8.1,65,0.00,,SKC,0.00,VWS V14.01,2013-03-03 07:44:00,
2013-03-03 02:46:00,33.3,22.8,29.62,NW,315,5.6,10.1,65,0.00,,SKC,0.00,VWS V14.01,2013-03-03 07:46:00,
2013-03-03 02:48:00,32.7,21.9,29.65,NW,315,5.4,5.8,64,0.00,,SKC,0.00,VWS V14.01,2013-03-03 07:48:00,
2013-03-03 02:50:00,32.7,21.9,29.65,NW,315,7.6,7.6,64,0.00,,SKC,0.00,VWS V14.01,2013-03-03 07:50:00,
2013-03-03 02:51:00,33.3,23.1,29.62,NW,315,6.5,7.2,66,0.00,,SKC,0.00,VWS V14.01,2013-03-03 07:51:00,
2013-03-03 02:52:00,32.7,21.9,29.65,NW,315,9.8,12.3,64,0.00,,SKC,0.00,VWS V14.01,2013-03-03 07:52:00,
2013-03-03 02:54:00,32.7,21.9,29.65,NW,315,7.8,10.3,64,0.00,,SKC,0.00,VWS V14.01,2013-03-03 07:54:00,
2013-03-03 02:56:00,33.3,22.8,29.62,NW,315,8.5,10.5,65,0.00,,SKC,0.00,VWS V14.01,2013-03-03 07:56:00,
2013-03-03 02:58:00,32.7,21.9,29.65,NW,315,9.6,9.6,64,0.00,,SKC,0.00,VWS V14.01,2013-03-03 07:58:00,
2013-03-03 03:00:00,32.7,21.9,29.62,NW,315,6.0,9.6,64,0.00,,SKC,0.00,VWS V14.01,2013-03-03 08:00:00,
2013-03-03 03:01:00,33.3,22.8,29.62,NW,315,5.6,7.6,65,0.00,,SKC,0.00,VWS V14.01,2013-03-03 08:01:00,
2013-03-03 03:02:00,32.7,21.9,29.62,NW,315,8.7,10.3,64,0.00,,SKC,0.00,VWS V14.01,2013-03-03 08:02:00,
2013-03-03 03:04:00,32.7,21.9,29.62,NW,315,8.5,10.1,64,0.00,,SKC,0.00,VWS V14.01,2013-03-03 08:04:00,
2013-03-03 03:06:00,33.1,22.6,29.62,NW,315,7.6,8.7,65,0.00,,SKC,0.00,VWS V14.01,2013-03-03 08:06:00,
2013-03-03 03:08:00,32.5,21.7,29.62,NW,315,7.6,7.8,64,0.00,,SKC,0.00,VWS V14.01,2013-03-03 08:08:00,
2013-03-03 03:10:00,32.7,21.9,29.62,NNW,338,4.9,10.3,64,0.00,,SKC,0.00,VWS V14.01,2013-03-03 08:10:00,
2013-03-03 03:11:00,33.1,22.6,29.62,NNW,338,9.2,9.2,65,0.00,,SKC,0.00,VWS V14.01,2013-03-03 08:11:00,
2013-03-03 03:12:00,32.5,21.7,29.62,NNW,338,8.7,8.7,64,0.00,,SKC,0.00,VWS V14.01,2013-03-03 08:12:00,
2013-03-03 03:14:00,32.5,21.4,29.62,NW,315,7.6,9.8,63,0.00,,SKC,0.00,VWS V14.01,2013-03-03 08:14:00,
2013-03-03 03:16:00,33.1,22.6,29.62,NNW,338,7.4,7.8,65,0.00,,SKC,0.00,VWS V14.01,2013-03-03 08:16:00,
2013-03-03 03:18:00,32.5,21.4,29.62,NW,315,5.6,10.1,63,0.00,,SKC,0.00,VWS V14.01,2013-03-03 08:18:00,
2013-03-03 03:20:00,32.5,21.7,29.62,NW,315,8.5,10.1,64,0.00,,SKC,0.00,VWS V14.01,2013-03-03 08:20:00,
2013-03-03 03:21:00,33.1,22.6,29.62,NNW,338,5.6,6.0,65,0.00,,SKC,0.00,VWS V14.01,2013-03-03 08:21:00,
2013-03-03 03:22:00,32.7,21.9,29.62,NW,315,5.6,8.7,64,0.00,,SKC,0.00,VWS V14.01,2013-03-03 08:22:00,
2013-03-03 03:24:00,32.7,22.3,29.62,NNW,338,9.8,10.1,65,0.00,,SKC,0.00,VWS V14.01,2013-03-03 08:24:00,
2013-03-03 03:26:00,33.1,22.6,29.62,NW,315,6.3,7.4,65,0.00,,SKC,0.00,VWS V14.01,2013-03-03 08:26:00,
2013-03-03 03:28:00,32.7,21.9,29.62,NW,315,6.5,8.7,64,0.00,,SKC,0.00,VWS V14.01,2013-03-03 08:28:00,
2013-03-03 03:30:00,32.5,21.7,29.62,NW,315,9.0,9.8,64,0.00,,SKC,0.00,VWS V14.01,2013-03-03 08:30:00,
2013-03-03 03:31:00,32.9,22.4,29.62,NNW,338,8.5,8.5,65,0.00,,SKC,0.00,VWS V14.01,2013-03-03 08:31:00,
2013-03-03 03:32:00,32.5,21.7,29.62,NNW,338,7.4,8.7,64,0.00,,SKC,0.00,VWS V14.01,2013-03-03 08:32:00,
2013-03-03 03:34:00,32.5,21.4,29.62,NW,315,8.1,10.5,63,0.00,,SKC,0.00,VWS V14.01,2013-03-03 08:34:00,
2013-03-03 03:36:00,32.9,22.4,29.62,WNW,292,4.9,6.5,65,0.00,,SKC,0.00,VWS V14.01,2013-03-03 08:36:00,
2013-03-03 03:38:00,32.5,21.4,29.62,NNW,338,5.6,7.2,63,0.00,,SKC,0.00,VWS V14.01,2013-03-03 08:38:00,
2013-03-03 03:40:00,32.5,21.7,29.62,NNW,338,4.0,8.5,64,0.00,,SKC,0.00,VWS V14.01,2013-03-03 08:40:00,
2013-03-03 03:41:00,32.9,22.4,29.62,NNW,338,10.3,10.3,65,0.00,,SKC,0.00,VWS V14.01,2013-03-03 08:41:00,
2013-03-03 03:42:00,32.5,21.7,29.62,North,0,5.4,5.8,64,0.00,,SKC,0.00,VWS V14.01,2013-03-03 08:42:00,
2013-03-03 03:44:00,32.5,21.7,29.62,NNW,338,5.8,10.1,64,0.00,,SKC,0.00,VWS V14.01,2013-03-03 08:44:00,
2013-03-03 03:46:00,32.7,21.9,29.65,NW,315,5.8,9.6,64,0.00,,SKC,0.00,VWS V14.01,2013-03-03 08:46:00,
2013-03-03 03:48:00,32.5,21.7,29.62,NNW,338,7.6,9.8,64,0.00,,SKC,0.00,VWS V14.01,2013-03-03 08:48:00,
2013-03-03 03:50:00,32.5,21.7,29.62,NW,315,7.8,9.8,64,0.00,,SKC,0.00,VWS V14.01,2013-03-03 08:50:00,
2013-03-03 03:51:00,32.7,21.9,29.65,NNW,338,8.5,12.3,64,0.00,,SKC,0.00,VWS V14.01,2013-03-03 08:51:00,
2013-03-03 03:52:00,32.5,21.7,29.62,NNW,338,5.8,7.6,64,0.00,,SKC,0.00,VWS V14.01,2013-03-03 08:52:00,
2013-03-03 03:54:00,32.4,21.6,29.62,NNW,338,10.5,10.5,64,0.00,,SKC,0.00,VWS V14.01,2013-03-03 08:54:00,
2013-03-03 03:56:00,32.7,21.9,29.65,NW,315,5.8,10.5,64,0.00,,SKC,0.00,VWS V14.01,2013-03-03 08:56:00,
2013-03-03 03:58:00,32.4,21.6,29.62,NW,315,8.1,8.1,64,0.00,,SKC,0.00,VWS V14.01,2013-03-03 08:58:00,
2013-03-03 04:00:00,32.4,21.9,29.62,NW,315,5.6,7.8,65,0.00,,SKC,0.00,VWS V14.01,2013-03-03 09:00:00,
2013-03-03 04:01:00,32.7,21.9,29.62,NNW,338,10.3,10.3,64,0.00,,SKC,0.00,VWS V14.01,2013-03-03 09:01:00,
2013-03-03 04:02:00,32.4,21.9,29.62,NW,315,7.6,8.7,65,0.00,,SKC,0.00,VWS V14.01,2013-03-03 09:02:00,
2013-03-03 04:04:00,32.4,21.9,29.62,NW,315,8.5,10.3,65,0.00,,SKC,0.00,VWS V14.01,2013-03-03 09:04:00,
2013-03-03 04:06:00,32.7,21.9,29.62,NW,315,7.8,10.5,64,0.00,,SKC,0.00,VWS V14.01,2013-03-03 09:06:00,
2013-03-03 04:08:00,32.4,21.9,29.62,NW,315,7.8,10.7,65,0.00,,SKC,0.00,VWS V14.01,2013-03-03 09:08:00,
2013-03-03 04:10:00,32.4,21.9,29.62,NW,315,8.7,8.7,65,0.00,,SKC,0.00,VWS V14.01,2013-03-03 09:10:00,
2013-03-03 04:11:00,32.5,21.7,29.62,NNW,338,6.5,7.6,64,0.00,,SKC,0.00,VWS V14.01,2013-03-03 09:11:00,
2013-03-03 04:12:00,32.4,22.3,29.62,NW,315,5.8,9.8,66,0.00,,SKC,0.00,VWS V14.01,2013-03-03 09:12:00,
2013-03-03 04:14:00,32.2,22.1,29.62,NNW,338,7.8,11.2,66,0.00,,SKC,0.00,VWS V14.01,2013-03-03 09:14:00,
2013-03-03 04:16:00,32.5,21.4,29.62,NW,315,10.1,10.1,63,0.00,,SKC,0.00,VWS V14.01,2013-03-03 09:16:00,
2013-03-03 04:18:00,32.2,21.8,29.62,NW,315,7.8,10.3,65,0.00,,SKC,0.00,VWS V14.01,2013-03-03 09:18:00,
2013-03-03 04:20:00,32.2,21.8,29.62,NW,315,8.7,12.3,65,0.00,,SKC,0.00,VWS V14.01,2013-03-03 09:20:00,
2013-03-03 04:21:00,32.7,21.9,29.62,NW,315,5.6,8.7,64,0.00,,SKC,0.00,VWS V14.01,2013-03-03 09:21:00,
2013-03-03 04:22:00,32.2,21.8,29.62,NW,315,8.1,10.5,65,0.00,,SKC,0.00,VWS V14.01,2013-03-03 09:22:00,
2013-03-03 04:24:00,32.2,21.8,29.62,NW,315,6.0,8.1,65,0.00,,SKC,0.00,VWS V14.01,2013-03-03 09:24:00,
2013-03-03 04:26:00,32.7,22.3,29.62,WNW,292,7.4,9.6,65,0.00,,SKC,0.00,VWS V14.01,2013-03-03 09:26:00,
2013-03-03 04:28:00,32.2,22.1,29.62,NW,315,6.0,7.8,66,0.00,,SKC,0.00,VWS V14.01,2013-03-03 09:28:00,
2013-03-03 04:30:00,32.2,22.1,29.62,NW,315,7.4,9.6,66,0.00,,SKC,0.00,VWS V14.01,2013-03-03 09:30:00,
2013-03-03 04:31:00,32.5,21.7,29.62,North,0,7.6,8.7,64,0.00,,SKC,0.00,VWS V14.01,2013-03-03 09:31:00,
2013-03-03 04:32:00,32.0,21.9,29.62,NW,315,6.5,10.3,66,0.00,,SKC,0.00,VWS V14.01,2013-03-03 09:32:00,
2013-03-03 04:34:00,32.0,21.6,29.62,NNW,338,8.7,8.7,65,0.00,,SKC,0.00,VWS V14.01,2013-03-03 09:34:00,
2013-03-03 04:36:00,32.5,21.7,29.62,NW,315,7.2,7.8,64,0.00,,SKC,0.00,VWS V14.01,2013-03-03 09:36:00,
2013-03-03 04:38:00,32.0,21.9,29.62,NNW,338,5.4,9.8,66,0.00,,SKC,0.00,VWS V14.01,2013-03-03 09:38:00,
2013-03-03 04:40:00,32.0,21.9,29.62,NW,315,4.7,8.1,66,0.00,,SKC,0.00,VWS V14.01,2013-03-03 09:40:00,
2013-03-03 04:41:00,32.5,21.7,29.62,NW,315,5.8,5.8,64,0.00,,SKC,0.00,VWS V14.01,2013-03-03 09:41:00,
2013-03-03 04:42:00,32.0,21.9,29.62,NNW,338,5.6,7.8,66,0.00,,SKC,0.00,VWS V14.01,2013-03-03 09:42:00,
2013-03-03 04:44:00,32.0,22.3,29.62,NNW,338,5.6,5.6,67,0.00,,SKC,0.00,VWS V14.01,2013-03-03 09:44:00,
2013-03-03 04:46:00,32.5,21.7,29.62,NW,315,6.3,8.7,64,0.00,,SKC,0.00,VWS V14.01,2013-03-03 09:46:00,
2013-03-03 04:48:00,31.8,21.8,29.62,NW,315,7.2,7.2,66,0.00,,SKC,0.00,VWS V14.01,2013-03-03 09:48:00,
2013-03-03 04:50:00,31.8,21.4,29.62,NW,315,7.2,7.2,65,0.00,,SKC,0.00,VWS V14.01,2013-03-03 09:50:00,
2013-03-03 04:51:00,32.5,21.7,29.62,NNW,338,5.8,7.6,64,0.00,,SKC,0.00,VWS V14.01,2013-03-03 09:51:00,
2013-03-03 04:52:00,31.8,21.4,29.62,NW,315,7.2,7.2,65,0.00,,SKC,0.00,VWS V14.01,2013-03-03 09:52:00,
2013-03-03 04:54:00,31.8,21.4,29.62,NW,315,7.2,7.2,65,0.00,,SKC,0.00,VWS V14.01,2013-03-03 09:54:00,
2013-03-03 04:56:00,31.8,21.4,29.62,NW,315,7.2,7.2,65,0.00,,SKC,0.00,VWS V14.01,2013-03-03 09:56:00,
2013-03-03 04:57:00,32.4,21.6,29.62,NW,315,6.3,7.8,64,0.00,,SKC,0.00,VWS V14.01,2013-03-03 09:57:00,
2013-03-03 04:58:00,31.8,21.8,29.62,NW,315,7.2,7.2,66,0.00,,SKC,0.00,VWS V14.01,2013-03-03 09:58:00,
2013-03-03 05:00:00,31.8,21.8,29.59,NW,315,7.2,7.2,66,0.00,,SKC,0.00,VWS V14.01,2013-03-03 10:00:00,
2013-03-03 05:01:00,32.4,21.9,29.62,NW,315,7.6,8.7,65,0.00,,SKC,0.00,VWS V14.01,2013-03-03 10:01:00,
2013-03-03 05:02:00,31.8,21.4,29.59,NW,315,7.2,7.2,65,0.00,,SKC,0.00,VWS V14.01,2013-03-03 10:02:00,
2013-03-03 05:04:00,31.8,21.4,29.59,NW,315,7.2,7.2,65,0.00,,SKC,0.00,VWS V14.01,2013-03-03 10:04:00,
2013-03-03 05:06:00,31.8,21.4,29.59,NW,315,7.2,7.2,65,0.00,,SKC,0.00,VWS V14.01,2013-03-03 10:06:00,
2013-03-03 05:07:00,32.4,21.9,29.62,NW,315,7.8,9.0,65,0.00,,SKC,0.00,VWS V14.01,2013-03-03 10:07:00,
2013-03-03 05:08:00,31.6,20.9,29.59,NW,315,10.3,10.3,64,0.00,,SKC,0.00,VWS V14.01,2013-03-03 10:08:00,
2013-03-03 05:10:00,31.6,20.9,29.59,NW,315,7.4,10.3,64,0.00,,SKC,0.00,VWS V14.01,2013-03-03 10:10:00,
2013-03-03 05:12:00,32.4,22.3,29.62,NW,315,5.8,9.8,66,0.00,,SKC,0.00,VWS V14.01,2013-03-03 10:12:00,
2013-03-03 05:14:00,31.6,21.2,29.59,North,0,5.4,7.4,65,0.00,,SKC,0.00,VWS V14.01,2013-03-03 10:14:00,
2013-03-03 05:16:00,31.6,21.2,29.59,North,0,5.4,5.4,65,0.00,,SKC,0.00,VWS V14.01,2013-03-03 10:16:00,
2013-03-03 05:17:00,32.2,21.8,29.62,NNW,338,10.3,10.3,65,0.00,,SKC,0.00,VWS V14.01,2013-03-03 10:17:00,
2013-03-03 05:18:00,31.6,21.2,29.59,NNW,338,6.3,6.3,65,0.00,,SKC,0.00,VWS V14.01,2013-03-03 10:18:00,
2013-03-03 05:20:00,31.6,21.2,29.59,NW,315,10.3,10.3,65,0.00,,SKC,0.00,VWS V14.01,2013-03-03 10:20:00,
2013-03-03 05:21:00,32.2,21.8,29.62,NW,315,8.1,10.5,65,0.00,,SKC,0.00,VWS V14.01,2013-03-03 10:21:00,
2013-03-03 05:22:00,31.6,21.2,29.59,NW,315,10.3,10.3,65,0.00,,SKC,0.00,VWS V14.01,2013-03-03 10:22:00,
2013-03-03 05:24:00,31.6,21.2,29.59,NNW,338,9.8,10.3,65,0.00,,SKC,0.00,VWS V14.01,2013-03-03 10:24:00,
2013-03-03 05:26:00,31.6,21.2,29.59,NNW,338,9.8,9.8,65,0.00,,SKC,0.00,VWS V14.01,2013-03-03 10:26:00,
2013-03-03 05:27:00,32.2,22.1,29.62,NW,315,5.6,7.6,66,0.00,,SKC,0.00,VWS V14.01,2013-03-03 10:27:00,
2013-03-03 05:28:00,31.6,21.2,29.59,NNW,338,9.8,9.8,65,0.00,,SKC,0.00,VWS V14.01,2013-03-03 10:28:00,
2013-03-03 05:30:00,31.6,21.2,29.62,NW,315,5.8,9.8,65,0.00,,SKC,0.00,VWS V14.01,2013-03-03 10:30:00,
2013-03-03 05:32:00,32.0,21.9,29.62,NW,315,6.5,10.3,66,0.00,,SKC,0.00,VWS V14.01,2013-03-03 10:32:00,
2013-03-03 05:34:00,31.6,21.6,29.62,NW,315,7.6,7.6,66,0.00,,SKC,0.00,VWS V14.01,2013-03-03 10:34:00,
2013-03-03 05:36:00,31.6,21.6,29.62,NW,315,13.2,13.2,66,0.00,,SKC,0.00,VWS V14.01,2013-03-03 10:36:00,
2013-03-03 05:37:00,32.0,21.9,29.62,NNW,338,8.7,9.8,66,0.00,,SKC,0.00,VWS V14.01,2013-03-03 10:37:00,
2013-03-03 05:38:00,31.6,21.6,29.62,NW,315,8.7,13.2,66,0.00,,SKC,0.00,VWS V14.01,2013-03-03 10:38:00,
2013-03-03 05:40:00,31.6,21.2,29.62,NW,315,8.7,8.7,65,0.00,,SKC,0.00,VWS V14.01,2013-03-03 10:40:00,
2013-03-03 05:42:00,32.0,21.9,29.62,NNW,338,5.6,7.8,66,0.00,,SKC,0.00,VWS V14.01,2013-03-03 10:42:00,
2013-03-03 05:44:00,31.6,21.2,29.62,NW,315,8.7,8.7,65,0.00,,SKC,0.00,VWS V14.01,2013-03-03 10:44:00,
2013-03-03 05:46:00,31.6,21.2,29.62,NW,315,8.7,8.7,65,0.00,,SKC,0.00,VWS V14.01,2013-03-03 10:46:00,
2013-03-03 05:47:00,32.0,21.9,29.62,NW,315,7.2,7.2,66,0.00,,SKC,0.00,VWS V14.01,2013-03-03 10:47:00,
2013-03-03 05:48:00,31.6,21.2,29.62,NW,315,8.5,8.7,65,0.00,,SKC,0.00,VWS V14.01,2013-03-03 10:48:00,
2013-03-03 05:50:00,31.6,21.2,29.62,NW,315,8.5,8.5,65,0.00,,SKC,0.00,VWS V14.01,2013-03-03 10:50:00,
2013-03-03 05:52:00,31.8,21.4,29.62,NW,315,7.2,7.2,65,0.00,,SKC,0.00,VWS V14.01,2013-03-03 10:52:00,
2013-03-03 05:54:00,31.6,21.2,29.62,NW,315,8.5,8.5,65,0.00,,SKC,0.00,VWS V14.01,2013-03-03 10:54:00,
2013-03-03 05:55:00,31.6,21.2,29.62,NW,315,8.5,8.5,65,0.00,,SKC,0.00,VWS V14.01,2013-03-03 10:55:00,
2013-03-03 05:56:00,31.6,21.6,29.62,NW,315,8.5,8.5,66,0.00,,SKC,0.00,VWS V14.01,2013-03-03 10:56:00,
2013-03-03 05:57:00,31.8,21.8,29.62,NW,315,7.2,7.2,66,0.00,,SKC,0.00,VWS V14.01,2013-03-03 10:57:00,
2013-03-03 05:58:00,31.8,21.8,29.62,WNW,292,7.2,8.7,66,0.00,,SKC,0.00,VWS V14.01,2013-03-03 10:58:00,
2013-03-03 05:59:00,31.8,21.8,29.62,NW,315,10.5,10.5,66,0.00,,SKC,0.00,VWS V14.01,2013-03-03 10:59:00,
2013-03-03 06:00:00,31.6,21.6,29.62,NW,315,8.5,10.5,66,0.00,,SKC,0.00,VWS V14.01,2013-03-03 11:00:00,
2013-03-03 06:01:00,31.6,21.2,29.62,NW,315,8.5,10.5,65,0.00,,SKC,0.00,VWS V14.01,2013-03-03 11:01:00,
2013-03-03 06:02:00,31.8,21.4,29.59,NW,315,7.2,7.2,65,0.00,,SKC,0.00,VWS V14.01,2013-03-03 11:02:00,
2013-03-03 06:03:00,31.6,20.9,29.62,NNW,338,7.6,11.0,64,0.00,,SKC,0.00,VWS V14.01,2013-03-03 11:03:00,
2013-03-03 06:04:00,31.6,20.9,29.62,NNW,338,7.6,11.0,64,0.00,,SKC,0.00,VWS V14.01,2013-03-03 11:04:00,
2013-03-03 06:05:00,31.6,20.9,29.62,NNW,338,7.6,11.0,64,0.00,,SKC,0.00,VWS V14.01,2013-03-03 11:05:00,
2013-03-03 06:06:00,31.6,20.9,29.62,NW,315,7.4,11.0,64,0.00,,SKC,0.00,VWS V14.01,2013-03-03 11:06:00,
2013-03-03 06:07:00,31.6,20.9,29.59,NW,315,10.3,10.3,64,0.00,,SKC,0.00,VWS V14.01,2013-03-03 11:07:00,
2013-03-03 06:08:00,31.6,20.9,29.62,North,0,7.8,11.0,64,0.00,,SKC,0.00,VWS V14.01,2013-03-03 11:08:00,
2013-03-03 06:09:00,31.6,20.5,29.62,NW,315,10.1,11.0,63,0.00,,SKC,0.00,VWS V14.01,2013-03-03 11:09:00,
2013-03-03 06:10:00,31.6,20.5,29.62,NW,315,10.1,11.0,63,0.00,,SKC,0.00,VWS V14.01,2013-03-03 11:10:00,
2013-03-03 06:11:00,31.6,20.9,29.62,NW,315,10.1,11.0,64,0.00,,SKC,0.00,VWS V14.01,2013-03-03 11:11:00,
2013-03-03 06:12:00,31.6,21.2,29.59,NW,315,7.4,7.4,65,0.00,,SKC,0.00,VWS V14.01,2013-03-03 11:12:00,
2013-03-03 06:13:00,31.6,20.9,29.65,NW,315,10.1,11.0,64,0.00,,SKC,0.00,VWS V14.01,2013-03-03 11:13:00,
2013-03-03 06:14:00,31.6,20.9,29.65,NW,315,5.8,11.0,64,0.00,,SKC,0.00,VWS V14.01,2013-03-03 11:14:00,
2013-03-03 06:15:00,31.6,21.2,29.65,NW,315,5.8,11.0,65,0.00,,SKC,0.00,VWS V14.01,2013-03-03 11:15:00,
2013-03-03 06:16:00,31.8,21.4,29.65,NW,315,5.8,11.0,65,0.00,,SKC,0.00,VWS V14.01,2013-03-03 11:16:00,
2013-03-03 06:17:00,31.6,21.2,29.59,North,0,5.4,5.4,65,0.00,,SKC,0.00,VWS V14.01,2013-03-03 11:17:00,
2013-03-03 06:18:00,31.8,21.4,29.65,NW,315,10.1,11.0,65,0.00,,SKC,0.00,VWS V14.01,2013-03-03 11:18:00,
2013-03-03 06:19:00,31.8,21.4,29.65,NW,315,8.7,11.0,65,0.00,,SKC,0.00,VWS V14.01,2013-03-03 11:19:00,
2013-03-03 06:20:00,31.8,21.0,29.65,NW,315,8.7,11.0,64,0.00,,SKC,0.00,VWS V14.01,2013-03-03 11:20:00,
2013-03-03 06:21:00,31.8,21.4,29.65,NW,315,8.7,11.0,65,0.00,,SKC,0.00,VWS V14.01,2013-03-03 11:21:00,
2013-03-03 06:22:00,31.6,21.2,29.59,NW,315,10.3,10.3,65,0.00,,SKC,0.00,VWS V14.01,2013-03-03 11:22:00,
2013-03-03 06:23:00,31.8,20.7,29.65,NW,315,8.7,10.1,63,0.00,,SKC,0.00,VWS V14.01,2013-03-03 11:23:00,
2013-03-03 06:24:00,31.8,20.7,29.65,NW,315,8.7,10.1,63,0.00,,SKC,0.00,VWS V14.01,2013-03-03 11:24:00,
2013-03-03 06:25:00,31.6,20.5,29.65,NW,315,8.7,10.1,63,0.00,,SKC,0.00,VWS V14.01,2013-03-03 11:25:00,
2013-03-03 06:26:00,31.6,20.1,29.65,NW,315,8.7,10.1,62,0.00,,SKC,0.00,VWS V14.01,2013-03-03 11:26:00,
2013-03-03 06:27:00,31.6,21.2,29.59,NNW,338,9.8,9.8,65,0.00,,SKC,0.00,VWS V14.01,2013-03-03 11:27:00,
2013-03-03 06:28:00,31.6,20.1,29.62,NW,315,8.7,10.1,62,0.00,,SKC,0.00,VWS V14.01,2013-03-03 11:28:00,
2013-03-03 06:29:00,31.5,20.0,29.62,NW,315,8.7,10.1,62,0.00,,SKC,0.00,VWS V14.01,2013-03-03 11:29:00,
2013-03-03 06:30:00,31.5,20.0,29.62,NNW,338,7.4,10.1,62,0.00,,SKC,0.00,VWS V14.01,2013-03-03 11:30:00,
2013-03-03 06:31:00,31.5,20.0,29.62,NNW,338,7.4,10.1,62,0.00,,SKC,0.00,VWS V14.01,2013-03-03 11:31:00,
2013-03-03 06:32:00,31.6,21.6,29.62,NW,315,7.6,7.6,66,0.00,,SKC,0.00,VWS V14.01,2013-03-03 11:32:00,
2013-03-03 06:33:00,31.6,20.5,29.62,NW,315,8.1,10.1,63,0.00,,SKC,0.00,VWS V14.01,2013-03-03 11:33:00,
2013-03-03 06:34:00,31.6,20.5,29.62,NW,315,8.5,10.1,63,0.00,,SKC,0.00,VWS V14.01,2013-03-03 11:34:00,
2013-03-03 06:35:00,31.6,20.9,29.62,NW,315,8.5,10.1,64,0.00,,SKC,0.00,VWS V14.01,2013-03-03 11:35:00,
2013-03-03 06:36:00,31.6,20.9,29.62,NW,315,8.5,10.1,64,0.00,,SKC,0.00,VWS V14.01,2013-03-03 11:36:00,
2013-03-03 06:37:00,31.6,21.6,29.62,NW,315,7.4,13.2,66,0.00,,SKC,0.00,VWS V14.01,2013-03-03 11:37:00,
2013-03-03 06:38:00,31.8,21.0,29.62,NW,315,8.5,8.7,64,0.00,,SKC,0.00,VWS V14.01,2013-03-03 11:38:00,
2013-03-03 06:39:00,31.8,21.0,29.62,NW,315,8.5,8.7,64,0.00,,SKC,0.00,VWS V14.01,2013-03-03 11:39:00,
2013-03-03 06:40:00,31.8,21.0,29.62,NW,315,8.5,8.7,64,0.00,,SKC,0.00,VWS V14.01,2013-03-03 11:40:00,
2013-03-03 06:41:00,31.8,21.0,29.62,NW,315,8.5,8.7,64,0.00,,SKC,0.00,VWS V14.01,2013-03-03 11:41:00,
2013-03-03 06:42:00,31.6,21.2,29.62,NW,315,8.7,8.7,65,0.00,,SKC,0.00,VWS V14.01,2013-03-03 11:42:00,
2013-03-03 06:43:00,31.8,21.0,29.65,NW,315,8.1,8.7,64,0.00,,SKC,0.00,VWS V14.01,2013-03-03 11:43:00,
2013-03-03 06:44:00,31.8,21.0,29.65,NW,315,8.1,8.7,64,0.00,,SKC,0.00,VWS V14.01,2013-03-03 11:44:00,
2013-03-03 06:45:00,31.8,21.0,29.65,NW,315,8.1,8.7,64,0.00,,SKC,0.00,VWS V14.01,2013-03-03 11:45:00,
2013-03-03 06:46:00,31.8,21.0,29.65,NW,315,7.8,8.7,64,0.00,,SKC,0.00,VWS V14.01,2013-03-03 11:46:00,
2013-03-03 06:47:00,31.6,21.2,29.62,NW,315,8.5,8.7,65,0.00,,SKC,0.00,VWS V14.01,2013-03-03 11:47:00,
2013-03-03 06:48:00,31.8,21.0,29.65,NW,315,7.8,8.7,64,0.00,,SKC,0.00,VWS V14.01,2013-03-03 11:48:00,
2013-03-03 06:49:00,31.8,21.0,29.65,NW,315,7.8,8.5,64,0.00,,SKC,0.00,VWS V14.01,2013-03-03 11:49:00,
2013-03-03 06:50:00,31.8,21.0,29.65,NW,315,7.8,8.5,64,0.00,,SKC,0.00,VWS V14.01,2013-03-03 11:50:00,
2013-03-03 06:51:00,31.8,20.7,29.65,NW,315,7.8,8.5,63,0.00,,SKC,0.00,VWS V14.01,2013-03-03 11:51:00,
2013-03-03 06:52:00,31.6,21.2,29.62,NW,315,8.5,8.5,65,0.00,,SKC,0.00,VWS V14.01,2013-03-03 11:52:00,
2013-03-03 06:53:00,32.0,20.9,29.65,NNW,338,10.7,10.7,63,0.00,,SKC,0.00,VWS V14.01,2013-03-03 11:53:00,
2013-03-03 06:54:00,32.0,20.9,29.65,NNW,338,10.7,10.7,63,0.00,,SKC,0.00,VWS V14.01,2013-03-03 11:54:00,
2013-03-03 06:55:00,32.0,20.9,29.65,NNW,338,10.7,10.7,63,0.00,,SKC,0.00,VWS V14.01,2013-03-03 11:55:00,
2013-03-03 06:56:00,32.0,20.9,29.65,NNW,338,10.7,10.7,63,0.00,,SKC,0.00,VWS V14.01,2013-03-03 11:56:00,
2013-03-03 06:57:00,32.0,20.9,29.65,NNW,338,10.7,10.7,63,0.00,,SKC,0.00,VWS V14.01,2013-03-03 11:57:00,
2013-03-03 06:58:00,32.0,20.9,29.65,NNW,338,10.7,10.7,63,0.00,,SKC,0.00,VWS V14.01,2013-03-03 11:58:00,
2013-03-03 06:59:00,32.0,20.9,29.65,NNW,338,10.7,10.7,63,0.00,,SKC,0.00,VWS V14.01,2013-03-03 11:59:00,
2013-03-03 07:00:00,32.2,21.0,29.65,NNW,338,10.7,10.7,63,0.00,,SKC,0.00,VWS V14.01,2013-03-03 12:00:00,
2013-03-03 07:01:00,32.2,21.4,29.65,NNW,338,10.7,10.7,64,0.00,,SKC,0.00,VWS V14.01,2013-03-03 12:01:00,
2013-03-03 07:02:00,32.2,21.4,29.65,NNW,338,10.7,10.7,64,0.00,,SKC,0.00,VWS V14.01,2013-03-03 12:02:00,
2013-03-03 07:03:00,32.2,21.4,29.65,NNW,338,10.7,10.7,64,0.00,,SKC,0.00,VWS V14.01,2013-03-03 12:03:00,
2013-03-03 07:04:00,32.2,21.0,29.65,WNW,292,7.4,10.7,63,0.00,,SKC,0.00,VWS V14.01,2013-03-03 12:04:00,
2013-03-03 07:05:00,32.2,21.0,29.65,WNW,292,7.4,10.7,63,0.00,,SKC,0.00,VWS V14.01,2013-03-03 12:05:00,
2013-03-03 07:06:00,32.2,21.0,29.65,WNW,292,7.4,10.7,63,0.00,,SKC,0.00,VWS V14.01,2013-03-03 12:06:00,
2013-03-03 07:07:00,32.2,21.0,29.65,WNW,292,7.4,10.7,63,0.00,,SKC,0.00,VWS V14.01,2013-03-03 12:07:00,
2013-03-03 07:08:00,32.2,21.0,29.65,WNW,292,7.4,10.7,63,0.00,,SKC,0.00,VWS V14.01,2013-03-03 12:08:00,
2013-03-03 07:09:00,32.2,21.0,29.65,WNW,292,7.4,10.7,63,0.00,,SKC,0.00,VWS V14.01,2013-03-03 12:09:00,
2013-03-03 07:10:00,32.2,21.0,29.65,NW,315,10.3,10.7,63,0.00,,SKC,0.00,VWS V14.01,2013-03-03 12:10:00,
2013-03-03 07:11:00,32.4,21.2,29.65,NW,315,10.3,10.7,63,0.00,,SKC,0.00,VWS V14.01,2013-03-03 12:11:00,
2013-03-03 07:12:00,32.4,21.2,29.65,NW,315,10.3,10.7,63,0.00,,SKC,0.00,VWS V14.01,2013-03-03 12:12:00,
2013-03-03 07:13:00,32.4,21.2,29.65,NW,315,10.3,10.7,63,0.00,,SKC,0.00,VWS V14.01,2013-03-03 12:13:00,
2013-03-03 07:14:00,32.4,21.2,29.65,NW,315,10.3,10.7,63,0.00,,SKC,0.00,VWS V14.01,2013-03-03 12:14:00,
2013-03-03 07:15:00,32.4,21.2,29.65,NW,315,10.3,10.7,63,0.00,,SKC,0.00,VWS V14.01,2013-03-03 12:15:00,
2013-03-03 07:16:00,32.5,21.4,29.65,NW,315,9.6,10.7,63,0.00,,SKC,0.00,VWS V14.01,2013-03-03 12:16:00,
2013-03-03 07:17:00,32.4,21.2,29.65,NW,315,9.6,10.7,63,0.00,,SKC,0.00,VWS V14.01,2013-03-03 12:17:00,
2013-03-03 07:18:00,32.5,21.4,29.65,NW,315,9.6,10.7,63,0.00,,SKC,0.00,VWS V14.01,2013-03-03 12:18:00,
2013-03-03 07:19:00,32.5,21.4,29.65,NW,315,9.6,10.7,63,0.00,,SKC,0.00,VWS V14.01,2013-03-03 12:19:00,
2013-03-03 07:20:00,32.5,21.4,29.65,NW,315,9.6,10.7,63,0.00,,SKC,0.00,VWS V14.01,2013-03-03 12:20:00,
2013-03-03 07:21:00,32.5,21.4,29.65,NW,315,7.2,10.7,63,0.00,,SKC,0.00,VWS V14.01,2013-03-03 12:21:00,
2013-03-03 07:22:00,32.5,21.4,29.65,NW,315,7.2,10.7,63,0.00,,SKC,0.00,VWS V14.01,2013-03-03 12:22:00,
2013-03-03 07:23:00,32.5,21.4,29.65,NW,315,7.2,10.3,63,0.00,,SKC,0.00,VWS V14.01,2013-03-03 12:23:00,
2013-03-03 07:24:00,32.7,21.5,29.65,NW,315,7.2,10.3,63,0.00,,SKC,0.00,VWS V14.01,2013-03-03 12:24:00,
2013-03-03 07:25:00,32.7,21.5,29.65,NW,315,7.2,10.3,63,0.00,,SKC,0.00,VWS V14.01,2013-03-03 12:25:00,
2013-03-03 07:26:00,32.7,21.5,29.65,NW,315,7.2,10.3,63,0.00,,SKC,0.00,VWS V14.01,2013-03-03 12:26:00,
2013-03-03 07:27:00,32.7,21.5,29.65,NW,315,7.2,10.3,63,0.00,,SKC,0.00,VWS V14.01,2013-03-03 12:27:00,
2013-03-03 07:28:00,32.7,21.5,29.62,NW,315,7.2,10.3,63,0.00,,SKC,0.00,VWS V14.01,2013-03-03 12:28:00,
2013-03-03 07:29:00,32.7,21.5,29.62,NW,315,7.2,10.3,63,0.00,,SKC,0.00,VWS V14.01,2013-03-03 12:29:00,
2013-03-03 07:30:00,32.7,21.5,29.62,NW,315,7.2,10.3,63,0.00,,SKC,0.00,VWS V14.01,2013-03-03 12:30:00,
2013-03-03 07:31:00,32.9,21.7,29.62,NW,315,7.2,10.3,63,0.00,,SKC,0.00,VWS V14.01,2013-03-03 12:31:00,
2013-03-03 07:32:00,32.9,21.7,29.62,NW,315,7.2,10.3,63,0.00,,SKC,0.00,VWS V14.01,2013-03-03 12:32:00,
2013-03-03 07:33:00,32.9,21.7,29.62,NW,315,8.5,10.3,63,0.00,,SKC,0.00,VWS V14.01,2013-03-03 12:33:00,
2013-03-03 07:34:00,32.9,21.7,29.62,WNW,292,7.8,10.3,63,0.00,,SKC,0.00,VWS V14.01,2013-03-03 12:34:00,
2013-03-03 07:35:00,33.1,21.9,29.62,NW,315,7.2,9.6,63,0.00,,SKC,0.00,VWS V14.01,2013-03-03 12:35:00,
2013-03-03 07:36:00,33.1,21.9,29.62,NW,315,10.1,10.1,63,0.00,,SKC,0.00,VWS V14.01,2013-03-03 12:36:00,
2013-03-03 07:37:00,33.3,22.4,29.62,NW,315,8.7,10.1,64,0.00,,SKC,0.00,VWS V14.01,2013-03-03 12:37:00,
2013-03-03 07:38:00,33.3,22.4,29.62,NW,315,8.7,10.1,64,0.00,,SKC,0.00,VWS V14.01,2013-03-03 12:38:00,
2013-03-03 07:39:00,33.3,22.0,29.62,NW,315,9.8,10.1,63,0.00,,SKC,0.00,VWS V14.01,2013-03-03 12:39:00,
2013-03-03 07:40:00,33.3,22.0,29.62,NW,315,9.8,10.1,63,0.00,,SKC,0.00,VWS V14.01,2013-03-03 12:40:00,
2013-03-03 07:41:00,33.3,22.0,29.62,NNW,338,6.0,10.1,63,0.00,,SKC,0.00,VWS V14.01,2013-03-03 12:41:00,
2013-03-03 07:42:00,33.3,22.0,29.62,NW,315,7.6,10.1,63,0.00,,SKC,0.00,VWS V14.01,2013-03-03 12:42:00,
2013-03-03 07:43:00,33.4,22.2,29.62,NW,315,6.9,10.1,63,0.00,,SKC,0.00,VWS V14.01,2013-03-03 12:43:00,
2013-03-03 07:44:00,33.4,22.2,29.62,NW,315,6.9,10.1,63,0.00,,SKC,0.00,VWS V14.01,2013-03-03 12:44:00,
2013-03-03 07:45:00,33.4,21.8,29.62,NW,315,6.9,10.1,62,0.00,,SKC,0.00,VWS V14.01,2013-03-03 12:45:00,
2013-03-03 07:46:00,33.4,21.8,29.62,NW,315,6.9,10.1,62,0.00,,SKC,0.00,VWS V14.01,2013-03-03 12:46:00,
2013-03-03 07:47:00,33.4,21.8,29.62,NW,315,6.9,10.1,62,0.00,,SKC,0.00,VWS V14.01,2013-03-03 12:47:00,
2013-03-03 07:48:00,33.4,22.2,29.62,NW,315,8.7,10.1,63,0.00,,SKC,0.00,VWS V14.01,2013-03-03 12:48:00,
2013-03-03 07:49:00,33.4,21.8,29.62,NW,315,8.7,10.1,62,0.00,,SKC,0.00,VWS V14.01,2013-03-03 12:49:00,
2013-03-03 07:51:00,33.3,21.7,29.62,NW,315,8.7,10.1,62,0.00,,SKC,0.00,VWS V14.01,2013-03-03 12:51:00,
2013-03-03 07:52:00,33.3,21.3,29.62,NW,315,8.7,10.1,61,0.00,,SKC,0.00,VWS V14.01,2013-03-03 12:52:00,
2013-03-03 07:53:00,33.3,21.3,29.62,NW,315,8.7,10.1,61,0.00,,SKC,0.00,VWS V14.01,2013-03-03 12:53:00,
2013-03-03 07:54:00,33.3,21.3,29.62,NW,315,8.7,10.1,61,0.00,,SKC,0.00,VWS V14.01,2013-03-03 12:54:00,
2013-03-03 07:55:00,33.1,21.1,29.62,NW,315,8.7,10.1,61,0.00,,SKC,0.00,VWS V14.01,2013-03-03 12:55:00,
2013-03-03 07:56:00,33.1,21.1,29.62,NW,315,9.4,10.1,61,0.00,,SKC,0.00,VWS V14.01,2013-03-03 12:56:00,
2013-03-03 07:57:00,33.1,21.1,29.62,NW,315,9.4,9.8,61,0.00,,SKC,0.00,VWS V14.01,2013-03-03 12:57:00,
2013-03-03 07:58:00,33.1,21.1,29.62,NW,315,9.4,9.8,61,0.00,,SKC,0.00,VWS V14.01,2013-03-03 12:58:00,
2013-03-03 07:59:00,33.1,21.1,29.62,NW,315,9.4,9.8,61,0.00,,SKC,0.00,VWS V14.01,2013-03-03 12:59:00,
2013-03-03 08:00:00,33.1,21.1,29.62,NW,315,9.4,9.8,61,0.00,,SKC,0.00,VWS V14.01,2013-03-03 13:00:00,
2013-03-03 08:02:00,33.1,21.1,29.62,WNW,292,10.3,10.3,61,0.00,,SKC,0.00,VWS V14.01,2013-03-03 13:02:00,
2013-03-03 08:03:00,33.1,21.1,29.62,NW,315,10.1,10.3,61,0.00,,SKC,0.00,VWS V14.01,2013-03-03 13:03:00,
2013-03-03 08:04:00,33.1,21.1,29.62,WNW,292,11.9,11.9,61,0.00,,SKC,0.00,VWS V14.01,2013-03-03 13:04:00,
2013-03-03 08:05:00,33.1,20.7,29.62,WNW,292,11.9,11.9,60,0.00,,SKC,0.00,VWS V14.01,2013-03-03 13:05:00,
2013-03-03 08:06:00,33.1,20.7,29.62,WNW,292,11.9,11.9,60,0.00,,SKC,0.00,VWS V14.01,2013-03-03 13:06:00,
2013-03-03 08:07:00,32.9,20.5,29.62,WNW,292,11.9,11.9,60,0.00,,SKC,0.00,VWS V14.01,2013-03-03 13:07:00,
2013-03-03 08:08:00,32.9,20.5,29.62,WNW,292,11.9,11.9,60,0.00,,SKC,0.00,VWS V14.01,2013-03-03 13:08:00,
2013-03-03 08:09:00,33.1,20.7,29.62,NW,315,9.8,11.9,60,0.00,,SKC,0.00,VWS V14.01,2013-03-03 13:09:00,
2013-03-03 08:10:00,33.1,20.7,29.62,NW,315,9.8,11.9,60,0.00,,SKC,0.00,VWS V14.01,2013-03-03 13:10:00,
2013-03-03 08:11:00,33.1,21.1,29.62,NW,315,9.8,11.9,61,0.00,,SKC,0.00,VWS V14.01,2013-03-03 13:11:00,
2013-03-03 08:12:00,33.1,21.1,29.62,NW,315,9.8,11.9,61,0.00,,SKC,0.00,VWS V14.01,2013-03-03 13:12:00,
2013-03-03 08:13:00,33.3,20.9,29.62,NW,315,6.5,11.9,60,0.00,,SKC,0.00,VWS V14.01,2013-03-03 13:13:00,
2013-03-03 08:14:00,33.3,20.9,29.62,NW,315,9.8,11.9,60,0.00,,SKC,0.00,VWS V14.01,2013-03-03 13:14:00,
2013-03-03 08:15:00,33.4,21.5,29.62,NW,315,9.8,11.9,61,0.00,,SKC,0.00,VWS V14.01,2013-03-03 13:15:00,
2013-03-03 08:16:00,33.6,21.6,29.62,NW,315,9.8,11.9,61,0.00,,SKC,0.00,VWS V14.01,2013-03-03 13:16:00,
2013-03-03 08:17:00,33.8,21.4,29.62,NW,315,9.8,11.9,60,0.00,,SKC,0.00,VWS V14.01,2013-03-03 13:17:00,
2013-03-03 08:18:00,33.8,21.4,29.62,NW,315,9.8,11.9,60,0.00,,SKC,0.00,VWS V14.01,2013-03-03 13:18:00,
2013-03-03 08:19:00,34.0,21.6,29.62,NW,315,9.8,11.9,60,0.00,,SKC,0.00,VWS V14.01,2013-03-03 13:19:00,
2013-03-03 08:20:00,33.8,21.4,29.62,NW,315,9.8,11.9,60,0.00,,SKC,0.00,VWS V14.01,2013-03-03 13:20:00,
2013-03-03 08:21:00,33.8,21.0,29.62,NW,315,5.6,11.9,59,0.00,,SKC,0.00,VWS V14.01,2013-03-03 13:21:00,
2013-03-03 08:22:00,33.8,21.0,29.62,NW,315,7.6,11.9,59,0.00,,SKC,0.00,VWS V14.01,2013-03-03 13:22:00,
2013-03-03 08:23:00,34.0,21.2,29.62,NW,315,7.6,11.9,59,0.00,,SKC,0.00,VWS V14.01,2013-03-03 13:23:00,
2013-03-03 08:24:00,34.0,21.2,29.62,NW,315,7.6,11.9,59,0.00,,SKC,0.00,VWS V14.01,2013-03-03 13:24:00,
2013-03-03 08:25:00,34.0,21.2,29.62,NW,315,4.5,11.9,59,0.00,,SKC,0.00,VWS V14.01,2013-03-03 13:25:00,
2013-03-03 08:26:00,34.0,21.2,29.62,NW,315,4.5,11.9,59,0.00,,SKC,0.00,VWS V14.01,2013-03-03 13:26:00,
2013-03-03 08:27:00,34.0,21.2,29.62,NW,315,4.5,11.9,59,0.00,,SKC,0.00,VWS V14.01,2013-03-03 13:27:00,
2013-03-03 08:28:00,34.2,21.3,29.62,NW,315,4.5,9.8,59,0.00,,SKC,0.00,VWS V14.01,2013-03-03 13:28:00,
2013-03-03 08:29:00,34.2,21.3,29.62,NW,315,7.2,9.8,59,0.00,,SKC,0.00,VWS V14.01,2013-03-03 13:29:00,
2013-03-03 08:30:00,34.3,21.5,29.62,NW,315,7.2,9.8,59,0.00,,SKC,0.00,VWS V14.01,2013-03-03 13:30:00,
2013-03-03 08:31:00,34.3,21.5,29.62,NW,315,7.2,9.8,59,0.00,,SKC,0.00,VWS V14.01,2013-03-03 13:31:00,
2013-03-03 08:32:00,34.2,20.9,29.62,NW,315,7.6,9.8,58,0.00,,SKC,0.00,VWS V14.01,2013-03-03 13:32:00,
2013-03-03 08:33:00,34.3,21.1,29.62,NNW,338,6.3,9.8,58,0.00,,SKC,0.00,VWS V14.01,2013-03-03 13:33:00,
2013-03-03 08:34:00,34.3,21.5,29.62,NNW,338,6.3,9.8,59,0.00,,SKC,0.00,VWS V14.01,2013-03-03 13:34:00,
2013-03-03 08:35:00,34.3,21.1,29.62,NW,315,10.1,10.1,58,0.00,,SKC,0.00,VWS V14.01,2013-03-03 13:35:00,
2013-03-03 08:36:00,34.5,21.7,29.62,NNW,338,9.8,10.1,59,0.00,,SKC,0.00,VWS V14.01,2013-03-03 13:36:00,
2013-03-03 08:37:00,34.7,21.9,29.62,NNW,338,9.8,10.1,59,0.00,,SKC,0.00,VWS V14.01,2013-03-03 13:37:00,
2013-03-03 08:38:00,34.7,21.5,29.62,NNW,338,11.4,11.4,58,0.00,,SKC,0.00,VWS V14.01,2013-03-03 13:38:00,
2013-03-03 08:39:00,34.5,21.3,29.62,NNW,338,9.8,11.4,58,0.00,,SKC,0.00,VWS V14.01,2013-03-03 13:39:00,
2013-03-03 08:40:00,34.7,21.5,29.62,NNW,338,9.8,11.4,58,0.00,,SKC,0.00,VWS V14.01,2013-03-03 13:40:00,
2013-03-03 08:41:00,34.7,21.5,29.62,NNW,338,9.8,11.4,58,0.00,,SKC,0.00,VWS V14.01,2013-03-03 13:41:00,
2013-03-03 08:42:00,34.7,21.5,29.62,NNW,338,9.8,11.4,58,0.00,,SKC,0.00,VWS V14.01,2013-03-03 13:42:00,
2013-03-03 08:43:00,34.9,21.6,29.62,NNW,338,9.8,11.4,58,0.00,,SKC,0.00,VWS V14.01,2013-03-03 13:43:00,
2013-03-03 08:44:00,34.7,21.5,29.62,NNW,338,13.4,13.4,58,0.00,,SKC,0.00,VWS V14.01,2013-03-03 13:44:00,
2013-03-03 08:45:00,34.5,21.3,29.62,NW,315,7.8,13.4,58,0.00,,SKC,0.00,VWS V14.01,2013-03-03 13:45:00,
2013-03-03 08:46:00,34.5,20.9,29.62,NW,315,7.8,13.4,57,0.00,,SKC,0.00,VWS V14.01,2013-03-03 13:46:00,
2013-03-03 08:47:00,34.5,20.9,29.62,NW,315,7.8,13.4,57,0.00,,SKC,0.00,VWS V14.01,2013-03-03 13:47:00,
2013-03-03 08:48:00,34.7,21.5,29.62,NW,315,7.8,13.4,58,0.00,,SKC,0.00,VWS V14.01,2013-03-03 13:48:00,
2013-03-03 08:49:00,34.9,21.6,29.62,NW,315,7.8,13.4,58,0.00,,SKC,0.00,VWS V14.01,2013-03-03 13:49:00,
2013-03-03 08:50:00,34.9,21.6,29.62,NW,315,7.8,13.4,58,0.00,,SKC,0.00,VWS V14.01,2013-03-03 13:50:00,
2013-03-03 08:51:00,34.9,21.6,29.62,NW,315,7.8,13.4,58,0.00,,SKC,0.00,VWS V14.01,2013-03-03 13:51:00,
2013-03-03 08:52:00,34.9,21.6,29.62,NNW,338,6.5,13.4,58,0.00,,SKC,0.00,VWS V14.01,2013-03-03 13:52:00,
2013-03-03 08:53:00,34.9,21.6,29.62,NNW,338,6.5,13.4,58,0.00,,SKC,0.00,VWS V14.01,2013-03-03 13:53:00,
2013-03-03 08:54:00,34.9,21.6,29.62,NW,315,8.5,13.4,58,0.00,,SKC,0.00,VWS V14.01,2013-03-03 13:54:00,
2013-03-03 08:55:00,34.7,21.0,29.62,NW,315,8.5,13.4,57,0.00,,SKC,0.00,VWS V14.01,2013-03-03 13:55:00,
2013-03-03 08:56:00,34.5,20.9,29.62,NW,315,7.4,13.4,57,0.00,,SKC,0.00,VWS V14.01,2013-03-03 13:56:00,
2013-03-03 08:57:00,34.5,20.9,29.62,NW,315,7.4,13.4,57,0.00,,SKC,0.00,VWS V14.01,2013-03-03 13:57:00,
2013-03-03 08:58:00,34.5,20.9,29.62,NW,315,7.4,13.4,57,0.00,,SKC,0.00,VWS V14.01,2013-03-03 13:58:00,
2013-03-03 08:59:00,34.5,20.9,29.62,NW,315,10.5,13.4,57,0.00,,SKC,0.00,VWS V14.01,2013-03-03 13:59:00,
2013-03-03 09:00:00,34.5,20.9,29.62,NW,315,10.5,13.4,57,0.00,,SKC,0.00,VWS V14.01,2013-03-03 14:00:00,
2013-03-03 09:01:00,34.5,20.9,29.62,NW,315,10.5,13.4,57,0.00,,SKC,0.00,VWS V14.01,2013-03-03 14:01:00,
2013-03-03 09:02:00,34.5,20.9,29.62,NW,315,6.5,13.4,57,0.00,,SKC,0.00,VWS V14.01,2013-03-03 14:02:00,
2013-03-03 09:03:00,34.5,20.9,29.62,NW,315,6.5,13.4,57,0.00,,SKC,0.00,VWS V14.01,2013-03-03 14:03:00,
2013-03-03 09:04:00,34.5,21.3,29.62,NW,315,6.5,10.5,58,0.00,,SKC,0.00,VWS V14.01,2013-03-03 14:04:00,
2013-03-03 09:05:00,34.5,21.3,29.62,NW,315,6.5,10.5,58,0.00,,SKC,0.00,VWS V14.01,2013-03-03 14:05:00,
2013-03-03 09:06:00,34.5,20.9,29.62,NW,315,6.5,10.5,57,0.00,,SKC,0.00,VWS V14.01,2013-03-03 14:06:00,
2013-03-03 09:07:00,34.5,20.9,29.62,NW,315,6.5,10.5,57,0.00,,SKC,0.00,VWS V14.01,2013-03-03 14:07:00,
2013-03-03 09:08:00,34.5,20.9,29.62,NW,315,6.5,10.5,57,0.00,,SKC,0.00,VWS V14.01,2013-03-03 14:08:00,
2013-03-03 09:09:00,34.7,21.0,29.62,NW,315,6.5,10.5,57,0.00,,SKC,0.00,VWS V14.01,2013-03-03 14:09:00,
2013-03-03 09:10:00,34.7,21.0,29.62,NW,315,6.5,10.5,57,0.00,,SKC,0.00,VWS V14.01,2013-03-03 14:10:00,
2013-03-03 09:11:00,34.7,21.0,29.62,NW,315,7.6,10.5,57,0.00,,SKC,0.00,VWS V14.01,2013-03-03 14:11:00,
2013-03-03 09:12:00,34.7,21.0,29.62,NW,315,8.1,10.5,57,0.00,,SKC,0.00,VWS V14.01,2013-03-03 14:12:00,
2013-03-03 09:13:00,34.7,21.0,29.59,NW,315,8.1,10.5,57,0.00,,SKC,0.00,VWS V14.01,2013-03-03 14:13:00,
2013-03-03 09:14:00,34.9,21.2,29.59,NW,315,8.1,10.5,57,0.00,,SKC,0.00,VWS V14.01,2013-03-03 14:14:00,
2013-03-03 09:15:00,34.9,21.2,29.59,WNW,292,6.0,10.5,57,0.00,,SKC,0.00,VWS V14.01,2013-03-03 14:15:00,
2013-03-03 09:16:00,34.9,21.2,29.59,WNW,292,6.0,10.5,57,0.00,,SKC,0.00,VWS V14.01,2013-03-03 14:16:00,
2013-03-03 09:17:00,35.1,21.4,29.59,WNW,292,6.0,10.5,57,0.00,,SKC,0.00,VWS V14.01,2013-03-03 14:17:00,
2013-03-03 09:18:00,35.1,21.4,29.59,North,0,10.3,10.5,57,0.00,,SKC,0.00,VWS V14.01,2013-03-03 14:18:00,
2013-03-03 09:19:00,35.1,21.4,29.59,North,0,10.3,10.5,57,0.00,,SKC,0.00,VWS V14.01,2013-03-03 14:19:00,
2013-03-03 09:20:00,35.1,21.0,29.59,North,0,10.3,10.5,56,0.00,,SKC,0.00,VWS V14.01,2013-03-03 14:20:00,
2013-03-03 09:21:00,35.1,21.0,29.59,North,0,10.3,10.3,56,0.00,,SKC,0.00,VWS V14.01,2013-03-03 14:21:00,
2013-03-03 09:22:00,35.2,21.5,29.59,North,0,10.3,10.3,57,0.00,,SKC,0.00,VWS V14.01,2013-03-03 14:22:00,
2013-03-03 09:23:00,35.2,21.1,29.59,NW,315,8.1,10.3,56,0.00,,SKC,0.00,VWS V14.01,2013-03-03 14:23:00,
2013-03-03 09:24:00,35.2,21.5,29.59,NW,315,8.1,10.3,57,0.00,,SKC,0.00,VWS V14.01,2013-03-03 14:24:00,
2013-03-03 09:25:00,35.4,21.3,29.59,NW,315,8.1,10.3,56,0.00,,SKC,0.00,VWS V14.01,2013-03-03 14:25:00,
2013-03-03 09:26:00,35.4,21.7,29.59,NW,315,8.1,10.3,57,0.00,,SKC,0.00,VWS V14.01,2013-03-03 14:26:00,
2013-03-03 09:27:00,35.4,21.7,29.59,North,0,7.4,10.3,57,0.00,,SKC,0.00,VWS V14.01,2013-03-03 14:27:00,
2013-03-03 09:28:00,35.6,21.5,29.62,North,0,7.4,10.3,56,0.00,,SKC,0.00,VWS V14.01,2013-03-03 14:28:00,
2013-03-03 09:29:00,35.6,21.5,29.62,North,0,7.4,10.3,56,0.00,,SKC,0.00,VWS V14.01,2013-03-03 14:29:00,
2013-03-03 09:30:00,35.6,21.5,29.62,North,0,7.4,10.3,56,0.00,,SKC,0.00,VWS V14.01,2013-03-03 14:30:00,
2013-03-03 09:31:00,35.6,21.5,29.62,North,0,7.4,10.3,56,0.00,,SKC,0.00,VWS V14.01,2013-03-03 14:31:00,
2013-03-03 09:32:00,35.8,21.6,29.62,North,0,7.4,10.3,56,0.00,,SKC,0.00,VWS V14.01,2013-03-03 14:32:00,
2013-03-03 09:33:00,35.8,21.6,29.62,North,0,7.4,10.3,56,0.00,,SKC,0.00,VWS V14.01,2013-03-03 14:33:00,
2013-03-03 09:34:00,36.0,21.8,29.62,North,0,7.4,10.3,56,0.00,,SKC,0.00,VWS V14.01,2013-03-03 14:34:00,
2013-03-03 09:35:00,36.0,21.8,29.62,North,0,7.4,10.3,56,0.00,,SKC,0.00,VWS V14.01,2013-03-03 14:35:00,
2013-03-03 09:36:00,36.1,22.0,29.62,North,0,7.4,10.3,56,0.00,,SKC,0.00,VWS V14.01,2013-03-03 14:36:00,
2013-03-03 09:37:00,36.1,22.0,29.62,North,0,7.4,10.3,56,0.00,,SKC,0.00,VWS V14.01,2013-03-03 14:37:00,
2013-03-03 09:38:00,36.1,22.0,29.62,North,0,7.4,10.3,56,0.00,,SKC,0.00,VWS V14.01,2013-03-03 14:38:00,
2013-03-03 09:39:00,36.1,21.5,29.62,North,0,7.4,10.3,55,0.00,,SKC,0.00,VWS V14.01,2013-03-03 14:39:00,
2013-03-03 09:40:00,36.1,22.0,29.62,North,0,7.4,10.3,56,0.00,,SKC,0.00,VWS V14.01,2013-03-03 14:40:00,
2013-03-03 09:41:00,36.1,22.0,29.62,North,0,7.4,10.3,56,0.00,,SKC,0.00,VWS V14.01,2013-03-03 14:41:00,
2013-03-03 09:42:00,36.1,22.0,29.62,North,0,7.4,8.1,56,0.00,,SKC,0.00,VWS V14.01,2013-03-03 14:42:00,
2013-03-03 09:43:00,36.1,22.0,29.62,North,0,7.4,8.1,56,0.00,,SKC,0.00,VWS V14.01,2013-03-03 14:43:00,
2013-03-03 09:44:00,36.0,21.8,29.62,North,0,7.4,8.1,56,0.00,,SKC,0.00,VWS V14.01,2013-03-03 14:44:00,
2013-03-03 09:45:00,36.0,21.4,29.62,North,0,7.4,8.1,55,0.00,,SKC,0.00,VWS V14.01,2013-03-03 14:45:00,
2013-03-03 09:46:00,36.0,21.4,29.62,North,0,7.4,7.4,55,0.00,,SKC,0.00,VWS V14.01,2013-03-03 14:46:00,
2013-03-03 09:47:00,36.0,21.8,29.62,North,0,7.4,7.4,56,0.00,,SKC,0.00,VWS V14.01,2013-03-03 14:47:00,
2013-03-03 09:48:00,36.1,21.5,29.62,North,0,7.4,7.4,55,0.00,,SKC,0.00,VWS V14.01,2013-03-03 14:48:00,
2013-03-03 09:49:00,36.1,21.5,29.62,North,0,7.4,7.4,55,0.00,,SKC,0.00,VWS V14.01,2013-03-03 14:49:00,
2013-03-03 09:50:00,36.1,21.5,29.62,North,0,7.4,7.4,55,0.00,,SKC,0.00,VWS V14.01,2013-03-03 14:50:00,
2013-03-03 09:51:00,36.1,21.5,29.62,North,0,7.4,7.4,55,0.00,,SKC,0.00,VWS V14.01,2013-03-03 14:51:00,
2013-03-03 09:52:00,36.3,21.7,29.62,NW,315,10.1,10.1,55,0.00,,SKC,0.00,VWS V14.01,2013-03-03 14:52:00,
2013-03-03 09:53:00,36.3,21.7,29.62,NW,315,10.1,10.1,55,0.00,,SKC,0.00,VWS V14.01,2013-03-03 14:53:00,
2013-03-03 09:54:00,36.3,21.7,29.62,NW,315,10.1,10.1,55,0.00,,SKC,0.00,VWS V14.01,2013-03-03 14:54:00,
2013-03-03 09:55:00,36.5,21.9,29.62,NW,315,6.5,10.1,55,0.00,,SKC,0.00,VWS V14.01,2013-03-03 14:55:00,
2013-03-03 09:56:00,36.7,22.5,29.62,NW,315,6.5,10.1,56,0.00,,SKC,0.00,VWS V14.01,2013-03-03 14:56:00,
2013-03-03 09:58:00,36.9,22.6,29.62,NW,315,6.5,10.1,56,0.00,,SKC,0.00,VWS V14.01,2013-03-03 14:58:00,
2013-03-03 09:59:00,36.9,22.6,29.62,NW,315,6.5,10.1,56,0.00,,SKC,0.00,VWS V14.01,2013-03-03 14:59:00,
2013-03-03 10:00:00,36.9,22.6,29.62,NW,315,6.5,10.1,56,0.00,,SKC,0.00,VWS V14.01,2013-03-03 15:00:00,
2013-03-03 10:01:00,37.0,22.8,29.62,NW,315,6.5,10.1,56,0.00,,SKC,0.00,VWS V14.01,2013-03-03 15:01:00,
2013-03-03 10:02:00,37.0,22.4,29.62,NW,315,6.5,10.1,55,0.00,,SKC,0.00,VWS V14.01,2013-03-03 15:02:00,
2013-03-03 10:03:00,37.0,22.4,29.62,NW,315,6.5,10.1,55,0.00,,SKC,0.00,VWS V14.01,2013-03-03 15:03:00,
2013-03-03 10:04:00,37.0,22.4,29.62,NW,315,6.5,10.1,55,0.00,,SKC,0.00,VWS V14.01,2013-03-03 15:04:00,
2013-03-03 10:05:00,37.2,22.6,29.62,NW,315,6.5,10.1,55,0.00,,SKC,0.00,VWS V14.01,2013-03-03 15:05:00,
2013-03-03 10:06:00,37.4,22.7,29.62,NW,315,6.5,10.1,55,0.00,,SKC,0.00,VWS V14.01,2013-03-03 15:06:00,
2013-03-03 10:07:00,37.4,22.3,29.62,NW,315,6.5,10.1,54,0.00,,SKC,0.00,VWS V14.01,2013-03-03 15:07:00,
2013-03-03 10:08:00,37.4,22.7,29.62,NW,315,6.5,10.1,55,0.00,,SKC,0.00,VWS V14.01,2013-03-03 15:08:00,
2013-03-03 10:09:00,37.6,22.9,29.62,WNW,292,13.2,13.2,55,0.00,,SKC,0.00,VWS V14.01,2013-03-03 15:09:00,
2013-03-03 10:10:00,37.8,23.1,29.62,NW,315,10.5,13.2,55,0.00,,SKC,0.00,VWS V14.01,2013-03-03 15:10:00,
2013-03-03 10:11:00,37.9,23.2,29.62,NW,315,10.5,13.2,55,0.00,,SKC,0.00,VWS V14.01,2013-03-03 15:11:00,
2013-03-03 10:12:00,37.9,22.8,29.62,NW,315,7.4,13.2,54,0.00,,SKC,0.00,VWS V14.01,2013-03-03 15:12:00,
2013-03-03 10:13:00,37.9,22.8,29.62,WNW,292,8.7,13.2,54,0.00,,SKC,0.00,VWS V14.01,2013-03-03 15:13:00,
2013-03-03 10:14:00,37.9,22.8,29.62,NW,315,8.5,13.2,54,0.00,,SKC,0.00,VWS V14.01,2013-03-03 15:14:00,
2013-03-03 10:15:00,38.1,23.0,29.62,NW,315,10.5,13.2,54,0.00,,SKC,0.00,VWS V14.01,2013-03-03 15:15:00,
2013-03-03 10:16:00,38.1,23.4,29.62,WNW,292,10.3,13.2,55,0.00,,SKC,0.00,VWS V14.01,2013-03-03 15:16:00,
2013-03-03 10:17:00,38.1,23.0,29.62,WNW,292,10.3,13.2,54,0.00,,SKC,0.00,VWS V14.01,2013-03-03 15:17:00,
2013-03-03 10:18:00,37.9,22.4,29.62,WNW,292,10.3,13.2,53,0.00,,SKC,0.00,VWS V14.01,2013-03-03 15:18:00,
2013-03-03 10:19:00,37.9,22.4,29.62,NW,315,8.5,13.2,53,0.00,,SKC,0.00,VWS V14.01,2013-03-03 15:19:00,
2013-03-03 10:20:00,37.9,22.8,29.62,NW,315,8.5,13.2,54,0.00,,SKC,0.00,VWS V14.01,2013-03-03 15:20:00,
2013-03-03 10:21:00,37.9,22.4,29.62,NW,315,8.5,13.2,53,0.00,,SKC,0.00,VWS V14.01,2013-03-03 15:21:00,
2013-03-03 10:22:00,37.9,22.4,29.62,NW,315,8.5,13.2,53,0.00,,SKC,0.00,VWS V14.01,2013-03-03 15:22:00,
2013-03-03 10:23:00,37.9,22.4,29.62,WNW,292,5.4,13.2,53,0.00,,SKC,0.00,VWS V14.01,2013-03-03 15:23:00,
2013-03-03 10:24:00,37.9,22.4,29.62,WNW,292,5.4,13.2,53,0.00,,SKC,0.00,VWS V14.01,2013-03-03 15:24:00,
2013-03-03 10:25:00,38.1,22.5,29.62,WNW,292,5.4,13.2,53,0.00,,SKC,0.00,VWS V14.01,2013-03-03 15:25:00,
2013-03-03 10:26:00,38.1,23.0,29.62,NW,315,7.4,13.2,54,0.00,,SKC,0.00,VWS V14.01,2013-03-03 15:26:00,
2013-03-03 10:27:00,38.1,22.5,29.62,NW,315,7.4,13.2,53,0.00,,SKC,0.00,VWS V14.01,2013-03-03 15:27:00,
2013-03-03 10:28:00,38.1,22.5,29.65,NW,315,7.4,13.2,53,0.00,,SKC,0.00,VWS V14.01,2013-03-03 15:28:00,
2013-03-03 10:29:00,38.3,22.7,29.65,NW,315,7.4,10.5,53,0.00,,SKC,0.00,VWS V14.01,2013-03-03 15:29:00,
2013-03-03 10:30:00,38.3,22.7,29.65,NW,315,7.4,10.5,53,0.00,,SKC,0.00,VWS V14.01,2013-03-03 15:30:00,
2013-03-03 10:31:00,38.5,22.9,29.65,WNW,292,10.5,10.5,53,0.00,,SKC,0.00,VWS V14.01,2013-03-03 15:31:00,
2013-03-03 10:32:00,38.5,22.9,29.65,WNW,292,10.5,10.5,53,0.00,,SKC,0.00,VWS V14.01,2013-03-03 15:32:00,
2013-03-03 10:33:00,38.3,22.2,29.65,West,270,8.7,10.5,52,0.00,,SKC,0.00,VWS V14.01,2013-03-03 15:33:00,
2013-03-03 10:34:00,38.3,22.7,29.65,West,270,8.7,10.5,53,0.00,,SKC,0.00,VWS V14.01,2013-03-03 15:34:00,
2013-03-03 10:35:00,38.3,22.7,29.65,West,270,8.7,10.5,53,0.00,,SKC,0.00,VWS V14.01,2013-03-03 15:35:00,
2013-03-03 10:36:00,38.1,22.1,29.65,West,270,8.7,10.5,52,0.00,,SKC,0.00,VWS V14.01,2013-03-03 15:36:00,
2013-03-03 10:37:00,38.1,22.1,29.65,West,270,8.7,10.5,52,0.00,,SKC,0.00,VWS V14.01,2013-03-03 15:37:00,
2013-03-03 10:38:00,38.3,22.7,29.65,West,270,8.7,10.5,53,0.00,,SKC,0.00,VWS V14.01,2013-03-03 15:38:00,
2013-03-03 10:39:00,38.3,22.2,29.65,West,270,8.7,10.5,52,0.00,,SKC,0.00,VWS V14.01,2013-03-03 15:39:00,
2013-03-03 10:40:00,38.3,22.7,29.65,NW,315,8.5,10.5,53,0.00,,SKC,0.00,VWS V14.01,2013-03-03 15:40:00,
2013-03-03 10:41:00,38.3,22.7,29.65,NW,315,8.5,10.5,53,0.00,,SKC,0.00,VWS V14.01,2013-03-03 15:41:00,
2013-03-03 10:42:00,38.3,22.7,29.65,NW,315,10.3,10.5,53,0.00,,SKC,0.00,VWS V14.01,2013-03-03 15:42:00,
2013-03-03 10:43:00,38.5,22.9,29.59,NW,315,10.3,10.5,53,0.00,,SKC,0.00,VWS V14.01,2013-03-03 15:43:00,
2013-03-03 10:44:00,38.5,22.9,29.59,NW,315,10.3,10.5,53,0.00,,SKC,0.00,VWS V14.01,2013-03-03 15:44:00,
2013-03-03 10:45:00,38.3,22.2,29.59,NW,315,10.3,10.5,52,0.00,,SKC,0.00,VWS V14.01,2013-03-03 15:45:00,
2013-03-03 10:46:00,38.3,22.2,29.59,NW,315,10.3,10.5,52,0.00,,SKC,0.00,VWS V14.01,2013-03-03 15:46:00,
2013-03-03 10:47:00,38.3,22.7,29.59,NW,315,10.3,10.5,53,0.00,,SKC,0.00,VWS V14.01,2013-03-03 15:47:00,
2013-03-03 10:48:00,38.1,22.1,29.59,NW,315,10.3,10.5,52,0.00,,SKC,0.00,VWS V14.01,2013-03-03 15:48:00,
2013-03-03 10:49:00,38.1,22.1,29.59,NW,315,10.3,10.5,52,0.00,,SKC,0.00,VWS V14.01,2013-03-03 15:49:00,
2013-03-03 10:50:00,38.5,22.9,29.59,NW,315,10.3,10.5,53,0.00,,SKC,0.00,VWS V14.01,2013-03-03 15:50:00,
2013-03-03 10:52:00,38.5,22.9,29.59,NW,315,12.3,12.3,53,0.00,,SKC,0.00,VWS V14.01,2013-03-03 15:52:00,
2013-03-03 10:53:00,38.7,23.0,29.59,WNW,292,6.3,12.3,53,0.00,,SKC,0.00,VWS V14.01,2013-03-03 15:53:00,
2013-03-03 10:54:00,38.7,23.0,29.59,WNW,292,8.7,12.3,53,0.00,,SKC,0.00,VWS V14.01,2013-03-03 15:54:00,
2013-03-03 10:55:00,38.7,22.6,29.59,WNW,292,9.6,12.3,52,0.00,,SKC,0.00,VWS V14.01,2013-03-03 15:55:00,
2013-03-03 10:56:00,38.7,23.0,29.59,West,270,7.6,12.3,53,0.00,,SKC,0.00,VWS V14.01,2013-03-03 15:56:00,
2013-03-03 10:57:00,38.8,23.2,29.59,West,270,10.7,12.3,53,0.00,,SKC,0.00,VWS V14.01,2013-03-03 15:57:00,
2013-03-03 10:58:00,38.8,23.2,29.62,WNW,292,10.1,12.3,53,0.00,,SKC,0.00,VWS V14.01,2013-03-03 15:58:00,
2013-03-03 10:59:00,38.8,23.2,29.62,West,270,8.1,12.3,53,0.00,,SKC,0.00,VWS V14.01,2013-03-03 15:59:00,
2013-03-03 11:00:00,38.7,23.0,29.62,West,270,8.1,12.3,53,0.00,,SKC,0.00,VWS V14.01,2013-03-03 16:00:00,
2013-03-03 11:01:00,38.7,22.6,29.62,West,270,8.1,12.3,52,0.00,,SKC,0.00,VWS V14.01,2013-03-03 16:01:00,
2013-03-03 11:03:00,38.7,22.6,29.62,West,270,8.1,12.3,52,0.00,,SKC,0.00,VWS V14.01,2013-03-03 16:03:00,
2013-03-03 11:05:00,38.8,22.7,29.62,NW,315,12.5,12.5,52,0.00,,SKC,0.00,VWS V14.01,2013-03-03 16:05:00,
2013-03-03 11:06:00,38.8,22.7,29.62,WNW,292,8.1,12.5,52,0.00,,SKC,0.00,VWS V14.01,2013-03-03 16:06:00,
2013-03-03 11:07:00,38.8,22.7,29.62,West,270,9.8,12.5,52,0.00,,SKC,0.00,VWS V14.01,2013-03-03 16:07:00,
2013-03-03 11:08:00,38.8,22.7,29.62,WNW,292,6.0,12.5,52,0.00,,SKC,0.00,VWS V14.01,2013-03-03 16:08:00,
2013-03-03 11:09:00,38.8,22.7,29.62,WNW,292,6.0,12.5,52,0.00,,SKC,0.00,VWS V14.01,2013-03-03 16:09:00,
2013-03-03 11:10:00,38.8,22.7,29.62,NW,315,10.5,12.5,52,0.00,,SKC,0.00,VWS V14.01,2013-03-03 16:10:00,
2013-03-03 11:11:00,38.8,22.7,29.62,NW,315,10.5,12.5,52,0.00,,SKC,0.00,VWS V14.01,2013-03-03 16:11:00,
2013-03-03 11:12:00,38.8,22.7,29.62,WNW,292,7.8,12.5,52,0.00,,SKC,0.00,VWS V14.01,2013-03-03 16:12:00,
2013-03-03 11:13:00,38.7,22.1,29.62,WNW,292,7.8,12.5,51,0.00,,SKC,0.00,VWS V14.01,2013-03-03 16:13:00,
2013-03-03 11:14:00,38.7,22.1,29.62,WNW,292,7.8,12.5,51,0.00,,SKC,0.00,VWS V14.01,2013-03-03 16:14:00,
2013-03-03 11:15:00,38.7,22.6,29.62,WNW,292,7.8,12.5,52,0.00,,SKC,0.00,VWS V14.01,2013-03-03 16:15:00,
2013-03-03 11:16:00,38.7,22.1,29.62,WNW,292,7.8,12.5,51,0.00,,SKC,0.00,VWS V14.01,2013-03-03 16:16:00,
2013-03-03 11:17:00,38.7,22.1,29.62,WNW,292,7.8,12.5,51,0.00,,SKC,0.00,VWS V14.01,2013-03-03 16:17:00,
2013-03-03 11:18:00,38.7,22.6,29.62,WNW,292,7.8,12.5,52,0.00,,SKC,0.00,VWS V14.01,2013-03-03 16:18:00,
2013-03-03 11:19:00,38.8,22.7,29.62,WNW,292,7.8,12.5,52,0.00,,SKC,0.00,VWS V14.01,2013-03-03 16:19:00,
2013-03-03 11:20:00,38.8,22.7,29.62,WNW,292,7.8,12.5,52,0.00,,SKC,0.00,VWS V14.01,2013-03-03 16:20:00,
2013-03-03 11:21:00,38.8,22.7,29.62,NW,315,7.8,12.5,52,0.00,,SKC,0.00,VWS V14.01,2013-03-03 16:21:00,
2013-03-03 11:22:00,39.0,22.9,29.62,WNW,292,9.6,12.5,52,0.00,,SKC,0.00,VWS V14.01,2013-03-03 16:22:00,
2013-03-03 11:23:00,39.0,22.9,29.62,WNW,292,9.6,12.5,52,0.00,,SKC,0.00,VWS V14.01,2013-03-03 16:23:00,
2013-03-03 11:24:00,39.0,22.4,29.62,WNW,292,9.6,12.5,51,0.00,,SKC,0.00,VWS V14.01,2013-03-03 16:24:00,
2013-03-03 11:25:00,39.0,22.9,29.62,WNW,292,9.6,10.5,52,0.00,,SKC,0.00,VWS V14.01,2013-03-03 16:25:00,
2013-03-03 11:26:00,39.2,23.1,29.62,WNW,292,9.6,10.5,52,0.00,,SKC,0.00,VWS V14.01,2013-03-03 16:26:00,
2013-03-03 11:27:00,39.2,22.6,29.62,WNW,292,9.6,10.5,51,0.00,,SKC,0.00,VWS V14.01,2013-03-03 16:27:00,
2013-03-03 11:28:00,39.2,22.6,29.62,NW,315,7.6,10.5,51,0.00,,SKC,0.00,VWS V14.01,2013-03-03 16:28:00,
2013-03-03 11:29:00,38.8,22.3,29.62,NW,315,7.6,10.5,51,0.00,,SKC,0.00,VWS V14.01,2013-03-03 16:29:00,
2013-03-03 11:30:00,39.0,22.4,29.62,NW,315,7.6,10.5,51,0.00,,SKC,0.00,VWS V14.01,2013-03-03 16:30:00,
2013-03-03 11:31:00,38.8,22.3,29.62,NW,315,7.6,9.6,51,0.00,,SKC,0.00,VWS V14.01,2013-03-03 16:31:00,
2013-03-03 11:32:00,38.8,22.3,29.62,NW,315,14.3,14.3,51,0.00,,SKC,0.00,VWS V14.01,2013-03-03 16:32:00,
2013-03-03 11:33:00,38.8,22.3,29.62,NW,315,14.3,14.3,51,0.00,,SKC,0.00,VWS V14.01,2013-03-03 16:33:00,
2013-03-03 11:34:00,39.0,22.4,29.62,NW,315,7.2,14.3,51,0.00,,SKC,0.00,VWS V14.01,2013-03-03 16:34:00,
2013-03-03 11:35:00,39.0,22.4,29.62,NW,315,6.3,14.3,51,0.00,,SKC,0.00,VWS V14.01,2013-03-03 16:35:00,
2013-03-03 11:36:00,39.0,22.4,29.62,WNW,292,7.4,14.3,51,0.00,,SKC,0.00,VWS V14.01,2013-03-03 16:36:00,
2013-03-03 11:37:00,39.0,22.4,29.62,NW,315,7.4,14.3,51,0.00,,SKC,0.00,VWS V14.01,2013-03-03 16:37:00,
2013-03-03 11:38:00,39.0,22.4,29.62,West,270,7.6,14.3,51,0.00,,SKC,0.00,VWS V14.01,2013-03-03 16:38:00,
2013-03-03 11:39:00,39.2,22.6,29.62,West,270,8.1,14.3,51,0.00,,SKC,0.00,VWS V14.01,2013-03-03 16:39:00,
2013-03-03 11:40:00,39.4,22.8,29.62,West,270,13.2,14.3,51,0.00,,SKC,0.00,VWS V14.01,2013-03-03 16:40:00,
2013-03-03 11:41:00,39.4,23.2,29.62,West,270,13.2,14.3,52,0.00,,SKC,0.00,VWS V14.01,2013-03-03 16:41:00,
2013-03-03 11:42:00,39.4,23.2,29.62,West,270,13.2,14.3,52,0.00,,SKC,0.00,VWS V14.01,2013-03-03 16:42:00,
2013-03-03 11:43:00,39.6,22.9,29.62,West,270,13.2,14.3,51,0.00,,SKC,0.00,VWS V14.01,2013-03-03 16:43:00,
2013-03-03 11:44:00,39.6,22.9,29.62,West,270,13.2,14.3,51,0.00,,SKC,0.00,VWS V14.01,2013-03-03 16:44:00,
2013-03-03 11:45:00,39.6,22.9,29.62,West,270,13.2,14.3,51,0.00,,SKC,0.00,VWS V14.01,2013-03-03 16:45:00,
2013-03-03 11:46:00,39.6,22.9,29.62,West,270,9.2,14.3,51,0.00,,SKC,0.00,VWS V14.01,2013-03-03 16:46:00,
2013-03-03 11:47:00,39.6,22.9,29.62,West,270,9.2,14.3,51,0.00,,SKC,0.00,VWS V14.01,2013-03-03 16:47:00,
2013-03-03 11:48:00,39.6,22.9,29.62,West,270,9.2,14.3,51,0.00,,SKC,0.00,VWS V14.01,2013-03-03 16:48:00,
2013-03-03 11:49:00,39.4,22.3,29.62,West,270,9.2,14.3,50,0.00,,SKC,0.00,VWS V14.01,2013-03-03 16:49:00,
2013-03-03 11:50:00,39.6,22.9,29.62,West,270,9.2,14.3,51,0.00,,SKC,0.00,VWS V14.01,2013-03-03 16:50:00,
2013-03-03 11:51:00,39.6,22.9,29.62,West,270,9.2,14.3,51,0.00,,SKC,0.00,VWS V14.01,2013-03-03 16:51:00,
2013-03-03 11:52:00,39.6,22.9,29.62,WNW,292,10.5,14.3,51,0.00,,SKC,0.00,VWS V14.01,2013-03-03 16:52:00,
2013-03-03 11:53:00,39.6,22.9,29.62,WNW,292,10.5,13.2,51,0.00,,SKC,0.00,VWS V14.01,2013-03-03 16:53:00,
2013-03-03 11:54:00,39.6,22.5,29.62,WNW,292,10.5,13.2,50,0.00,,SKC,0.00,VWS V14.01,2013-03-03 16:54:00,
2013-03-03 11:55:00,39.7,23.1,29.62,WNW,292,10.5,13.2,51,0.00,,SKC,0.00,VWS V14.01,2013-03-03 16:55:00,
2013-03-03 11:56:00,39.7,23.1,29.62,WNW,292,10.5,13.2,51,0.00,,SKC,0.00,VWS V14.01,2013-03-03 16:56:00,
2013-03-03 11:57:00,39.7,23.1,29.62,WNW,292,10.5,13.2,51,0.00,,SKC,0.00,VWS V14.01,2013-03-03 16:57:00,
2013-03-03 11:58:00,39.9,23.3,29.59,WNW,292,10.5,13.2,51,0.00,,SKC,0.00,VWS V14.01,2013-03-03 16:58:00,
2013-03-03 11:59:00,39.9,23.3,29.59,WNW,292,10.5,13.2,51,0.00,,SKC,0.00,VWS V14.01,2013-03-03 16:59:00,
2013-03-03 12:00:00,39.9,22.8,29.59,WNW,292,10.5,13.2,50,0.00,,SKC,0.00,VWS V14.01,2013-03-03 17:00:00,
2013-03-03 12:01:00,39.7,22.6,29.59,NW,315,7.4,13.2,50,0.00,,SKC,0.00,VWS V14.01,2013-03-03 17:01:00,
2013-03-03 12:02:00,39.7,23.1,29.59,NW,315,7.8,13.2,51,0.00,,SKC,0.00,VWS V14.01,2013-03-03 17:02:00,
2013-03-03 12:03:00,39.7,23.1,29.59,West,270,8.5,13.2,51,0.00,,SKC,0.00,VWS V14.01,2013-03-03 17:03:00,
2013-03-03 12:04:00,39.7,22.6,29.59,West,270,8.5,13.2,50,0.00,,SKC,0.00,VWS V14.01,2013-03-03 17:04:00,
2013-03-03 12:05:00,39.7,23.1,29.59,WNW,292,8.1,10.5,51,0.00,,SKC,0.00,VWS V14.01,2013-03-03 17:05:00,
2013-03-03 12:06:00,39.7,23.1,29.59,WNW,292,7.8,10.5,51,0.00,,SKC,0.00,VWS V14.01,2013-03-03 17:06:00,
2013-03-03 12:07:00,39.9,23.3,29.59,NW,315,10.5,10.5,51,0.00,,SKC,0.00,VWS V14.01,2013-03-03 17:07:00,
2013-03-03 12:08:00,39.7,22.6,29.59,WNW,292,7.8,10.5,50,0.00,,SKC,0.00,VWS V14.01,2013-03-03 17:08:00,
2013-03-03 12:09:00,39.7,22.6,29.59,NW,315,6.7,10.5,50,0.00,,SKC,0.00,VWS V14.01,2013-03-03 17:09:00,
2013-03-03 12:10:00,39.7,22.6,29.59,WNW,292,10.3,10.5,50,0.00,,SKC,0.00,VWS V14.01,2013-03-03 17:10:00,
2013-03-03 12:11:00,39.7,22.6,29.59,WNW,292,10.3,10.5,50,0.00,,SKC,0.00,VWS V14.01,2013-03-03 17:11:00,
2013-03-03 12:12:00,39.7,22.6,29.59,WNW,292,10.3,10.5,50,0.00,,SKC,0.00,VWS V14.01,2013-03-03 17:12:00,
2013-03-03 12:13:00,39.7,22.6,29.59,WNW,292,10.3,10.5,50,0.00,,SKC,0.00,VWS V14.01,2013-03-03 17:13:00,
2013-03-03 12:14:00,39.7,22.6,29.59,WNW,292,10.3,10.5,50,0.00,,SKC,0.00,VWS V14.01,2013-03-03 17:14:00,
2013-03-03 12:15:00,39.7,22.6,29.59,WNW,292,10.3,10.5,50,0.00,,SKC,0.00,VWS V14.01,2013-03-03 17:15:00,
2013-03-03 12:16:00,39.6,22.5,29.59,WNW,292,10.3,10.5,50,0.00,,SKC,0.00,VWS V14.01,2013-03-03 17:16:00,
2013-03-03 12:17:00,39.7,22.6,29.59,WNW,292,10.3,10.5,50,0.00,,SKC,0.00,VWS V14.01,2013-03-03 17:17:00,
2013-03-03 12:18:00,39.6,22.5,29.59,WNW,292,10.3,10.5,50,0.00,,SKC,0.00,VWS V14.01,2013-03-03 17:18:00,
2013-03-03 12:19:00,39.4,21.8,29.59,WNW,292,10.3,10.5,49,0.00,,SKC,0.00,VWS V14.01,2013-03-03 17:19:00,
2013-03-03 12:20:00,39.4,21.8,29.59,WNW,292,10.3,10.5,49,0.00,,SKC,0.00,VWS V14.01,2013-03-03 17:20:00,
2013-03-03 12:21:00,39.4,21.8,29.59,WNW,292,10.3,10.5,49,0.00,,SKC,0.00,VWS V14.01,2013-03-03 17:21:00,
2013-03-03 12:22:00,39.6,22.5,29.59,WNW,292,10.3,10.5,50,0.00,,SKC,0.00,VWS V14.01,2013-03-03 17:22:00,
2013-03-03 12:23:00,39.4,21.8,29.59,WNW,292,10.3,10.5,49,0.00,,SKC,0.00,VWS V14.01,2013-03-03 17:23:00,
2013-03-03 12:24:00,39.4,21.8,29.59,WNW,292,10.3,10.5,49,0.00,,SKC,0.00,VWS V14.01,2013-03-03 17:24:00,
2013-03-03 12:25:00,39.6,22.5,29.59,NW,315,10.7,10.7,50,0.00,,SKC,0.00,VWS V14.01,2013-03-03 17:25:00,
2013-03-03 12:26:00,39.7,22.6,29.59,NW,315,10.7,10.7,50,0.00,,SKC,0.00,VWS V14.01,2013-03-03 17:26:00,
2013-03-03 12:27:00,39.7,22.6,29.59,NW,315,10.7,10.7,50,0.00,,SKC,0.00,VWS V14.01,2013-03-03 17:27:00,
2013-03-03 12:28:00,39.9,22.8,29.59,NW,315,10.7,10.7,50,0.00,,SKC,0.00,VWS V14.01,2013-03-03 17:28:00,
2013-03-03 12:29:00,39.7,22.6,29.59,NW,315,10.7,10.7,50,0.00,,SKC,0.00,VWS V14.01,2013-03-03 17:29:00,
2013-03-03 12:30:00,39.7,22.6,29.59,NW,315,10.7,10.7,50,0.00,,SKC,0.00,VWS V14.01,2013-03-03 17:30:00,
2013-03-03 12:31:00,39.7,22.6,29.59,NW,315,10.7,10.7,50,0.00,,SKC,0.00,VWS V14.01,2013-03-03 17:31:00,
2013-03-03 12:32:00,39.6,22.0,29.59,NW,315,10.7,10.7,49,0.00,,SKC,0.00,VWS V14.01,2013-03-03 17:32:00,
2013-03-03 12:33:00,39.6,22.5,29.59,NW,315,10.7,10.7,50,0.00,,SKC,0.00,VWS V14.01,2013-03-03 17:33:00,
2013-03-03 12:34:00,39.4,22.3,29.59,NW,315,10.7,10.7,50,0.00,,SKC,0.00,VWS V14.01,2013-03-03 17:34:00,
2013-03-03 12:35:00,39.4,22.3,29.59,NW,315,10.7,10.7,50,0.00,,SKC,0.00,VWS V14.01,2013-03-03 17:35:00,
2013-03-03 12:36:00,39.4,21.8,29.59,NW,315,10.7,10.7,49,0.00,,SKC,0.00,VWS V14.01,2013-03-03 17:36:00,
2013-03-03 12:37:00,39.4,22.3,29.59,NW,315,10.7,10.7,50,0.00,,SKC,0.00,VWS V14.01,2013-03-03 17:37:00,
2013-03-03 12:38:00,39.2,21.7,29.59,NW,315,10.7,10.7,49,0.00,,SKC,0.00,VWS V14.01,2013-03-03 17:38:00,
2013-03-03 12:39:00,39.4,22.3,29.59,NW,315,10.7,10.7,50,0.00,,SKC,0.00,VWS V14.01,2013-03-03 17:39:00,
2013-03-03 12:40:00,39.4,22.3,29.59,NW,315,10.7,10.7,50,0.00,,SKC,0.00,VWS V14.01,2013-03-03 17:40:00,
2013-03-03 12:41:00,39.4,22.3,29.59,NW,315,10.7,10.7,50,0.00,,SKC,0.00,VWS V14.01,2013-03-03 17:41:00,
2013-03-03 12:42:00,39.4,22.3,29.59,NW,315,10.7,10.7,50,0.00,,SKC,0.00,VWS V14.01,2013-03-03 17:42:00,
2013-03-03 12:43:00,39.6,22.5,29.59,NW,315,10.7,10.7,50,0.00,,SKC,0.00,VWS V14.01,2013-03-03 17:43:00,
2013-03-03 12:44:00,39.7,22.6,29.59,NW,315,10.7,10.7,50,0.00,,SKC,0.00,VWS V14.01,2013-03-03 17:44:00,
2013-03-03 12:47:00,39.7,22.6,29.59,NW,315,10.7,10.7,50,0.00,,SKC,0.00,VWS V14.01,2013-03-03 17:47:00,
2013-03-03 12:48:00,39.7,22.6,29.59,NW,315,10.7,10.7,50,0.00,,SKC,0.00,VWS V14.01,2013-03-03 17:48:00,
2013-03-03 12:49:00,39.7,22.6,29.59,NW,315,10.7,10.7,50,0.00,,SKC,0.00,VWS V14.01,2013-03-03 17:49:00,
2013-03-03 12:50:00,39.7,22.6,29.59,NW,315,9.4,10.7,50,0.00,,SKC,0.00,VWS V14.01,2013-03-03 17:50:00,
2013-03-03 12:51:00,39.7,22.6,29.59,NW,315,9.4,10.7,50,0.00,,SKC,0.00,VWS V14.01,2013-03-03 17:51:00,
2013-03-03 12:52:00,39.7,22.6,29.59,NW,315,9.4,10.7,50,0.00,,SKC,0.00,VWS V14.01,2013-03-03 17:52:00,
2013-03-03 12:53:00,39.7,22.6,29.59,NW,315,9.4,10.7,50,0.00,,SKC,0.00,VWS V14.01,2013-03-03 17:53:00,
2013-03-03 12:54:00,39.7,22.6,29.59,NW,315,9.4,10.7,50,0.00,,SKC,0.00,VWS V14.01,2013-03-03 17:54:00,
2013-03-03 12:55:00,39.7,22.6,29.59,NW,315,9.4,10.7,50,0.00,,SKC,0.00,VWS V14.01,2013-03-03 17:55:00,
2013-03-03 12:56:00,39.7,22.6,29.59,NW,315,9.4,10.7,50,0.00,,SKC,0.00,VWS V14.01,2013-03-03 17:56:00,
2013-03-03 12:57:00,39.9,22.8,29.59,NW,315,9.4,10.7,50,0.00,,SKC,0.00,VWS V14.01,2013-03-03 17:57:00,
2013-03-03 12:58:00,39.9,22.8,29.59,NW,315,9.4,10.7,50,0.00,,SKC,0.00,VWS V14.01,2013-03-03 17:58:00,
2013-03-03 12:59:00,39.9,22.8,29.59,NW,315,9.4,10.7,50,0.00,,SKC,0.00,VWS V14.01,2013-03-03 17:59:00,
2013-03-03 13:00:00,39.9,22.8,29.59,NW,315,9.4,10.7,50,0.00,,SKC,0.00,VWS V14.01,2013-03-03 18:00:00,
2013-03-03 13:01:00,39.9,22.8,29.59,NW,315,9.4,10.7,50,0.00,,SKC,0.00,VWS V14.01,2013-03-03 18:01:00,
2013-03-03 13:02:00,39.9,22.8,29.59,NW,315,9.4,10.7,50,0.00,,SKC,0.00,VWS V14.01,2013-03-03 18:02:00,
2013-03-03 13:03:00,39.7,22.6,29.59,NW,315,9.4,10.7,50,0.00,,SKC,0.00,VWS V14.01,2013-03-03 18:03:00,
2013-03-03 13:04:00,39.6,22.5,29.59,NW,315,9.4,10.7,50,0.00,,SKC,0.00,VWS V14.01,2013-03-03 18:04:00,
2013-03-03 13:05:00,39.4,22.3,29.59,NW,315,9.4,10.7,50,0.00,,SKC,0.00,VWS V14.01,2013-03-03 18:05:00,
2013-03-03 13:06:00,39.4,22.3,29.59,West,270,10.5,10.7,50,0.00,,SKC,0.00,VWS V14.01,2013-03-03 18:06:00,
2013-03-03 13:07:00,39.6,22.5,29.59,NW,315,7.4,10.7,50,0.00,,SKC,0.00,VWS V14.01,2013-03-03 18:07:00,
2013-03-03 13:08:00,39.6,22.5,29.59,NW,315,7.4,10.7,50,0.00,,SKC,0.00,VWS V14.01,2013-03-03 18:08:00,
2013-03-03 13:09:00,39.6,22.5,29.59,NW,315,7.4,10.5,50,0.00,,SKC,0.00,VWS V14.01,2013-03-03 18:09:00,
2013-03-03 13:10:00,39.6,22.5,29.59,NW,315,7.4,10.5,50,0.00,,SKC,0.00,VWS V14.01,2013-03-03 18:10:00,
2013-03-03 13:11:00,39.6,22.5,29.59,NW,315,7.4,10.5,50,0.00,,SKC,0.00,VWS V14.01,2013-03-03 18:11:00,
2013-03-03 13:12:00,39.6,22.5,29.59,NW,315,7.4,10.5,50,0.00,,SKC,0.00,VWS V14.01,2013-03-03 18:12:00,
2013-03-03 13:13:00,39.6,22.5,29.59,NW,315,7.4,10.5,50,0.00,,SKC,0.00,VWS V14.01,2013-03-03 18:13:00,
2013-03-03 13:14:00,39.4,22.3,29.59,NW,315,10.3,10.5,50,0.00,,SKC,0.00,VWS V14.01,2013-03-03 18:14:00,
2013-03-03 13:15:00,39.4,22.3,29.59,NW,315,10.3,10.5,50,0.00,,SKC,0.00,VWS V14.01,2013-03-03 18:15:00,
2013-03-03 13:16:00,39.4,22.3,29.59,NW,315,10.3,10.5,50,0.00,,SKC,0.00,VWS V14.01,2013-03-03 18:16:00,
2013-03-03 13:17:00,39.4,22.3,29.59,NW,315,10.3,10.5,50,0.00,,SKC,0.00,VWS V14.01,2013-03-03 18:17:00,
2013-03-03 13:18:00,39.4,22.3,29.59,NW,315,10.3,10.5,50,0.00,,SKC,0.00,VWS V14.01,2013-03-03 18:18:00,
2013-03-03 13:19:00,39.4,22.3,29.59,NW,315,10.3,10.5,50,0.00,,SKC,0.00,VWS V14.01,2013-03-03 18:19:00,
2013-03-03 13:20:00,39.6,22.5,29.59,WNW,292,7.4,10.5,50,0.00,,SKC,0.00,VWS V14.01,2013-03-03 18:20:00,
2013-03-03 13:21:00,39.6,22.5,29.59,NW,315,6.9,10.5,50,0.00,,SKC,0.00,VWS V14.01,2013-03-03 18:21:00,
2013-03-03 13:22:00,39.6,22.5,29.59,NW,315,6.9,10.5,50,0.00,,SKC,0.00,VWS V14.01,2013-03-03 18:22:00,
2013-03-03 13:23:00,39.6,22.5,29.59,NW,315,6.9,10.5,50,0.00,,SKC,0.00,VWS V14.01,2013-03-03 18:23:00,
2013-03-03 13:24:00,39.4,22.3,29.59,NW,315,6.9,10.5,50,0.00,,SKC,0.00,VWS V14.01,2013-03-03 18:24:00,
2013-03-03 13:25:00,39.4,22.3,29.59,NW,315,6.9,10.5,50,0.00,,SKC,0.00,VWS V14.01,2013-03-03 18:25:00,
2013-03-03 13:26:00,39.4,22.3,29.59,NW,315,6.9,10.3,50,0.00,,SKC,0.00,VWS V14.01,2013-03-03 18:26:00,
2013-03-03 13:27:00,39.4,22.3,29.59,NW,315,6.9,10.3,50,0.00,,SKC,0.00,VWS V14.01,2013-03-03 18:27:00,
2013-03-03 13:28:00,39.4,22.3,29.59,NW,315,6.9,10.3,50,0.00,,SKC,0.00,VWS V14.01,2013-03-03 18:28:00,
2013-03-03 13:29:00,39.4,22.3,29.59,NW,315,6.9,10.3,50,0.00,,SKC,0.00,VWS V14.01,2013-03-03 18:29:00,
2013-03-03 13:30:00,39.4,22.3,29.59,NW,315,6.9,10.3,50,0.00,,SKC,0.00,VWS V14.01,2013-03-03 18:30:00,
2013-03-03 13:31:00,39.6,22.5,29.59,NW,315,6.9,10.3,50,0.00,,SKC,0.00,VWS V14.01,2013-03-03 18:31:00,
2013-03-03 13:32:00,39.4,22.3,29.59,NW,315,6.9,10.3,50,0.00,,SKC,0.00,VWS V14.01,2013-03-03 18:32:00,
2013-03-03 13:33:00,39.4,22.3,29.59,NW,315,6.9,10.3,50,0.00,,SKC,0.00,VWS V14.01,2013-03-03 18:33:00,
2013-03-03 13:34:00,39.4,22.3,29.59,NW,315,6.9,10.3,50,0.00,,SKC,0.00,VWS V14.01,2013-03-03 18:34:00,
2013-03-03 13:35:00,39.4,22.3,29.59,NW,315,6.9,10.3,50,0.00,,SKC,0.00,VWS V14.01,2013-03-03 18:35:00,
2013-03-03 13:36:00,39.2,22.1,29.59,WNW,292,7.8,10.3,50,0.00,,SKC,0.00,VWS V14.01,2013-03-03 18:36:00,
2013-03-03 13:37:00,39.2,22.1,29.59,WNW,292,7.8,10.3,50,0.00,,SKC,0.00,VWS V14.01,2013-03-03 18:37:00,
2013-03-03 13:38:00,39.2,22.1,29.59,WNW,292,7.8,10.3,50,0.00,,SKC,0.00,VWS V14.01,2013-03-03 18:38:00,
2013-03-03 13:39:00,39.2,22.1,29.59,NW,315,11.0,11.0,50,0.00,,SKC,0.00,VWS V14.01,2013-03-03 18:39:00,
2013-03-03 13:40:00,39.2,22.1,29.59,NW,315,11.0,11.0,50,0.00,,SKC,0.00,VWS V14.01,2013-03-03 18:40:00,
2013-03-03 13:41:00,39.2,22.1,29.59,NW,315,11.0,11.0,50,0.00,,SKC,0.00,VWS V14.01,2013-03-03 18:41:00,
2013-03-03 13:42:00,39.0,22.0,29.59,NW,315,11.0,11.0,50,0.00,,SKC,0.00,VWS V14.01,2013-03-03 18:42:00,
2013-03-03 13:43:00,39.0,22.0,29.59,NW,315,11.0,11.0,50,0.00,,SKC,0.00,VWS V14.01,2013-03-03 18:43:00,
2013-03-03 13:44:00,39.0,22.0,29.59,NW,315,11.0,11.0,50,0.00,,SKC,0.00,VWS V14.01,2013-03-03 18:44:00,
2013-03-03 13:45:00,39.0,22.0,29.59,NW,315,11.0,11.0,50,0.00,,SKC,0.00,VWS V14.01,2013-03-03 18:45:00,
2013-03-03 13:46:00,38.8,21.8,29.59,NW,315,11.0,11.0,50,0.00,,SKC,0.00,VWS V14.01,2013-03-03 18:46:00,
2013-03-03 13:47:00,38.8,21.8,29.59,NW,315,11.0,11.0,50,0.00,,SKC,0.00,VWS V14.01,2013-03-03 18:47:00,
2013-03-03 13:48:00,38.8,21.8,29.59,WNW,292,12.8,12.8,50,0.00,,SKC,0.00,VWS V14.01,2013-03-03 18:48:00,
2013-03-03 13:49:00,38.8,21.8,29.59,WNW,292,12.8,12.8,50,0.00,,SKC,0.00,VWS V14.01,2013-03-03 18:49:00,
2013-03-03 13:50:00,38.8,21.8,29.59,WNW,292,12.8,12.8,50,0.00,,SKC,0.00,VWS V14.01,2013-03-03 18:50:00,
2013-03-03 13:51:00,38.8,21.8,29.59,WNW,292,12.8,12.8,50,0.00,,SKC,0.00,VWS V14.01,2013-03-03 18:51:00,
2013-03-03 13:52:00,38.8,21.8,29.59,WNW,292,12.8,12.8,50,0.00,,SKC,0.00,VWS V14.01,2013-03-03 18:52:00,
2013-03-03 13:53:00,38.8,21.8,29.59,WNW,292,12.8,12.8,50,0.00,,SKC,0.00,VWS V14.01,2013-03-03 18:53:00,
2013-03-03 13:54:00,38.8,21.8,29.59,NW,315,8.1,12.8,50,0.00,,SKC,0.00,VWS V14.01,2013-03-03 18:54:00,
2013-03-03 13:55:00,38.8,21.8,29.59,NW,315,8.1,12.8,50,0.00,,SKC,0.00,VWS V14.01,2013-03-03 18:55:00,
2013-03-03 13:56:00,38.8,21.8,29.59,NW,315,8.1,12.8,50,0.00,,SKC,0.00,VWS V14.01,2013-03-03 18:56:00,
2013-03-03 13:57:00,38.7,21.6,29.59,NW,315,8.1,12.8,50,0.00,,SKC,0.00,VWS V14.01,2013-03-03 18:57:00,
2013-03-03 13:58:00,38.7,21.6,29.56,WNW,292,10.5,12.8,50,0.00,,SKC,0.00,VWS V14.01,2013-03-03 18:58:00,
2013-03-03 13:59:00,38.7,21.6,29.56,WNW,292,10.5,12.8,50,0.00,,SKC,0.00,VWS V14.01,2013-03-03 18:59:00,
2013-03-03 14:00:00,38.7,22.1,29.56,WNW,292,10.5,12.8,51,0.00,,SKC,0.00,VWS V14.01,2013-03-03 19:00:00,
2013-03-03 14:01:00,38.5,21.5,29.56,WNW,292,10.5,12.8,50,0.00,,SKC,0.00,VWS V14.01,2013-03-03 19:01:00,
2013-03-03 14:02:00,38.5,21.9,29.56,WNW,292,10.5,12.8,51,0.00,,SKC,0.00,VWS V14.01,2013-03-03 19:02:00,
2013-03-03 14:03:00,38.5,21.9,29.56,WNW,292,10.5,12.8,51,0.00,,SKC,0.00,VWS V14.01,2013-03-03 19:03:00,
2013-03-03 14:04:00,38.7,22.1,29.56,WNW,292,11.0,12.8,51,0.00,,SKC,0.00,VWS V14.01,2013-03-03 19:04:00,
2013-03-03 14:05:00,38.5,21.5,29.56,WNW,292,11.0,12.8,50,0.00,,SKC,0.00,VWS V14.01,2013-03-03 19:05:00,
2013-03-03 14:06:00,38.3,21.3,29.56,WNW,292,11.0,12.8,50,0.00,,SKC,0.00,VWS V14.01,2013-03-03 19:06:00,
2013-03-03 14:07:00,38.3,21.3,29.56,WNW,292,11.0,12.8,50,0.00,,SKC,0.00,VWS V14.01,2013-03-03 19:07:00,
2013-03-03 14:08:00,38.3,21.8,29.56,WNW,292,11.0,12.8,51,0.00,,SKC,0.00,VWS V14.01,2013-03-03 19:08:00,
2013-03-03 14:09:00,38.3,21.8,29.56,NW,315,9.8,12.8,51,0.00,,SKC,0.00,VWS V14.01,2013-03-03 19:09:00,
2013-03-03 14:10:00,38.3,21.8,29.56,NW,315,9.8,12.8,51,0.00,,SKC,0.00,VWS V14.01,2013-03-03 19:10:00,
2013-03-03 14:11:00,38.1,21.1,29.56,NW,315,9.8,12.8,50,0.00,,SKC,0.00,VWS V14.01,2013-03-03 19:11:00,
2013-03-03 14:12:00,37.9,21.0,29.56,NW,315,9.8,12.8,50,0.00,,SKC,0.00,VWS V14.01,2013-03-03 19:12:00,
2013-03-03 14:13:00,37.9,21.4,29.59,NW,315,9.8,11.0,51,0.00,,SKC,0.00,VWS V14.01,2013-03-03 19:13:00,
2013-03-03 14:14:00,37.9,21.4,29.59,NW,315,9.8,11.0,51,0.00,,SKC,0.00,VWS V14.01,2013-03-03 19:14:00,
2013-03-03 14:15:00,37.9,21.4,29.59,NW,315,9.8,11.0,51,0.00,,SKC,0.00,VWS V14.01,2013-03-03 19:15:00,
2013-03-03 14:16:00,37.9,21.4,29.59,NW,315,9.8,11.0,51,0.00,,SKC,0.00,VWS V14.01,2013-03-03 19:16:00,
2013-03-03 14:17:00,37.8,21.3,29.59,West,270,7.8,11.0,51,0.00,,SKC,0.00,VWS V14.01,2013-03-03 19:17:00,
2013-03-03 14:18:00,37.8,21.3,29.59,West,270,7.8,11.0,51,0.00,,SKC,0.00,VWS V14.01,2013-03-03 19:18:00,
2013-03-03 14:19:00,37.8,21.3,29.59,West,270,7.8,11.0,51,0.00,,SKC,0.00,VWS V14.01,2013-03-03 19:19:00,
2013-03-03 14:20:00,37.6,21.1,29.59,West,270,7.8,11.0,51,0.00,,SKC,0.00,VWS V14.01,2013-03-03 19:20:00,
2013-03-03 14:21:00,37.6,21.1,29.59,West,270,7.8,11.0,51,0.00,,SKC,0.00,VWS V14.01,2013-03-03 19:21:00,
2013-03-03 14:22:00,37.6,21.1,29.59,NW,315,12.3,12.3,51,0.00,,SKC,0.00,VWS V14.01,2013-03-03 19:22:00,
2013-03-03 14:23:00,37.6,21.1,29.59,NW,315,12.3,12.3,51,0.00,,SKC,0.00,VWS V14.01,2013-03-03 19:23:00,
2013-03-03 14:24:00,37.6,21.1,29.59,NW,315,12.3,12.3,51,0.00,,SKC,0.00,VWS V14.01,2013-03-03 19:24:00,
2013-03-03 14:25:00,37.6,21.1,29.59,NW,315,12.3,12.3,51,0.00,,SKC,0.00,VWS V14.01,2013-03-03 19:25:00,
2013-03-03 14:26:00,37.6,21.1,29.59,NW,315,12.3,12.3,51,0.00,,SKC,0.00,VWS V14.01,2013-03-03 19:26:00,
2013-03-03 14:27:00,37.6,21.1,29.59,NW,315,12.3,12.3,51,0.00,,SKC,0.00,VWS V14.01,2013-03-03 19:27:00,
2013-03-03 14:28:00,37.6,21.1,29.59,NW,315,12.3,12.3,51,0.00,,SKC,0.00,VWS V14.01,2013-03-03 19:28:00,
2013-03-03 14:29:00,37.6,21.1,29.59,NW,315,12.3,12.3,51,0.00,,SKC,0.00,VWS V14.01,2013-03-03 19:29:00,
2013-03-03 14:30:00,37.6,21.1,29.59,NW,315,12.3,12.3,51,0.00,,SKC,0.00,VWS V14.01,2013-03-03 19:30:00,
2013-03-03 14:31:00,37.6,21.1,29.59,NW,315,12.3,12.3,51,0.00,,SKC,0.00,VWS V14.01,2013-03-03 19:31:00,
2013-03-03 14:32:00,37.8,21.3,29.59,NW,315,12.3,12.3,51,0.00,,SKC,0.00,VWS V14.01,2013-03-03 19:32:00,
2013-03-03 14:33:00,37.6,21.1,29.59,NW,315,12.3,12.3,51,0.00,,SKC,0.00,VWS V14.01,2013-03-03 19:33:00,
2013-03-03 14:34:00,37.6,21.1,29.59,NW,315,12.3,12.3,51,0.00,,SKC,0.00,VWS V14.01,2013-03-03 19:34:00,
2013-03-03 14:35:00,37.6,21.1,29.59,NW,315,12.3,12.3,51,0.00,,SKC,0.00,VWS V14.01,2013-03-03 19:35:00,
2013-03-03 14:36:00,37.6,21.1,29.59,NW,315,12.3,12.3,51,0.00,,SKC,0.00,VWS V14.01,2013-03-03 19:36:00,
2013-03-03 14:37:00,37.6,21.1,29.59,NW,315,12.3,12.3,51,0.00,,SKC,0.00,VWS V14.01,2013-03-03 19:37:00,
2013-03-03 14:38:00,37.4,20.9,29.59,NW,315,12.3,12.3,51,0.00,,SKC,0.00,VWS V14.01,2013-03-03 19:38:00,
2013-03-03 14:39:00,37.4,20.9,29.59,NW,315,12.3,12.3,51,0.00,,SKC,0.00,VWS V14.01,2013-03-03 19:39:00,
2013-03-03 14:40:00,37.4,20.9,29.59,NW,315,7.6,12.3,51,0.00,,SKC,0.00,VWS V14.01,2013-03-03 19:40:00,
2013-03-03 14:41:00,37.4,20.9,29.59,NW,315,7.6,12.3,51,0.00,,SKC,0.00,VWS V14.01,2013-03-03 19:41:00,
2013-03-03 14:42:00,37.4,20.9,29.59,NW,315,7.6,12.3,51,0.00,,SKC,0.00,VWS V14.01,2013-03-03 19:42:00,
2013-03-03 14:43:00,37.4,20.9,29.59,NW,315,7.6,12.3,51,0.00,,SKC,0.00,VWS V14.01,2013-03-03 19:43:00,
2013-03-03 14:44:00,37.4,20.9,29.59,NW,315,7.6,12.3,51,0.00,,SKC,0.00,VWS V14.01,2013-03-03 19:44:00,
2013-03-03 14:45:00,37.4,20.9,29.59,NW,315,7.6,12.3,51,0.00,,SKC,0.00,VWS V14.01,2013-03-03 19:45:00,
2013-03-03 14:46:00,37.4,20.9,29.59,NW,315,7.6,12.3,51,0.00,,SKC,0.00,VWS V14.01,2013-03-03 19:46:00,
2013-03-03 14:47:00,37.4,20.9,29.59,NW,315,7.6,12.3,51,0.00,,SKC,0.00,VWS V14.01,2013-03-03 19:47:00,
2013-03-03 14:48:00,37.2,20.8,29.59,NW,315,7.6,12.3,51,0.00,,SKC,0.00,VWS V14.01,2013-03-03 19:48:00,
2013-03-03 14:49:00,37.2,21.2,29.59,NW,315,7.6,12.3,52,0.00,,SKC,0.00,VWS V14.01,2013-03-03 19:49:00,
2013-03-03 14:50:00,37.2,21.2,29.59,NW,315,7.6,12.3,52,0.00,,SKC,0.00,VWS V14.01,2013-03-03 19:50:00,
2013-03-03 14:51:00,37.2,21.2,29.59,NW,315,7.8,12.3,52,0.00,,SKC,0.00,VWS V14.01,2013-03-03 19:51:00,
2013-03-03 14:52:00,37.2,21.2,29.59,NW,315,7.8,12.3,52,0.00,,SKC,0.00,VWS V14.01,2013-03-03 19:52:00,
2013-03-03 14:53:00,37.2,21.2,29.59,NW,315,7.8,12.3,52,0.00,,SKC,0.00,VWS V14.01,2013-03-03 19:53:00,
2013-03-03 14:54:00,37.2,21.2,29.59,NW,315,7.8,12.3,52,0.00,,SKC,0.00,VWS V14.01,2013-03-03 19:54:00,
2013-03-03 14:55:00,37.2,21.2,29.59,NW,315,7.8,12.3,52,0.00,,SKC,0.00,VWS V14.01,2013-03-03 19:55:00,
2013-03-03 14:56:00,37.0,21.1,29.59,NW,315,7.8,12.3,52,0.00,,SKC,0.00,VWS V14.01,2013-03-03 19:56:00,
2013-03-03 14:57:00,37.0,21.1,29.59,NW,315,7.8,12.3,52,0.00,,SKC,0.00,VWS V14.01,2013-03-03 19:57:00,
2013-03-03 14:58:00,37.0,21.1,29.56,NW,315,7.4,12.3,52,0.00,,SKC,0.00,VWS V14.01,2013-03-03 19:58:00,
2013-03-03 14:59:00,36.9,20.9,29.56,WNW,292,6.5,7.8,52,0.00,,SKC,0.00,VWS V14.01,2013-03-03 19:59:00,
2013-03-03 15:00:00,36.9,20.9,29.56,WNW,292,6.5,7.8,52,0.00,,SKC,0.00,VWS V14.01,2013-03-03 20:00:00,
2013-03-03 15:01:00,36.9,20.9,29.56,NW,315,6.3,7.8,52,0.00,,SKC,0.00,VWS V14.01,2013-03-03 20:01:00,
2013-03-03 15:02:00,36.9,20.9,29.56,NW,315,6.3,7.8,52,0.00,,SKC,0.00,VWS V14.01,2013-03-03 20:02:00,
2013-03-03 15:03:00,36.9,20.9,29.56,NW,315,6.3,7.8,52,0.00,,SKC,0.00,VWS V14.01,2013-03-03 20:03:00,
2013-03-03 15:04:00,36.9,20.9,29.56,NW,315,6.3,7.8,52,0.00,,SKC,0.00,VWS V14.01,2013-03-03 20:04:00,
2013-03-03 15:05:00,36.9,20.9,29.56,NW,315,6.3,7.8,52,0.00,,SKC,0.00,VWS V14.01,2013-03-03 20:05:00,
2013-03-03 15:06:00,36.9,20.9,29.56,NW,315,6.3,7.8,52,0.00,,SKC,0.00,VWS V14.01,2013-03-03 20:06:00,
2013-03-03 15:07:00,36.9,20.9,29.56,NW,315,6.3,7.8,52,0.00,,SKC,0.00,VWS V14.01,2013-03-03 20:07:00,
2013-03-03 15:08:00,36.9,20.9,29.56,NW,315,6.3,7.8,52,0.00,,SKC,0.00,VWS V14.01,2013-03-03 20:08:00,
2013-03-03 15:09:00,36.7,20.7,29.56,NW,315,6.3,7.8,52,0.00,,SKC,0.00,VWS V14.01,2013-03-03 20:09:00,
2013-03-03 15:10:00,36.7,20.7,29.56,NW,315,6.3,7.8,52,0.00,,SKC,0.00,VWS V14.01,2013-03-03 20:10:00,
2013-03-03 15:11:00,36.7,20.7,29.56,NW,315,6.3,7.8,52,0.00,,SKC,0.00,VWS V14.01,2013-03-03 20:11:00,
2013-03-03 15:12:00,36.7,20.7,29.56,NW,315,6.3,7.8,52,0.00,,SKC,0.00,VWS V14.01,2013-03-03 20:12:00,
2013-03-03 15:13:00,36.5,20.6,29.59,NW,315,6.3,7.8,52,0.00,,SKC,0.00,VWS V14.01,2013-03-03 20:13:00,
2013-03-03 15:14:00,36.5,20.6,29.59,NW,315,6.3,7.8,52,0.00,,SKC,0.00,VWS V14.01,2013-03-03 20:14:00,
2013-03-03 15:15:00,36.5,20.6,29.59,NW,315,6.3,7.8,52,0.00,,SKC,0.00,VWS V14.01,2013-03-03 20:15:00,
2013-03-03 15:16:00,36.5,20.6,29.59,NW,315,6.3,7.8,52,0.00,,SKC,0.00,VWS V14.01,2013-03-03 20:16:00,
2013-03-03 15:17:00,36.3,20.4,29.59,NW,315,6.3,7.4,52,0.00,,SKC,0.00,VWS V14.01,2013-03-03 20:17:00,
2013-03-03 15:18:00,36.3,20.8,29.59,NW,315,6.3,6.5,53,0.00,,SKC,0.00,VWS V14.01,2013-03-03 20:18:00,
2013-03-03 15:19:00,36.3,20.8,29.59,NW,315,6.3,6.5,53,0.00,,SKC,0.00,VWS V14.01,2013-03-03 20:19:00,
2013-03-03 15:20:00,36.3,20.8,29.59,NW,315,7.8,7.8,53,0.00,,SKC,0.00,VWS V14.01,2013-03-03 20:20:00,
2013-03-03 15:21:00,36.3,20.8,29.59,NW,315,7.8,7.8,53,0.00,,SKC,0.00,VWS V14.01,2013-03-03 20:21:00,
2013-03-03 15:22:00,36.3,20.8,29.59,NW,315,7.8,7.8,53,0.00,,SKC,0.00,VWS V14.01,2013-03-03 20:22:00,
2013-03-03 15:23:00,36.3,20.8,29.59,NW,315,7.8,7.8,53,0.00,,SKC,0.00,VWS V14.01,2013-03-03 20:23:00,
2013-03-03 15:24:00,36.3,20.8,29.59,WNW,292,10.5,10.5,53,0.00,,SKC,0.00,VWS V14.01,2013-03-03 20:24:00,
2013-03-03 15:25:00,36.3,20.8,29.59,WNW,292,12.5,12.5,53,0.00,,SKC,0.00,VWS V14.01,2013-03-03 20:25:00,
2013-03-03 15:26:00,36.1,20.7,29.59,WNW,292,12.5,12.5,53,0.00,,SKC,0.00,VWS V14.01,2013-03-03 20:26:00,
2013-03-03 15:27:00,36.1,21.1,29.59,WNW,292,12.5,12.5,54,0.00,,SKC,0.00,VWS V14.01,2013-03-03 20:27:00,
2013-03-03 15:28:00,36.1,21.1,29.59,WNW,292,12.5,12.5,54,0.00,,SKC,0.00,VWS V14.01,2013-03-03 20:28:00,
2013-03-03 15:29:00,36.1,21.1,29.59,WNW,292,12.5,12.5,54,0.00,,SKC,0.00,VWS V14.01,2013-03-03 20:29:00,
2013-03-03 15:30:00,36.1,21.1,29.59,WNW,292,12.5,12.5,54,0.00,,SKC,0.00,VWS V14.01,2013-03-03 20:30:00,
2013-03-03 15:31:00,36.1,21.1,29.59,WNW,292,12.5,12.5,54,0.00,,SKC,0.00,VWS V14.01,2013-03-03 20:31:00,
2013-03-03 15:32:00,36.1,21.1,29.59,NW,315,10.3,12.5,54,0.00,,SKC,0.00,VWS V14.01,2013-03-03 20:32:00,
2013-03-03 15:33:00,36.0,21.0,29.59,NW,315,10.3,12.5,54,0.00,,SKC,0.00,VWS V14.01,2013-03-03 20:33:00,
2013-03-03 15:34:00,36.0,21.0,29.59,NW,315,10.3,12.5,54,0.00,,SKC,0.00,VWS V14.01,2013-03-03 20:34:00,
2013-03-03 15:35:00,36.0,21.0,29.59,NW,315,10.3,12.5,54,0.00,,SKC,0.00,VWS V14.01,2013-03-03 20:35:00,
2013-03-03 15:36:00,35.8,20.8,29.59,NW,315,10.3,12.5,54,0.00,,SKC,0.00,VWS V14.01,2013-03-03 20:36:00,
2013-03-03 15:37:00,35.8,21.2,29.59,NW,315,10.3,12.5,55,0.00,,SKC,0.00,VWS V14.01,2013-03-03 20:37:00,
2013-03-03 15:38:00,35.8,21.2,29.59,NW,315,10.3,12.5,55,0.00,,SKC,0.00,VWS V14.01,2013-03-03 20:38:00,
2013-03-03 15:39:00,35.8,21.2,29.59,NW,315,10.3,12.5,55,0.00,,SKC,0.00,VWS V14.01,2013-03-03 20:39:00,
2013-03-03 15:40:00,35.8,20.8,29.59,NW,315,10.3,12.5,54,0.00,,SKC,0.00,VWS V14.01,2013-03-03 20:40:00,
2013-03-03 15:41:00,35.8,21.2,29.59,NW,315,10.3,12.5,55,0.00,,SKC,0.00,VWS V14.01,2013-03-03 20:41:00,
2013-03-03 15:42:00,35.6,21.0,29.59,NW,315,10.3,12.5,55,0.00,,SKC,0.00,VWS V14.01,2013-03-03 20:42:00,
2013-03-03 15:43:00,35.6,21.0,29.59,NW,315,10.3,12.5,55,0.00,,SKC,0.00,VWS V14.01,2013-03-03 20:43:00,
2013-03-03 15:44:00,35.6,21.0,29.59,NW,315,10.3,12.5,55,0.00,,SKC,0.00,VWS V14.01,2013-03-03 20:44:00,
2013-03-03 15:45:00,35.6,21.0,29.59,NW,315,10.3,12.5,55,0.00,,SKC,0.00,VWS V14.01,2013-03-03 20:45:00,
2013-03-03 15:46:00,35.6,21.0,29.59,NW,315,8.5,12.5,55,0.00,,SKC,0.00,VWS V14.01,2013-03-03 20:46:00,
2013-03-03 15:47:00,35.6,21.0,29.59,NW,315,8.5,12.5,55,0.00,,SKC,0.00,VWS V14.01,2013-03-03 20:47:00,
2013-03-03 15:48:00,35.6,21.0,29.59,NW,315,8.5,12.5,55,0.00,,SKC,0.00,VWS V14.01,2013-03-03 20:48:00,
2013-03-03 15:49:00,35.4,21.3,29.59,NW,315,8.5,12.5,56,0.00,,SKC,0.00,VWS V14.01,2013-03-03 20:49:00,
2013-03-03 15:50:00,35.4,21.3,29.59,NW,315,8.5,12.5,56,0.00,,SKC,0.00,VWS V14.01,2013-03-03 20:50:00,
2013-03-03 15:51:00,35.4,21.3,29.59,NW,315,8.5,10.3,56,0.00,,SKC,0.00,VWS V14.01,2013-03-03 20:51:00,
2013-03-03 15:52:00,35.4,21.3,29.59,NW,315,8.5,10.3,56,0.00,,SKC,0.00,VWS V14.01,2013-03-03 20:52:00,
2013-03-03 15:53:00,35.4,21.3,29.59,NW,315,8.5,10.3,56,0.00,,SKC,0.00,VWS V14.01,2013-03-03 20:53:00,
2013-03-03 15:54:00,35.4,21.3,29.59,NW,315,8.5,10.3,56,0.00,,SKC,0.00,VWS V14.01,2013-03-03 20:54:00,
2013-03-03 15:55:00,35.4,21.3,29.59,NW,315,8.5,10.3,56,0.00,,SKC,0.00,VWS V14.01,2013-03-03 20:55:00,
2013-03-03 15:56:00,35.2,21.1,29.59,NW,315,8.5,10.3,56,0.00,,SKC,0.00,VWS V14.01,2013-03-03 20:56:00,
2013-03-03 15:57:00,35.2,21.1,29.59,NW,315,8.5,10.3,56,0.00,,SKC,0.00,VWS V14.01,2013-03-03 20:57:00,
2013-03-03 15:58:00,35.2,21.1,29.59,NW,315,8.5,10.3,56,0.00,,SKC,0.00,VWS V14.01,2013-03-03 20:58:00,
2013-03-03 15:59:00,35.1,21.0,29.59,NW,315,15.7,15.7,56,0.00,,SKC,0.00,VWS V14.01,2013-03-03 20:59:00,
2013-03-03 16:00:00,35.1,21.0,29.59,NW,315,15.7,15.7,56,0.00,,SKC,0.00,VWS V14.01,2013-03-03 21:00:00,
2013-03-03 16:01:00,35.1,21.0,29.59,NW,315,15.7,15.7,56,0.00,,SKC,0.00,VWS V14.01,2013-03-03 21:01:00,
2013-03-03 16:02:00,35.1,21.0,29.59,NW,315,15.7,15.7,56,0.00,,SKC,0.00,VWS V14.01,2013-03-03 21:02:00,
2013-03-03 16:03:00,35.1,21.0,29.59,NW,315,15.7,15.7,56,0.00,,SKC,0.00,VWS V14.01,2013-03-03 21:03:00,
2013-03-03 16:04:00,35.1,21.0,29.59,NW,315,15.7,15.7,56,0.00,,SKC,0.00,VWS V14.01,2013-03-03 21:04:00,
2013-03-03 16:05:00,35.1,21.0,29.59,NW,315,15.7,15.7,56,0.00,,SKC,0.00,VWS V14.01,2013-03-03 21:05:00,
2013-03-03 16:06:00,34.9,20.8,29.59,NW,315,15.7,15.7,56,0.00,,SKC,0.00,VWS V14.01,2013-03-03 21:06:00,
2013-03-03 16:07:00,34.9,20.8,29.59,NW,315,15.7,15.7,56,0.00,,SKC,0.00,VWS V14.01,2013-03-03 21:07:00,
2013-03-03 16:08:00,34.9,20.8,29.59,NW,315,15.7,15.7,56,0.00,,SKC,0.00,VWS V14.01,2013-03-03 21:08:00,
2013-03-03 16:09:00,34.9,20.8,29.59,NW,315,15.7,15.7,56,0.00,,SKC,0.00,VWS V14.01,2013-03-03 21:09:00,
2013-03-03 16:10:00,34.9,20.8,29.59,NW,315,15.7,15.7,56,0.00,,SKC,0.00,VWS V14.01,2013-03-03 21:10:00,
2013-03-03 16:11:00,34.9,20.8,29.59,NW,315,15.7,15.7,56,0.00,,SKC,0.00,VWS V14.01,2013-03-03 21:11:00,
2013-03-03 16:12:00,34.9,20.8,29.59,NW,315,15.7,15.7,56,0.00,,SKC,0.00,VWS V14.01,2013-03-03 21:12:00,
2013-03-03 16:13:00,34.9,21.2,29.59,NW,315,15.7,15.7,57,0.00,,SKC,0.00,VWS V14.01,2013-03-03 21:13:00,
2013-03-03 16:14:00,34.7,21.0,29.59,NW,315,15.7,15.7,57,0.00,,SKC,0.00,VWS V14.01,2013-03-03 21:14:00,
2013-03-03 16:15:00,34.7,21.0,29.59,NW,315,15.7,15.7,57,0.00,,SKC,0.00,VWS V14.01,2013-03-03 21:15:00,
2013-03-03 16:16:00,34.7,21.0,29.59,NW,315,15.7,15.7,57,0.00,,SKC,0.00,VWS V14.01,2013-03-03 21:16:00,
2013-03-03 16:17:00,34.7,21.0,29.59,NW,315,15.7,15.7,57,0.00,,SKC,0.00,VWS V14.01,2013-03-03 21:17:00,
2013-03-03 16:18:00,34.5,20.9,29.59,NW,315,15.7,15.7,57,0.00,,SKC,0.00,VWS V14.01,2013-03-03 21:18:00,
2013-03-03 16:19:00,34.5,20.9,29.59,NW,315,15.7,15.7,57,0.00,,SKC,0.00,VWS V14.01,2013-03-03 21:19:00,
2013-03-03 16:20:00,34.5,20.9,29.59,NW,315,15.7,15.7,57,0.00,,SKC,0.00,VWS V14.01,2013-03-03 21:20:00,
2013-03-03 16:21:00,34.5,20.9,29.59,NW,315,15.7,15.7,57,0.00,,SKC,0.00,VWS V14.01,2013-03-03 21:21:00,
2013-03-03 16:22:00,34.5,20.9,29.59,NW,315,15.7,15.7,57,0.00,,SKC,0.00,VWS V14.01,2013-03-03 21:22:00,
2013-03-03 16:23:00,34.5,20.9,29.59,NW,315,15.7,15.7,57,0.00,,SKC,0.00,VWS V14.01,2013-03-03 21:23:00,
2013-03-03 16:24:00,34.3,20.7,29.59,NW,315,15.7,15.7,57,0.00,,SKC,0.00,VWS V14.01,2013-03-03 21:24:00,
2013-03-03 16:25:00,34.3,20.7,29.59,NW,315,15.7,15.7,57,0.00,,SKC,0.00,VWS V14.01,2013-03-03 21:25:00,
2013-03-03 16:26:00,34.3,20.7,29.59,NW,315,15.7,15.7,57,0.00,,SKC,0.00,VWS V14.01,2013-03-03 21:26:00,
2013-03-03 16:27:00,34.3,20.7,29.59,NW,315,15.7,15.7,57,0.00,,SKC,0.00,VWS V14.01,2013-03-03 21:27:00,
2013-03-03 16:28:00,34.2,20.5,29.59,NW,315,15.7,15.7,57,0.00,,SKC,0.00,VWS V14.01,2013-03-03 21:28:00,
2013-03-03 16:29:00,34.2,20.5,29.59,NW,315,15.7,15.7,57,0.00,,SKC,0.00,VWS V14.01,2013-03-03 21:29:00,
2013-03-03 16:30:00,34.2,20.5,29.59,NW,315,15.7,15.7,57,0.00,,SKC,0.00,VWS V14.01,2013-03-03 21:30:00,
2013-03-03 16:31:00,34.2,20.5,29.59,NW,315,15.7,15.7,57,0.00,,SKC,0.00,VWS V14.01,2013-03-03 21:31:00,
2013-03-03 16:32:00,34.0,20.8,29.59,NW,315,15.7,15.7,58,0.00,,SKC,0.00,VWS V14.01,2013-03-03 21:32:00,
2013-03-03 16:33:00,34.0,20.8,29.59,NW,315,15.7,15.7,58,0.00,,SKC,0.00,VWS V14.01,2013-03-03 21:33:00,
2013-03-03 16:34:00,34.0,20.8,29.59,NW,315,15.7,15.7,58,0.00,,SKC,0.00,VWS V14.01,2013-03-03 21:34:00,
2013-03-03 16:35:00,34.0,20.8,29.59,NW,315,10.1,15.7,58,0.00,,SKC,0.00,VWS V14.01,2013-03-03 21:35:00,
2013-03-03 16:36:00,34.0,20.8,29.59,NW,315,10.1,15.7,58,0.00,,SKC,0.00,VWS V14.01,2013-03-03 21:36:00,
2013-03-03 16:37:00,34.0,20.8,29.59,NW,315,10.1,15.7,58,0.00,,SKC,0.00,VWS V14.01,2013-03-03 21:37:00,
2013-03-03 16:38:00,34.0,20.8,29.59,NW,315,10.1,15.7,58,0.00,,SKC,0.00,VWS V14.01,2013-03-03 21:38:00,
2013-03-03 16:39:00,34.0,20.8,29.59,NW,315,10.1,15.7,58,0.00,,SKC,0.00,VWS V14.01,2013-03-03 21:39:00,
2013-03-03 16:40:00,34.0,20.8,29.59,NW,315,10.1,15.7,58,0.00,,SKC,0.00,VWS V14.01,2013-03-03 21:40:00,
2013-03-03 16:41:00,34.0,20.8,29.59,NW,315,10.1,15.7,58,0.00,,SKC,0.00,VWS V14.01,2013-03-03 21:41:00,
2013-03-03 16:42:00,34.0,20.8,29.59,NW,315,10.1,15.7,58,0.00,,SKC,0.00,VWS V14.01,2013-03-03 21:42:00,
2013-03-03 16:43:00,33.8,20.6,29.59,NW,315,10.1,15.7,58,0.00,,SKC,0.00,VWS V14.01,2013-03-03 21:43:00,
2013-03-03 16:44:00,34.0,21.2,29.59,WNW,292,8.1,15.7,59,0.00,,SKC,0.00,VWS V14.01,2013-03-03 21:44:00,
2013-03-03 16:45:00,33.8,21.0,29.59,WNW,292,8.1,15.7,59,0.00,,SKC,0.00,VWS V14.01,2013-03-03 21:45:00,
2013-03-03 16:46:00,33.8,21.0,29.59,WNW,292,8.1,15.7,59,0.00,,SKC,0.00,VWS V14.01,2013-03-03 21:46:00,
2013-03-03 16:47:00,33.8,21.0,29.59,WNW,292,8.1,15.7,59,0.00,,SKC,0.00,VWS V14.01,2013-03-03 21:47:00,
2013-03-03 16:48:00,33.8,21.0,29.59,WNW,292,8.1,15.7,59,0.00,,SKC,0.00,VWS V14.01,2013-03-03 21:48:00,
2013-03-03 16:49:00,33.8,21.0,29.59,WNW,292,8.1,15.7,59,0.00,,SKC,0.00,VWS V14.01,2013-03-03 21:49:00,
2013-03-03 16:50:00,33.8,21.0,29.59,WNW,292,8.1,15.7,59,0.00,,SKC,0.00,VWS V14.01,2013-03-03 21:50:00,
2013-03-03 16:51:00,33.8,21.4,29.59,WNW,292,8.1,15.7,60,0.00,,SKC,0.00,VWS V14.01,2013-03-03 21:51:00,
2013-03-03 16:52:00,33.8,21.4,29.59,WNW,292,8.1,15.7,60,0.00,,SKC,0.00,VWS V14.01,2013-03-03 21:52:00,
2013-03-03 16:53:00,33.8,21.4,29.59,NW,315,5.8,15.7,60,0.00,,SKC,0.00,VWS V14.01,2013-03-03 21:53:00,
2013-03-03 16:54:00,33.8,21.4,29.59,NW,315,5.8,10.1,60,0.00,,SKC,0.00,VWS V14.01,2013-03-03 21:54:00,
2013-03-03 16:55:00,33.8,21.4,29.59,NW,315,5.8,10.1,60,0.00,,SKC,0.00,VWS V14.01,2013-03-03 21:55:00,
2013-03-03 16:56:00,33.8,21.4,29.59,NW,315,5.8,10.1,60,0.00,,SKC,0.00,VWS V14.01,2013-03-03 21:56:00,
2013-03-03 16:57:00,33.8,21.8,29.59,NW,315,5.8,10.1,61,0.00,,SKC,0.00,VWS V14.01,2013-03-03 21:57:00,
2013-03-03 16:58:00,33.8,21.8,29.59,NW,315,5.8,10.1,61,0.00,,SKC,0.00,VWS V14.01,2013-03-03 21:58:00,
2013-03-03 16:59:00,33.8,21.4,29.59,NW,315,5.8,10.1,60,0.00,,SKC,0.00,VWS V14.01,2013-03-03 21:59:00,
2013-03-03 17:00:00,33.8,21.4,29.59,NW,315,5.8,10.1,60,0.00,,SKC,0.00,VWS V14.01,2013-03-03 22:00:00,
2013-03-03 17:01:00,33.8,21.4,29.59,NW,315,5.8,10.1,60,0.00,,SKC,0.00,VWS V14.01,2013-03-03 22:01:00,
2013-03-03 17:02:00,33.8,21.8,29.59,NW,315,12.8,12.8,61,0.00,,SKC,0.00,VWS V14.01,2013-03-03 22:02:00,
2013-03-03 17:03:00,33.8,21.8,29.59,NW,315,9.0,12.8,61,0.00,,SKC,0.00,VWS V14.01,2013-03-03 22:03:00,
2013-03-03 17:04:00,33.8,21.8,29.59,WNW,292,9.8,12.8,61,0.00,,SKC,0.00,VWS V14.01,2013-03-03 22:04:00,
2013-03-03 17:05:00,33.8,21.8,29.59,NW,315,9.8,12.8,61,0.00,,SKC,0.00,VWS V14.01,2013-03-03 22:05:00,
2013-03-03 17:06:00,33.8,21.8,29.59,NW,315,13.2,13.2,61,0.00,,SKC,0.00,VWS V14.01,2013-03-03 22:06:00,
2013-03-03 17:07:00,33.8,21.8,29.59,NW,315,13.0,13.2,61,0.00,,SKC,0.00,VWS V14.01,2013-03-03 22:07:00,
2013-03-03 17:08:00,33.8,21.8,29.59,NW,315,9.8,13.2,61,0.00,,SKC,0.00,VWS V14.01,2013-03-03 22:08:00,
2013-03-03 17:09:00,33.8,21.8,29.59,NW,315,9.8,13.2,61,0.00,,SKC,0.00,VWS V14.01,2013-03-03 22:09:00,
2013-03-03 17:10:00,33.8,21.8,29.59,NNW,338,11.0,13.2,61,0.00,,SKC,0.00,VWS V14.01,2013-03-03 22:10:00,
2013-03-03 17:11:00,33.8,21.8,29.59,NW,315,8.5,13.2,61,0.00,,SKC,0.00,VWS V14.01,2013-03-03 22:11:00,
2013-03-03 17:12:00,33.6,21.6,29.59,NW,315,13.2,13.2,61,0.00,,SKC,0.00,VWS V14.01,2013-03-03 22:12:00,
2013-03-03 17:13:00,33.6,21.6,29.59,NW,315,10.5,13.2,61,0.00,,SKC,0.00,VWS V14.01,2013-03-03 22:13:00,
2013-03-03 17:14:00,33.6,21.6,29.59,NW,315,12.1,13.2,61,0.00,,SKC,0.00,VWS V14.01,2013-03-03 22:14:00,
2013-03-03 17:15:00,33.6,21.6,29.59,NW,315,6.5,13.2,61,0.00,,SKC,0.00,VWS V14.01,2013-03-03 22:15:00,
2013-03-03 17:16:00,33.6,21.6,29.59,NW,315,7.6,13.2,61,0.00,,SKC,0.00,VWS V14.01,2013-03-03 22:16:00,
2013-03-03 17:17:00,33.6,21.6,29.59,NW,315,10.5,13.2,61,0.00,,SKC,0.00,VWS V14.01,2013-03-03 22:17:00,
2013-03-03 17:18:00,33.6,21.6,29.59,NNW,338,7.6,13.2,61,0.00,,SKC,0.00,VWS V14.01,2013-03-03 22:18:00,
2013-03-03 17:19:00,33.6,21.6,29.59,NW,315,10.3,13.2,61,0.00,,SKC,0.00,VWS V14.01,2013-03-03 22:19:00,
2013-03-03 17:20:00,33.6,21.6,29.59,NNW,338,8.7,13.2,61,0.00,,SKC,0.00,VWS V14.01,2013-03-03 22:20:00,
2013-03-03 17:21:00,33.6,21.6,29.59,NW,315,12.1,13.2,61,0.00,,SKC,0.00,VWS V14.01,2013-03-03 22:21:00,
2013-03-03 17:22:00,33.6,21.6,29.59,NW,315,9.4,13.2,61,0.00,,SKC,0.00,VWS V14.01,2013-03-03 22:22:00,
2013-03-03 17:23:00,33.6,22.0,29.59,NW,315,6.3,13.2,62,0.00,,SKC,0.00,VWS V14.01,2013-03-03 22:23:00,
2013-03-03 17:24:00,33.6,22.0,29.59,NW,315,9.8,13.2,62,0.00,,SKC,0.00,VWS V14.01,2013-03-03 22:24:00,
2013-03-03 17:25:00,33.4,21.8,29.59,NW,315,7.2,13.2,62,0.00,,SKC,0.00,VWS V14.01,2013-03-03 22:25:00,
2013-03-03 17:26:00,33.4,21.8,29.59,NW,315,6.5,13.2,62,0.00,,SKC,0.00,VWS V14.01,2013-03-03 22:26:00,
2013-03-03 17:27:00,33.4,21.8,29.59,NW,315,10.3,13.2,62,0.00,,SKC,0.00,VWS V14.01,2013-03-03 22:27:00,
2013-03-03 17:28:00,33.4,21.8,29.62,NW,315,6.5,13.2,62,0.00,,SKC,0.00,VWS V14.01,2013-03-03 22:28:00,
2013-03-03 17:29:00,33.4,21.8,29.62,NW,315,12.3,13.2,62,0.00,,SKC,0.00,VWS V14.01,2013-03-03 22:29:00,
2013-03-03 17:30:00,33.4,22.2,29.62,NW,315,8.1,13.2,63,0.00,,SKC,0.00,VWS V14.01,2013-03-03 22:30:00,
2013-03-03 17:31:00,33.4,22.2,29.62,NNW,338,12.3,13.2,63,0.00,,SKC,0.00,VWS V14.01,2013-03-03 22:31:00,
2013-03-03 17:32:00,33.4,21.8,29.62,NW,315,13.9,13.9,62,0.00,,SKC,0.00,VWS V14.01,2013-03-03 22:32:00,
2013-03-03 17:33:00,33.4,21.8,29.62,NW,315,8.7,13.9,62,0.00,,SKC,0.00,VWS V14.01,2013-03-03 22:33:00,
2013-03-03 17:34:00,33.4,21.8,29.62,NW,315,10.3,13.9,62,0.00,,SKC,0.00,VWS V14.01,2013-03-03 22:34:00,
2013-03-03 17:35:00,33.4,21.8,29.62,WNW,292,7.6,13.9,62,0.00,,SKC,0.00,VWS V14.01,2013-03-03 22:35:00,
2013-03-03 17:36:00,33.3,21.7,29.62,NNW,338,12.5,13.9,62,0.00,,SKC,0.00,VWS V14.01,2013-03-03 22:36:00,
2013-03-03 17:37:00,33.3,21.7,29.62,NW,315,8.7,13.9,62,0.00,,SKC,0.00,VWS V14.01,2013-03-03 22:37:00,
2013-03-03 17:38:00,33.3,21.7,29.62,NNW,338,11.0,13.9,62,0.00,,SKC,0.00,VWS V14.01,2013-03-03 22:38:00,
2013-03-03 17:39:00,33.3,21.7,29.62,NW,315,10.1,13.9,62,0.00,,SKC,0.00,VWS V14.01,2013-03-03 22:39:00,
2013-03-03 17:40:00,33.3,21.7,29.62,NW,315,8.5,13.9,62,0.00,,SKC,0.00,VWS V14.01,2013-03-03 22:40:00,
2013-03-03 17:41:00,33.3,21.7,29.62,NW,315,7.8,13.9,62,0.00,,SKC,0.00,VWS V14.01,2013-03-03 22:41:00,
2013-03-03 17:42:00,33.3,21.7,29.62,NW,315,13.4,13.9,62,0.00,,SKC,0.00,VWS V14.01,2013-03-03 22:42:00,
2013-03-03 17:43:00,33.3,21.7,29.62,NW,315,8.5,13.9,62,0.00,,SKC,0.00,VWS V14.01,2013-03-03 22:43:00,
2013-03-03 17:44:00,33.3,21.7,29.62,NW,315,10.1,13.9,62,0.00,,SKC,0.00,VWS V14.01,2013-03-03 22:44:00,
2013-03-03 17:45:00,33.1,21.5,29.62,NW,315,8.1,13.9,62,0.00,,SKC,0.00,VWS V14.01,2013-03-03 22:45:00,
2013-03-03 17:46:00,33.1,21.5,29.62,NW,315,8.1,13.9,62,0.00,,SKC,0.00,VWS V14.01,2013-03-03 22:46:00,
2013-03-03 17:47:00,33.1,21.5,29.62,NW,315,6.5,13.9,62,0.00,,SKC,0.00,VWS V14.01,2013-03-03 22:47:00,
2013-03-03 17:48:00,33.1,21.5,29.62,NW,315,8.7,13.9,62,0.00,,SKC,0.00,VWS V14.01,2013-03-03 22:48:00,
2013-03-03 17:49:00,33.1,21.5,29.62,NW,315,13.0,13.9,62,0.00,,SKC,0.00,VWS V14.01,2013-03-03 22:49:00,
2013-03-03 17:50:00,32.9,21.3,29.62,NW,315,10.5,13.9,62,0.00,,SKC,0.00,VWS V14.01,2013-03-03 22:50:00,
2013-03-03 17:51:00,32.9,21.3,29.62,NW,315,15.2,15.2,62,0.00,,SKC,0.00,VWS V14.01,2013-03-03 22:51:00,
2013-03-03 17:52:00,32.9,21.7,29.62,NW,315,8.5,15.2,63,0.00,,SKC,0.00,VWS V14.01,2013-03-03 22:52:00,
2013-03-03 17:53:00,32.9,21.7,29.62,NW,315,8.5,15.2,63,0.00,,SKC,0.00,VWS V14.01,2013-03-03 22:53:00,
2013-03-03 17:54:00,32.9,21.7,29.62,NW,315,8.5,15.2,63,0.00,,SKC,0.00,VWS V14.01,2013-03-03 22:54:00,
2013-03-03 17:55:00,32.9,21.7,29.62,NW,315,8.5,15.2,63,0.00,,SKC,0.00,VWS V14.01,2013-03-03 22:55:00,
2013-03-03 17:56:00,32.9,21.7,29.62,NW,315,8.5,15.2,63,0.00,,SKC,0.00,VWS V14.01,2013-03-03 22:56:00,
2013-03-03 17:57:00,32.9,21.7,29.62,NW,315,8.1,15.2,63,0.00,,SKC,0.00,VWS V14.01,2013-03-03 22:57:00,
2013-03-03 17:58:00,32.9,21.7,29.62,NW,315,8.1,15.2,63,0.00,,SKC,0.00,VWS V14.01,2013-03-03 22:58:00,
2013-03-03 17:59:00,32.9,22.1,29.62,NW,315,8.1,15.2,64,0.00,,SKC,0.00,VWS V14.01,2013-03-03 22:59:00,
2013-03-03 18:00:00,32.9,21.7,29.62,NW,315,8.1,15.2,63,0.00,,SKC,0.00,VWS V14.01,2013-03-03 23:00:00,
2013-03-03 18:01:00,32.9,21.7,29.62,NW,315,8.1,15.2,63,0.00,,SKC,0.00,VWS V14.01,2013-03-03 23:01:00,
2013-03-03 18:02:00,32.7,21.9,29.62,NW,315,8.1,15.2,64,0.00,,SKC,0.00,VWS V14.01,2013-03-03 23:02:00,
2013-03-03 18:03:00,32.7,21.9,29.62,NW,315,8.1,15.2,64,0.00,,SKC,0.00,VWS V14.01,2013-03-03 23:03:00,
2013-03-03 18:04:00,32.7,21.9,29.62,NW,315,8.1,15.2,64,0.00,,SKC,0.00,VWS V14.01,2013-03-03 23:04:00,
2013-03-03 18:05:00,32.7,21.9,29.62,NW,315,8.1,15.2,64,0.00,,SKC,0.00,VWS V14.01,2013-03-03 23:05:00,
2013-03-03 18:06:00,32.7,21.5,29.62,NW,315,9.8,15.2,63,0.00,,SKC,0.00,VWS V14.01,2013-03-03 23:06:00,
2013-03-03 18:07:00,32.7,21.5,29.62,NW,315,9.8,15.2,63,0.00,,SKC,0.00,VWS V14.01,2013-03-03 23:07:00,
2013-03-03 18:08:00,32.7,21.5,29.62,NW,315,9.8,15.2,63,0.00,,SKC,0.00,VWS V14.01,2013-03-03 23:08:00,
2013-03-03 18:09:00,32.7,21.5,29.62,NW,315,9.8,15.2,63,0.00,,SKC,0.00,VWS V14.01,2013-03-03 23:09:00,
2013-03-03 18:10:00,32.7,21.9,29.62,NW,315,9.8,15.2,64,0.00,,SKC,0.00,VWS V14.01,2013-03-03 23:10:00,
2013-03-03 18:11:00,32.7,21.9,29.62,NW,315,9.8,9.8,64,0.00,,SKC,0.00,VWS V14.01,2013-03-03 23:11:00,
2013-03-03 18:12:00,32.7,21.9,29.62,NW,315,9.8,9.8,64,0.00,,SKC,0.00,VWS V14.01,2013-03-03 23:12:00,
2013-03-03 18:13:00,32.7,21.9,29.65,NW,315,9.8,9.8,64,0.00,,SKC,0.00,VWS V14.01,2013-03-03 23:13:00,
2013-03-03 18:14:00,32.7,21.9,29.65,NW,315,9.8,9.8,64,0.00,,SKC,0.00,VWS V14.01,2013-03-03 23:14:00,
2013-03-03 18:15:00,32.5,22.1,29.65,NW,315,9.8,9.8,65,0.00,,SKC,0.00,VWS V14.01,2013-03-03 23:15:00,
2013-03-03 18:16:00,32.5,22.1,29.65,NW,315,11.0,11.0,65,0.00,,SKC,0.00,VWS V14.01,2013-03-03 23:16:00,
2013-03-03 18:17:00,32.5,22.1,29.65,NW,315,11.0,11.0,65,0.00,,SKC,0.00,VWS V14.01,2013-03-03 23:17:00,
2013-03-03 18:18:00,32.5,22.1,29.65,NW,315,11.0,11.0,65,0.00,,SKC,0.00,VWS V14.01,2013-03-03 23:18:00,
2013-03-03 18:19:00,32.5,22.1,29.65,NW,315,11.0,11.0,65,0.00,,SKC,0.00,VWS V14.01,2013-03-03 23:19:00,
2013-03-03 18:20:00,32.5,22.1,29.65,NW,315,11.0,11.0,65,0.00,,SKC,0.00,VWS V14.01,2013-03-03 23:20:00,
2013-03-03 18:21:00,32.5,22.1,29.65,NW,315,12.1,12.1,65,0.00,,SKC,0.00,VWS V14.01,2013-03-03 23:21:00,
2013-03-03 18:22:00,32.5,22.1,29.65,NW,315,12.1,12.1,65,0.00,,SKC,0.00,VWS V14.01,2013-03-03 23:22:00,
2013-03-03 18:23:00,32.5,22.1,29.65,NW,315,12.1,12.1,65,0.00,,SKC,0.00,VWS V14.01,2013-03-03 23:23:00,
2013-03-03 18:24:00,32.5,22.1,29.65,NW,315,12.1,12.1,65,0.00,,SKC,0.00,VWS V14.01,2013-03-03 23:24:00,
2013-03-03 18:25:00,32.5,22.1,29.65,NW,315,12.1,12.1,65,0.00,,SKC,0.00,VWS V14.01,2013-03-03 23:25:00,
2013-03-03 18:26:00,32.5,22.1,29.65,NW,315,12.1,12.1,65,0.00,,SKC,0.00,VWS V14.01,2013-03-03 23:26:00,
2013-03-03 18:27:00,32.5,22.1,29.65,NW,315,12.1,12.1,65,0.00,,SKC,0.00,VWS V14.01,2013-03-03 23:27:00,
2013-03-03 18:28:00,32.5,22.1,29.62,NW,315,12.1,12.1,65,0.00,,SKC,0.00,VWS V14.01,2013-03-03 23:28:00,
2013-03-03 18:29:00,32.5,22.1,29.62,NW,315,12.1,12.1,65,0.00,,SKC,0.00,VWS V14.01,2013-03-03 23:29:00,
2013-03-03 18:30:00,32.5,22.5,29.62,NW,315,12.1,12.1,66,0.00,,SKC,0.00,VWS V14.01,2013-03-03 23:30:00,
2013-03-03 18:31:00,32.5,22.5,29.62,NW,315,12.1,12.1,66,0.00,,SKC,0.00,VWS V14.01,2013-03-03 23:31:00,
2013-03-03 18:32:00,32.5,22.5,29.62,WNW,292,8.5,12.1,66,0.00,,SKC,0.00,VWS V14.01,2013-03-03 23:32:00,
2013-03-03 18:33:00,32.5,22.5,29.62,NW,315,8.5,12.1,66,0.00,,SKC,0.00,VWS V14.01,2013-03-03 23:33:00,
2013-03-03 18:34:00,32.4,22.3,29.62,NW,315,8.5,12.1,66,0.00,,SKC,0.00,VWS V14.01,2013-03-03 23:34:00,
2013-03-03 18:35:00,32.4,22.3,29.62,NNW,338,12.3,12.3,66,0.00,,SKC,0.00,VWS V14.01,2013-03-03 23:35:00,
2013-03-03 18:36:00,32.4,22.3,29.62,NW,315,11.0,12.3,66,0.00,,SKC,0.00,VWS V14.01,2013-03-03 23:36:00,
2013-03-03 18:37:00,32.4,22.3,29.62,NW,315,11.0,12.3,66,0.00,,SKC,0.00,VWS V14.01,2013-03-03 23:37:00,
2013-03-03 18:38:00,32.4,22.3,29.62,WNW,292,13.2,13.2,66,0.00,,SKC,0.00,VWS V14.01,2013-03-03 23:38:00,
2013-03-03 18:39:00,32.4,22.3,29.62,WNW,292,13.2,13.2,66,0.00,,SKC,0.00,VWS V14.01,2013-03-03 23:39:00,
2013-03-03 18:40:00,32.4,22.3,29.62,WNW,292,13.2,13.2,66,0.00,,SKC,0.00,VWS V14.01,2013-03-03 23:40:00,
2013-03-03 18:41:00,32.4,22.3,29.62,WNW,292,13.2,13.2,66,0.00,,SKC,0.00,VWS V14.01,2013-03-03 23:41:00,
2013-03-03 18:42:00,32.4,22.6,29.62,WNW,292,13.2,13.2,67,0.00,,SKC,0.00,VWS V14.01,2013-03-03 23:42:00,
2013-03-03 18:43:00,32.4,22.6,29.62,WNW,292,13.2,13.2,67,0.00,,SKC,0.00,VWS V14.01,2013-03-03 23:43:00,
2013-03-03 18:44:00,32.4,22.3,29.62,WNW,292,13.2,13.2,66,0.00,,SKC,0.00,VWS V14.01,2013-03-03 23:44:00,
2013-03-03 18:45:00,32.4,22.3,29.62,WNW,292,13.2,13.2,66,0.00,,SKC,0.00,VWS V14.01,2013-03-03 23:45:00,
2013-03-03 18:46:00,32.4,22.3,29.62,WNW,292,13.2,13.2,66,0.00,,SKC,0.00,VWS V14.01,2013-03-03 23:46:00,
2013-03-03 18:47:00,32.4,22.3,29.62,WNW,292,13.2,13.2,66,0.00,,SKC,0.00,VWS V14.01,2013-03-03 23:47:00,
2013-03-03 18:48:00,32.4,22.3,29.62,North,0,8.1,13.2,66,0.00,,SKC,0.00,VWS V14.01,2013-03-03 23:48:00,
2013-03-03 18:49:00,32.4,22.6,29.62,North,0,8.1,13.2,67,0.00,,SKC,0.00,VWS V14.01,2013-03-03 23:49:00,
2013-03-03 18:50:00,32.4,22.6,29.62,North,0,8.1,13.2,67,0.00,,SKC,0.00,VWS V14.01,2013-03-03 23:50:00,
2013-03-03 18:51:00,32.4,22.6,29.62,North,0,8.1,13.2,67,0.00,,SKC,0.00,VWS V14.01,2013-03-03 23:51:00,
2013-03-03 18:52:00,32.4,22.6,29.62,NW,315,13.2,13.2,67,0.00,,SKC,0.00,VWS V14.01,2013-03-03 23:52:00,
2013-03-03 18:53:00,32.4,22.6,29.62,NW,315,13.2,13.2,67,0.00,,SKC,0.00,VWS V14.01,2013-03-03 23:53:00,
2013-03-03 18:54:00,32.4,22.6,29.62,NW,315,13.2,13.2,67,0.00,,SKC,0.00,VWS V14.01,2013-03-03 23:54:00,
2013-03-03 18:55:00,32.4,22.6,29.62,NW,315,13.2,13.2,67,0.00,,SKC,0.00,VWS V14.01,2013-03-03 23:55:00,
2013-03-03 18:56:00,32.5,22.8,29.62,NW,315,13.2,13.2,67,0.00,,SKC,0.00,VWS V14.01,2013-03-03 23:56:00,
2013-03-03 18:57:00,32.5,22.8,29.62,NW,315,13.2,13.2,67,0.00,,SKC,0.00,VWS V14.01,2013-03-03 23:57:00,
2013-03-03 18:58:00,32.5,22.8,29.59,NW,315,13.2,13.2,67,0.00,,SKC,0.00,VWS V14.01,2013-03-03 23:58:00,
2013-03-03 18:59:00,32.5,22.8,29.59,NW,315,13.2,13.2,67,0.00,,SKC,0.00,VWS V14.01,2013-03-03 23:59:00,
2013-03-03 19:00:00,32.5,22.8,29.59,NW,315,13.2,13.2,67,0.00,,SKC,0.00,VWS V14.01,2013-03-04 00:00:00,
2013-03-03 19:01:00,32.5,22.8,29.59,NW,315,13.2,13.2,67,0.00,,SKC,0.00,VWS V14.01,2013-03-04 00:01:00,
2013-03-03 19:02:00,32.5,22.8,29.59,NW,315,13.2,13.2,67,0.00,,SKC,0.00,VWS V14.01,2013-03-04 00:02:00,
2013-03-03 19:03:00,32.5,22.8,29.59,NW,315,13.2,13.2,67,0.00,,SKC,0.00,VWS V14.01,2013-03-04 00:03:00,
2013-03-03 19:04:00,32.5,22.8,29.59,NW,315,13.2,13.2,67,0.00,,SKC,0.00,VWS V14.01,2013-03-04 00:04:00,
2013-03-03 19:05:00,32.5,22.8,29.59,NW,315,13.2,13.2,67,0.00,,SKC,0.00,VWS V14.01,2013-03-04 00:05:00,
2013-03-03 19:06:00,32.5,22.8,29.59,NW,315,13.2,13.2,67,0.00,,SKC,0.00,VWS V14.01,2013-03-04 00:06:00,
2013-03-03 19:07:00,32.5,22.8,29.59,NW,315,13.2,13.2,67,0.00,,SKC,0.00,VWS V14.01,2013-03-04 00:07:00,
2013-03-03 19:08:00,32.5,23.2,29.59,NW,315,10.5,13.2,68,0.00,,SKC,0.00,VWS V14.01,2013-03-04 00:08:00,
2013-03-03 19:09:00,32.5,22.8,29.59,NW,315,10.5,13.2,67,0.00,,SKC,0.00,VWS V14.01,2013-03-04 00:09:00,
2013-03-03 19:10:00,32.5,22.8,29.59,NW,315,10.5,13.2,67,0.00,,SKC,0.00,VWS V14.01,2013-03-04 00:10:00,
2013-03-03 19:11:00,32.5,22.8,29.59,NW,315,10.5,13.2,67,0.00,,SKC,0.00,VWS V14.01,2013-03-04 00:11:00,
2013-03-03 19:12:00,32.5,22.8,29.59,NW,315,10.5,13.2,67,0.00,,SKC,0.00,VWS V14.01,2013-03-04 00:12:00,
2013-03-03 19:13:00,32.5,22.8,29.59,NW,315,10.5,13.2,67,0.00,,SKC,0.00,VWS V14.01,2013-03-04 00:13:00,
2013-03-03 19:14:00,32.5,22.8,29.59,NW,315,10.5,13.2,67,0.00,,SKC,0.00,VWS V14.01,2013-03-04 00:14:00,
2013-03-03 19:15:00,32.5,22.8,29.59,NW,315,10.5,13.2,67,0.00,,SKC,0.00,VWS V14.01,2013-03-04 00:15:00,
2013-03-03 19:16:00,32.5,22.8,29.59,NW,315,10.5,13.2,67,0.00,,SKC,0.00,VWS V14.01,2013-03-04 00:16:00,
2013-03-03 19:17:00,32.5,22.8,29.59,NW,315,10.5,13.2,67,0.00,,SKC,0.00,VWS V14.01,2013-03-04 00:17:00,
2013-03-03 19:18:00,32.5,22.8,29.59,NW,315,10.5,13.2,67,0.00,,SKC,0.00,VWS V14.01,2013-03-04 00:18:00,
2013-03-03 19:19:00,32.5,22.8,29.59,NW,315,10.5,13.2,67,0.00,,SKC,0.00,VWS V14.01,2013-03-04 00:19:00,
2013-03-03 19:20:00,32.5,22.8,29.59,NNW,338,12.3,13.2,67,0.00,,SKC,0.00,VWS V14.01,2013-03-04 00:20:00,
2013-03-03 19:21:00,32.5,22.8,29.59,NNW,338,12.3,13.2,67,0.00,,SKC,0.00,VWS V14.01,2013-03-04 00:21:00,
2013-03-03 19:22:00,32.5,22.8,29.59,NNW,338,12.3,13.2,67,0.00,,SKC,0.00,VWS V14.01,2013-03-04 00:22:00,
2013-03-03 19:23:00,32.5,22.8,29.59,NNW,338,12.3,13.2,67,0.00,,SKC,0.00,VWS V14.01,2013-03-04 00:23:00,
2013-03-03 19:24:00,32.5,22.8,29.59,NNW,338,12.3,13.2,67,0.00,,SKC,0.00,VWS V14.01,2013-03-04 00:24:00,
2013-03-03 19:25:00,32.5,22.8,29.59,NNW,338,12.3,13.2,67,0.00,,SKC,0.00,VWS V14.01,2013-03-04 00:25:00,
2013-03-03 19:26:00,32.7,23.0,29.59,NNW,338,12.3,13.2,67,0.00,,SKC,0.00,VWS V14.01,2013-03-04 00:26:00,
2013-03-03 19:27:00,32.7,23.0,29.59,NNW,338,12.3,12.3,67,0.00,,SKC,0.00,VWS V14.01,2013-03-04 00:27:00,
2013-03-03 19:28:00,32.7,23.0,29.59,NNW,338,12.3,12.3,67,0.00,,SKC,0.00,VWS V14.01,2013-03-04 00:28:00,
2013-03-03 19:29:00,32.7,23.0,29.59,NNW,338,12.3,12.3,67,0.00,,SKC,0.00,VWS V14.01,2013-03-04 00:29:00,
2013-03-03 19:30:00,32.7,23.0,29.59,NNW,338,12.3,12.3,67,0.00,,SKC,0.00,VWS V14.01,2013-03-04 00:30:00,
2013-03-03 19:31:00,32.7,23.0,29.59,NNW,338,12.3,12.3,67,0.00,,SKC,0.00,VWS V14.01,2013-03-04 00:31:00,
2013-03-03 19:32:00,32.7,23.0,29.59,NNW,338,12.3,12.3,67,0.00,,SKC,0.00,VWS V14.01,2013-03-04 00:32:00,
2013-03-03 19:33:00,32.7,23.0,29.59,NNW,338,12.3,12.3,67,0.00,,SKC,0.00,VWS V14.01,2013-03-04 00:33:00,
2013-03-03 19:34:00,32.7,23.0,29.59,NNW,338,12.3,12.3,67,0.00,,SKC,0.00,VWS V14.01,2013-03-04 00:34:00,
2013-03-03 19:35:00,32.7,23.0,29.59,NNW,338,12.3,12.3,67,0.00,,SKC,0.00,VWS V14.01,2013-03-04 00:35:00,
2013-03-03 19:36:00,32.7,22.6,29.59,NNW,338,12.3,12.3,66,0.00,,SKC,0.00,VWS V14.01,2013-03-04 00:36:00,
2013-03-03 19:37:00,32.7,23.0,29.59,NNW,338,12.3,12.3,67,0.00,,SKC,0.00,VWS V14.01,2013-03-04 00:37:00,
2013-03-03 19:38:00,32.7,23.0,29.59,NNW,338,12.3,12.3,67,0.00,,SKC,0.00,VWS V14.01,2013-03-04 00:38:00,
2013-03-03 19:39:00,32.7,23.0,29.59,NNW,338,12.3,12.3,67,0.00,,SKC,0.00,VWS V14.01,2013-03-04 00:39:00,
2013-03-03 19:40:00,32.7,23.0,29.59,NNW,338,12.3,12.3,67,0.00,,SKC,0.00,VWS V14.01,2013-03-04 00:40:00,
2013-03-03 19:41:00,32.7,22.6,29.59,NNW,338,12.3,12.3,66,0.00,,SKC,0.00,VWS V14.01,2013-03-04 00:41:00,
2013-03-03 19:42:00,32.7,22.6,29.59,NNW,338,12.3,12.3,66,0.00,,SKC,0.00,VWS V14.01,2013-03-04 00:42:00,
2013-03-03 19:43:00,32.7,22.6,29.62,NNW,338,12.3,12.3,66,0.00,,SKC,0.00,VWS V14.01,2013-03-04 00:43:00,
2013-03-03 19:44:00,32.7,22.6,29.62,NNW,338,12.3,12.3,66,0.00,,SKC,0.00,VWS V14.01,2013-03-04 00:44:00,
2013-03-03 19:45:00,32.7,22.6,29.62,NNW,338,12.3,12.3,66,0.00,,SKC,0.00,VWS V14.01,2013-03-04 00:45:00,
2013-03-03 19:46:00,32.7,22.6,29.62,NNW,338,12.3,12.3,66,0.00,,SKC,0.00,VWS V14.01,2013-03-04 00:46:00,
2013-03-03 19:47:00,32.7,22.6,29.62,NNW,338,12.3,12.3,66,0.00,,SKC,0.00,VWS V14.01,2013-03-04 00:47:00,
2013-03-03 19:48:00,32.7,22.6,29.62,NNW,338,12.3,12.3,66,0.00,,SKC,0.00,VWS V14.01,2013-03-04 00:48:00,
2013-03-03 19:49:00,32.5,22.5,29.62,NNW,338,12.3,12.3,66,0.00,,SKC,0.00,VWS V14.01,2013-03-04 00:49:00,
2013-03-03 19:50:00,32.5,22.5,29.62,NNW,338,12.3,12.3,66,0.00,,SKC,0.00,VWS V14.01,2013-03-04 00:50:00,
2013-03-03 19:51:00,32.5,22.5,29.62,NNW,338,12.3,12.3,66,0.00,,SKC,0.00,VWS V14.01,2013-03-04 00:51:00,
2013-03-03 19:52:00,32.5,22.5,29.62,NNW,338,12.3,12.3,66,0.00,,SKC,0.00,VWS V14.01,2013-03-04 00:52:00,
2013-03-03 19:53:00,32.5,22.5,29.62,NNW,338,12.3,12.3,66,0.00,,SKC,0.00,VWS V14.01,2013-03-04 00:53:00,
2013-03-03 19:54:00,32.5,22.5,29.62,NNW,338,12.3,12.3,66,0.00,,SKC,0.00,VWS V14.01,2013-03-04 00:54:00,
2013-03-03 19:55:00,32.5,22.5,29.62,NNW,338,12.3,12.3,66,0.00,,SKC,0.00,VWS V14.01,2013-03-04 00:55:00,
2013-03-03 19:56:00,32.5,22.5,29.62,NNW,338,12.3,12.3,66,0.00,,SKC,0.00,VWS V14.01,2013-03-04 00:56:00,
2013-03-03 19:57:00,32.5,22.5,29.62,NNW,338,12.3,12.3,66,0.00,,SKC,0.00,VWS V14.01,2013-03-04 00:57:00,
2013-03-03 19:58:00,32.5,22.5,29.62,NNW,338,12.3,12.3,66,0.00,,SKC,0.00,VWS V14.01,2013-03-04 00:58:00,
2013-03-03 19:59:00,32.5,22.5,29.62,NNW,338,12.3,12.3,66,0.00,,SKC,0.00,VWS V14.01,2013-03-04 00:59:00,
2013-03-03 20:00:00,32.5,22.5,29.62,NNW,338,12.3,12.3,66,0.00,,SKC,0.00,VWS V14.01,2013-03-04 01:00:00,
2013-03-03 20:01:00,32.5,22.8,29.62,NNW,338,12.3,12.3,67,0.00,,SKC,0.00,VWS V14.01,2013-03-04 01:01:00,
2013-03-03 20:02:00,32.5,22.8,29.62,NNW,338,12.3,12.3,67,0.00,,SKC,0.00,VWS V14.01,2013-03-04 01:02:00,
2013-03-03 20:03:00,32.5,22.5,29.62,NNW,338,12.3,12.3,66,0.00,,SKC,0.00,VWS V14.01,2013-03-04 01:03:00,
2013-03-03 20:04:00,32.5,22.8,29.62,NNW,338,12.3,12.3,67,0.00,,SKC,0.00,VWS V14.01,2013-03-04 01:04:00,
2013-03-03 20:05:00,32.5,22.8,29.62,NNW,338,12.3,12.3,67,0.00,,SKC,0.00,VWS V14.01,2013-03-04 01:05:00,
2013-03-03 20:06:00,32.5,22.5,29.62,NNW,338,12.3,12.3,66,0.00,,SKC,0.00,VWS V14.01,2013-03-04 01:06:00,
2013-03-03 20:07:00,32.7,22.6,29.62,NNW,338,12.3,12.3,66,0.00,,SKC,0.00,VWS V14.01,2013-03-04 01:07:00,
2013-03-03 20:08:00,32.7,22.6,29.62,NNW,338,12.3,12.3,66,0.00,,SKC,0.00,VWS V14.01,2013-03-04 01:08:00,
2013-03-03 20:09:00,32.7,22.6,29.62,NNW,338,12.3,12.3,66,0.00,,SKC,0.00,VWS V14.01,2013-03-04 01:09:00,
2013-03-03 20:10:00,32.7,22.6,29.62,NNW,338,12.3,12.3,66,0.00,,SKC,0.00,VWS V14.01,2013-03-04 01:10:00,
2013-03-03 20:11:00,32.7,22.6,29.62,NNW,338,12.3,12.3,66,0.00,,SKC,0.00,VWS V14.01,2013-03-04 01:11:00,
2013-03-03 20:12:00,32.7,22.6,29.62,NNW,338,12.3,12.3,66,0.00,,SKC,0.00,VWS V14.01,2013-03-04 01:12:00,
2013-03-03 20:13:00,32.7,22.3,29.62,NNW,338,12.3,12.3,65,0.00,,SKC,0.00,VWS V14.01,2013-03-04 01:13:00,
2013-03-03 20:14:00,32.7,22.3,29.62,NNW,338,12.3,12.3,65,0.00,,SKC,0.00,VWS V14.01,2013-03-04 01:14:00,
2013-03-03 20:15:00,32.7,22.3,29.62,NNW,338,12.3,12.3,65,0.00,,SKC,0.00,VWS V14.01,2013-03-04 01:15:00,
2013-03-03 20:16:00,32.7,22.6,29.62,NW,315,10.5,12.3,66,0.00,,SKC,0.00,VWS V14.01,2013-03-04 01:16:00,
2013-03-03 20:17:00,32.7,22.6,29.62,NW,315,10.5,12.3,66,0.00,,SKC,0.00,VWS V14.01,2013-03-04 01:17:00,
2013-03-03 20:18:00,32.7,22.6,29.62,NW,315,10.5,12.3,66,0.00,,SKC,0.00,VWS V14.01,2013-03-04 01:18:00,
2013-03-03 20:19:00,32.7,22.3,29.62,NW,315,10.5,12.3,65,0.00,,SKC,0.00,VWS V14.01,2013-03-04 01:19:00,
2013-03-03 20:20:00,32.7,22.6,29.62,NW,315,10.5,12.3,66,0.00,,SKC,0.00,VWS V14.01,2013-03-04 01:20:00,
2013-03-03 20:21:00,32.7,22.6,29.62,NW,315,10.5,12.3,66,0.00,,SKC,0.00,VWS V14.01,2013-03-04 01:21:00,
2013-03-03 20:22:00,32.7,22.6,29.62,NW,315,10.5,12.3,66,0.00,,SKC,0.00,VWS V14.01,2013-03-04 01:22:00,
2013-03-03 20:23:00,32.7,22.6,29.62,NW,315,10.5,12.3,66,0.00,,SKC,0.00,VWS V14.01,2013-03-04 01:23:00,
2013-03-03 20:24:00,32.7,22.6,29.62,NNW,338,10.1,12.3,66,0.00,,SKC,0.00,VWS V14.01,2013-03-04 01:24:00,
2013-03-03 20:25:00,32.7,22.3,29.62,NNW,338,10.1,12.3,65,0.00,,SKC,0.00,VWS V14.01,2013-03-04 01:25:00,
2013-03-03 20:26:00,32.5,22.1,29.62,NNW,338,10.1,12.3,65,0.00,,SKC,0.00,VWS V14.01,2013-03-04 01:26:00,
2013-03-03 20:27:00,32.5,22.1,29.62,NNW,338,10.1,12.3,65,0.00,,SKC,0.00,VWS V14.01,2013-03-04 01:27:00,
2013-03-03 20:28:00,32.5,22.1,29.65,NNW,338,10.1,12.3,65,0.00,,SKC,0.00,VWS V14.01,2013-03-04 01:28:00,
2013-03-03 20:29:00,32.5,22.1,29.65,NNW,338,10.1,12.3,65,0.00,,SKC,0.00,VWS V14.01,2013-03-04 01:29:00,
2013-03-03 20:30:00,32.5,22.1,29.65,NNW,338,10.1,12.3,65,0.00,,SKC,0.00,VWS V14.01,2013-03-04 01:30:00,
2013-03-03 20:31:00,32.5,22.1,29.65,NNW,338,10.1,12.3,65,0.00,,SKC,0.00,VWS V14.01,2013-03-04 01:31:00,
2013-03-03 20:32:00,32.5,22.1,29.65,NW,315,12.8,12.8,65,0.00,,SKC,0.00,VWS V14.01,2013-03-04 01:32:00,
2013-03-03 20:33:00,32.5,22.1,29.65,NW,315,12.8,12.8,65,0.00,,SKC,0.00,VWS V14.01,2013-03-04 01:33:00,
2013-03-03 20:34:00,32.5,22.5,29.65,NW,315,12.8,12.8,66,0.00,,SKC,0.00,VWS V14.01,2013-03-04 01:34:00,
2013-03-03 20:35:00,32.5,22.1,29.65,NW,315,12.8,12.8,65,0.00,,SKC,0.00,VWS V14.01,2013-03-04 01:35:00,
2013-03-03 20:36:00,32.5,22.1,29.65,NW,315,12.8,12.8,65,0.00,,SKC,0.00,VWS V14.01,2013-03-04 01:36:00,
2013-03-03 20:37:00,32.5,22.1,29.65,NW,315,12.8,12.8,65,0.00,,SKC,0.00,VWS V14.01,2013-03-04 01:37:00,
2013-03-03 20:38:00,32.5,22.1,29.65,NW,315,12.8,12.8,65,0.00,,SKC,0.00,VWS V14.01,2013-03-04 01:38:00,
2013-03-03 20:39:00,32.5,22.1,29.65,NW,315,12.8,12.8,65,0.00,,SKC,0.00,VWS V14.01,2013-03-04 01:39:00,
2013-03-03 20:40:00,32.5,22.1,29.65,NW,315,12.8,12.8,65,0.00,,SKC,0.00,VWS V14.01,2013-03-04 01:40:00,
2013-03-03 20:41:00,32.5,22.5,29.65,NW,315,12.8,12.8,66,0.00,,SKC,0.00,VWS V14.01,2013-03-04 01:41:00,
2013-03-03 20:42:00,32.5,22.5,29.65,NW,315,12.8,12.8,66,0.00,,SKC,0.00,VWS V14.01,2013-03-04 01:42:00,
2013-03-03 20:43:00,32.4,22.3,29.62,NW,315,12.8,12.8,66,0.00,,SKC,0.00,VWS V14.01,2013-03-04 01:43:00,
2013-03-03 20:44:00,32.4,22.3,29.62,NW,315,12.8,12.8,66,0.00,,SKC,0.00,VWS V14.01,2013-03-04 01:44:00,
2013-03-03 20:45:00,32.4,22.3,29.62,NW,315,12.8,12.8,66,0.00,,SKC,0.00,VWS V14.01,2013-03-04 01:45:00,
2013-03-03 20:46:00,32.4,22.3,29.62,NW,315,12.1,12.8,66,0.00,,SKC,0.00,VWS V14.01,2013-03-04 01:46:00,
2013-03-03 20:47:00,32.5,22.5,29.62,NW,315,12.1,12.8,66,0.00,,SKC,0.00,VWS V14.01,2013-03-04 01:47:00,
2013-03-03 20:48:00,32.5,22.5,29.62,NW,315,12.1,12.8,66,0.00,,SKC,0.00,VWS V14.01,2013-03-04 01:48:00,
2013-03-03 20:49:00,32.5,22.5,29.62,NW,315,12.1,12.8,66,0.00,,SKC,0.00,VWS V14.01,2013-03-04 01:49:00,
2013-03-03 20:50:00,32.5,22.5,29.62,NW,315,12.1,12.8,66,0.00,,SKC,0.00,VWS V14.01,2013-03-04 01:50:00,
2013-03-03 20:51:00,32.5,22.1,29.62,NW,315,12.1,12.8,65,0.00,,SKC,0.00,VWS V14.01,2013-03-04 01:51:00,
2013-03-03 20:52:00,32.5,22.1,29.62,NW,315,12.1,12.8,65,0.00,,SKC,0.00,VWS V14.01,2013-03-04 01:52:00,
2013-03-03 20:53:00,32.5,22.1,29.62,NW,315,12.1,12.8,65,0.00,,SKC,0.00,VWS V14.01,2013-03-04 01:53:00,
2013-03-03 20:54:00,32.5,22.1,29.62,NW,315,12.1,12.8,65,0.00,,SKC,0.00,VWS V14.01,2013-03-04 01:54:00,
2013-03-03 20:55:00,32.5,22.1,29.62,NW,315,12.1,12.8,65,0.00,,SKC,0.00,VWS V14.01,2013-03-04 01:55:00,
2013-03-03 20:56:00,32.5,22.1,29.62,NW,315,12.1,12.8,65,0.00,,SKC,0.00,VWS V14.01,2013-03-04 01:56:00,
2013-03-03 20:57:00,32.5,22.1,29.62,NW,315,12.1,12.8,65,0.00,,SKC,0.00,VWS V14.01,2013-03-04 01:57:00,
2013-03-03 20:58:00,32.5,22.1,29.62,NW,315,12.1,12.8,65,0.00,,SKC,0.00,VWS V14.01,2013-03-04 01:58:00,
2013-03-03 20:59:00,32.5,22.5,29.62,NW,315,12.1,12.8,66,0.00,,SKC,0.00,VWS V14.01,2013-03-04 01:59:00,
2013-03-03 21:00:00,32.5,22.5,29.62,NW,315,13.2,13.2,66,0.00,,SKC,0.00,VWS V14.01,2013-03-04 02:00:00,
2013-03-03 21:01:00,32.5,22.5,29.62,NW,315,13.2,13.2,66,0.00,,SKC,0.00,VWS V14.01,2013-03-04 02:01:00,
2013-03-03 21:02:00,32.5,22.5,29.62,NW,315,13.2,13.2,66,0.00,,SKC,0.00,VWS V14.01,2013-03-04 02:02:00,
2013-03-03 21:03:00,32.5,22.5,29.62,NW,315,13.2,13.2,66,0.00,,SKC,0.00,VWS V14.01,2013-03-04 02:03:00,
2013-03-03 21:04:00,32.5,22.5,29.62,NW,315,13.2,13.2,66,0.00,,SKC,0.00,VWS V14.01,2013-03-04 02:04:00,
2013-03-03 21:05:00,32.5,22.5,29.62,NW,315,13.2,13.2,66,0.00,,SKC,0.00,VWS V14.01,2013-03-04 02:05:00,
2013-03-03 21:06:00,32.5,22.5,29.62,NW,315,13.2,13.2,66,0.00,,SKC,0.00,VWS V14.01,2013-03-04 02:06:00,
2013-03-03 21:07:00,32.5,22.5,29.62,NW,315,13.2,13.2,66,0.00,,SKC,0.00,VWS V14.01,2013-03-04 02:07:00,
2013-03-03 21:08:00,32.5,22.5,29.62,NW,315,13.2,13.2,66,0.00,,SKC,0.00,VWS V14.01,2013-03-04 02:08:00,
2013-03-03 21:09:00,32.5,22.5,29.62,NW,315,13.2,13.2,66,0.00,,SKC,0.00,VWS V14.01,2013-03-04 02:09:00,
2013-03-03 21:10:00,32.5,22.5,29.62,NW,315,13.2,13.2,66,0.00,,SKC,0.00,VWS V14.01,2013-03-04 02:10:00,
2013-03-03 21:11:00,32.5,22.5,29.62,NW,315,13.2,13.2,66,0.00,,SKC,0.00,VWS V14.01,2013-03-04 02:11:00,
2013-03-03 21:12:00,32.5,22.5,29.62,NW,315,13.2,13.2,66,0.00,,SKC,0.00,VWS V14.01,2013-03-04 02:12:00,
2013-03-03 21:13:00,32.5,22.5,29.62,NW,315,13.2,13.2,66,0.00,,SKC,0.00,VWS V14.01,2013-03-04 02:13:00,
2013-03-03 21:14:00,32.5,22.5,29.62,NW,315,13.2,13.2,66,0.00,,SKC,0.00,VWS V14.01,2013-03-04 02:14:00,
2013-03-03 21:15:00,32.5,22.5,29.62,NW,315,13.2,13.2,66,0.00,,SKC,0.00,VWS V14.01,2013-03-04 02:15:00,
2013-03-03 21:16:00,32.5,22.5,29.62,NW,315,13.2,13.2,66,0.00,,SKC,0.00,VWS V14.01,2013-03-04 02:16:00,
2013-03-03 21:17:00,32.5,22.5,29.62,NW,315,13.2,13.2,66,0.00,,SKC,0.00,VWS V14.01,2013-03-04 02:17:00,
2013-03-03 21:18:00,32.5,22.5,29.62,NW,315,13.2,13.2,66,0.00,,SKC,0.00,VWS V14.01,2013-03-04 02:18:00,
2013-03-03 21:19:00,32.5,22.5,29.62,NW,315,13.2,13.2,66,0.00,,SKC,0.00,VWS V14.01,2013-03-04 02:19:00,
2013-03-03 21:20:00,32.5,22.5,29.62,NW,315,13.2,13.2,66,0.00,,SKC,0.00,VWS V14.01,2013-03-04 02:20:00,
2013-03-03 21:21:00,32.5,22.5,29.62,NW,315,13.2,13.2,66,0.00,,SKC,0.00,VWS V14.01,2013-03-04 02:21:00,
2013-03-03 21:22:00,32.5,22.5,29.62,NW,315,13.2,13.2,66,0.00,,SKC,0.00,VWS V14.01,2013-03-04 02:22:00,
2013-03-03 21:23:00,32.5,22.8,29.62,NW,315,13.2,13.2,67,0.00,,SKC,0.00,VWS V14.01,2013-03-04 02:23:00,
2013-03-03 21:24:00,32.5,22.5,29.62,NW,315,13.2,13.2,66,0.00,,SKC,0.00,VWS V14.01,2013-03-04 02:24:00,
2013-03-03 21:25:00,32.5,22.5,29.62,NW,315,13.2,13.2,66,0.00,,SKC,0.00,VWS V14.01,2013-03-04 02:25:00,
2013-03-03 21:26:00,32.5,22.5,29.62,NW,315,13.2,13.2,66,0.00,,SKC,0.00,VWS V14.01,2013-03-04 02:26:00,
2013-03-03 21:27:00,32.5,22.5,29.62,NW,315,13.2,13.2,66,0.00,,SKC,0.00,VWS V14.01,2013-03-04 02:27:00,
2013-03-03 21:28:00,32.4,22.3,29.62,NW,315,13.2,13.2,66,0.00,,SKC,0.00,VWS V14.01,2013-03-04 02:28:00,
2013-03-03 21:29:00,32.4,22.3,29.62,NW,315,13.2,13.2,66,0.00,,SKC,0.00,VWS V14.01,2013-03-04 02:29:00,
2013-03-03 21:30:00,32.4,22.3,29.62,NW,315,13.2,13.2,66,0.00,,SKC,0.00,VWS V14.01,2013-03-04 02:30:00,
2013-03-03 21:31:00,32.4,22.3,29.62,NW,315,13.2,13.2,66,0.00,,SKC,0.00,VWS V14.01,2013-03-04 02:31:00,
2013-03-03 21:32:00,32.4,21.9,29.62,NW,315,13.2,13.2,65,0.00,,SKC,0.00,VWS V14.01,2013-03-04 02:32:00,
2013-03-03 21:33:00,32.4,21.9,29.62,NW,315,13.2,13.2,65,0.00,,SKC,0.00,VWS V14.01,2013-03-04 02:33:00,
2013-03-03 21:34:00,32.4,22.3,29.62,NW,315,13.2,13.2,66,0.00,,SKC,0.00,VWS V14.01,2013-03-04 02:34:00,
2013-03-03 21:35:00,32.4,21.9,29.62,NW,315,13.2,13.2,65,0.00,,SKC,0.00,VWS V14.01,2013-03-04 02:35:00,
2013-03-03 21:36:00,32.4,21.9,29.62,NW,315,13.2,13.2,65,0.00,,SKC,0.00,VWS V14.01,2013-03-04 02:36:00,
2013-03-03 21:37:00,32.4,21.9,29.62,NW,315,13.2,13.2,65,0.00,,SKC,0.00,VWS V14.01,2013-03-04 02:37:00,
2013-03-03 21:38:00,32.4,21.9,29.62,NW,315,13.2,13.2,65,0.00,,SKC,0.00,VWS V14.01,2013-03-04 02:38:00,
2013-03-03 21:39:00,32.4,21.9,29.62,NW,315,10.5,13.2,65,0.00,,SKC,0.00,VWS V14.01,2013-03-04 02:39:00,
2013-03-03 21:40:00,32.4,21.9,29.62,NW,315,10.5,13.2,65,0.00,,SKC,0.00,VWS V14.01,2013-03-04 02:40:00,
2013-03-03 21:41:00,32.4,21.9,29.62,NW,315,10.5,13.2,65,0.00,,SKC,0.00,VWS V14.01,2013-03-04 02:41:00,
2013-03-03 21:42:00,32.4,21.9,29.62,NW,315,10.5,13.2,65,0.00,,SKC,0.00,VWS V14.01,2013-03-04 02:42:00,
2013-03-03 21:43:00,32.4,21.9,29.62,NW,315,10.5,13.2,65,0.00,,SKC,0.00,VWS V14.01,2013-03-04 02:43:00,
2013-03-03 21:44:00,32.4,21.6,29.62,NW,315,8.1,13.2,64,0.00,,SKC,0.00,VWS V14.01,2013-03-04 02:44:00,
2013-03-03 21:45:00,32.4,21.6,29.62,NW,315,8.1,13.2,64,0.00,,SKC,0.00,VWS V14.01,2013-03-04 02:45:00,
2013-03-03 21:46:00,32.4,21.6,29.62,NW,315,8.1,13.2,64,0.00,,SKC,0.00,VWS V14.01,2013-03-04 02:46:00,
2013-03-03 21:47:00,32.4,21.6,29.62,NW,315,8.1,13.2,64,0.00,,SKC,0.00,VWS V14.01,2013-03-04 02:47:00,
2013-03-03 21:48:00,32.4,21.6,29.62,NW,315,8.1,13.2,64,0.00,,SKC,0.00,VWS V14.01,2013-03-04 02:48:00,
2013-03-03 21:49:00,32.4,21.6,29.62,NW,315,8.1,13.2,64,0.00,,SKC,0.00,VWS V14.01,2013-03-04 02:49:00,
2013-03-03 21:50:00,32.4,21.6,29.62,NW,315,8.1,13.2,64,0.00,,SKC,0.00,VWS V14.01,2013-03-04 02:50:00,
2013-03-03 21:51:00,32.4,21.2,29.62,NW,315,8.1,13.2,63,0.00,,SKC,0.00,VWS V14.01,2013-03-04 02:51:00,
2013-03-03 21:52:00,32.4,21.6,29.62,NW,315,8.1,13.2,64,0.00,,SKC,0.00,VWS V14.01,2013-03-04 02:52:00,
2013-03-03 21:53:00,32.4,21.2,29.62,NW,315,8.1,13.2,63,0.00,,SKC,0.00,VWS V14.01,2013-03-04 02:53:00,
2013-03-03 21:54:00,32.4,21.2,29.62,NW,315,13.9,13.9,63,0.00,,SKC,0.00,VWS V14.01,2013-03-04 02:54:00,
2013-03-03 21:55:00,32.4,21.2,29.62,NW,315,13.9,13.9,63,0.00,,SKC,0.00,VWS V14.01,2013-03-04 02:55:00,
2013-03-03 21:56:00,32.4,21.2,29.62,NW,315,13.9,13.9,63,0.00,,SKC,0.00,VWS V14.01,2013-03-04 02:56:00,
2013-03-03 21:57:00,32.4,21.2,29.62,NW,315,13.9,13.9,63,0.00,,SKC,0.00,VWS V14.01,2013-03-04 02:57:00,
2013-03-03 21:58:00,32.4,21.2,29.62,NW,315,13.9,13.9,63,0.00,,SKC,0.00,VWS V14.01,2013-03-04 02:58:00,
2013-03-03 21:59:00,32.4,21.2,29.62,NW,315,13.9,13.9,63,0.00,,SKC,0.00,VWS V14.01,2013-03-04 02:59:00,
2013-03-03 22:00:00,32.5,21.4,29.62,NW,315,13.9,13.9,63,0.00,,SKC,0.00,VWS V14.01,2013-03-04 03:00:00,
2013-03-03 22:01:00,32.5,21.4,29.62,NW,315,10.3,13.9,63,0.00,,SKC,0.00,VWS V14.01,2013-03-04 03:01:00,
2013-03-03 22:02:00,32.5,21.7,29.62,NW,315,10.3,13.9,64,0.00,,SKC,0.00,VWS V14.01,2013-03-04 03:02:00,
2013-03-03 22:03:00,32.5,21.4,29.62,NW,315,10.3,13.9,63,0.00,,SKC,0.00,VWS V14.01,2013-03-04 03:03:00,
2013-03-03 22:04:00,32.5,21.4,29.62,NW,315,9.4,13.9,63,0.00,,SKC,0.00,VWS V14.01,2013-03-04 03:04:00,
2013-03-03 22:05:00,32.5,21.4,29.62,WNW,292,7.6,13.9,63,0.00,,SKC,0.00,VWS V14.01,2013-03-04 03:05:00,
2013-03-03 22:06:00,32.5,21.4,29.62,WNW,292,7.6,13.9,63,0.00,,SKC,0.00,VWS V14.01,2013-03-04 03:06:00,
2013-03-03 22:07:00,32.5,21.4,29.62,WNW,292,7.6,13.9,63,0.00,,SKC,0.00,VWS V14.01,2013-03-04 03:07:00,
2013-03-03 22:08:00,32.5,21.7,29.62,WNW,292,7.6,13.9,64,0.00,,SKC,0.00,VWS V14.01,2013-03-04 03:08:00,
2013-03-03 22:09:00,32.5,21.7,29.62,WNW,292,7.6,13.9,64,0.00,,SKC,0.00,VWS V14.01,2013-03-04 03:09:00,
2013-03-03 22:10:00,32.5,21.4,29.62,WNW,292,7.6,13.9,63,0.00,,SKC,0.00,VWS V14.01,2013-03-04 03:10:00,
2013-03-03 22:11:00,32.5,21.4,29.62,WNW,292,7.6,13.9,63,0.00,,SKC,0.00,VWS V14.01,2013-03-04 03:11:00,
2013-03-03 22:12:00,32.5,21.4,29.62,WNW,292,7.6,13.9,63,0.00,,SKC,0.00,VWS V14.01,2013-03-04 03:12:00,
2013-03-03 22:13:00,32.5,21.4,29.62,WNW,292,7.6,13.9,63,0.00,,SKC,0.00,VWS V14.01,2013-03-04 03:13:00,
2013-03-03 22:14:00,32.5,21.4,29.62,WNW,292,7.6,13.9,63,0.00,,SKC,0.00,VWS V14.01,2013-03-04 03:14:00,
2013-03-03 22:15:00,32.5,21.4,29.62,WNW,292,7.6,13.9,63,0.00,,SKC,0.00,VWS V14.01,2013-03-04 03:15:00,
2013-03-03 22:16:00,32.5,21.4,29.62,WNW,292,7.6,13.9,63,0.00,,SKC,0.00,VWS V14.01,2013-03-04 03:16:00,
2013-03-03 22:17:00,32.5,21.4,29.62,WNW,292,7.6,13.9,63,0.00,,SKC,0.00,VWS V14.01,2013-03-04 03:17:00,
2013-03-03 22:18:00,32.5,21.4,29.62,WNW,292,7.6,13.9,63,0.00,,SKC,0.00,VWS V14.01,2013-03-04 03:18:00,
2013-03-03 22:19:00,32.5,21.4,29.62,WNW,292,7.6,13.9,63,0.00,,SKC,0.00,VWS V14.01,2013-03-04 03:19:00,
2013-03-03 22:20:00,32.5,21.4,29.62,WNW,292,7.6,10.3,63,0.00,,SKC,0.00,VWS V14.01,2013-03-04 03:20:00,
2013-03-03 22:21:00,32.5,21.0,29.62,WNW,292,7.6,10.3,62,0.00,,SKC,0.00,VWS V14.01,2013-03-04 03:21:00,
2013-03-03 22:22:00,32.5,21.0,29.62,WNW,292,7.6,10.3,62,0.00,,SKC,0.00,VWS V14.01,2013-03-04 03:22:00,
2013-03-03 22:23:00,32.5,21.0,29.62,WNW,292,7.6,9.4,62,0.00,,SKC,0.00,VWS V14.01,2013-03-04 03:23:00,
2013-03-03 22:24:00,32.5,21.0,29.62,WNW,292,7.6,7.6,62,0.00,,SKC,0.00,VWS V14.01,2013-03-04 03:24:00,
2013-03-03 22:25:00,32.5,21.0,29.62,WNW,292,7.6,7.6,62,0.00,,SKC,0.00,VWS V14.01,2013-03-04 03:25:00,
2013-03-03 22:26:00,32.5,21.0,29.62,WNW,292,7.6,7.6,62,0.00,,SKC,0.00,VWS V14.01,2013-03-04 03:26:00,
2013-03-03 22:27:00,32.5,21.0,29.62,WNW,292,7.6,7.6,62,0.00,,SKC,0.00,VWS V14.01,2013-03-04 03:27:00,
2013-03-03 22:28:00,32.5,21.0,29.62,WNW,292,7.6,7.6,62,0.00,,SKC,0.00,VWS V14.01,2013-03-04 03:28:00,
2013-03-03 22:29:00,32.5,21.0,29.62,WNW,292,7.6,7.6,62,0.00,,SKC,0.00,VWS V14.01,2013-03-04 03:29:00,
2013-03-03 22:30:00,32.5,21.0,29.62,WNW,292,7.6,7.6,62,0.00,,SKC,0.00,VWS V14.01,2013-03-04 03:30:00,
2013-03-03 22:31:00,32.5,21.0,29.62,NW,315,10.3,10.3,62,0.00,,SKC,0.00,VWS V14.01,2013-03-04 03:31:00,
2013-03-03 22:32:00,32.5,20.6,29.62,NW,315,10.3,10.3,61,0.00,,SKC,0.00,VWS V14.01,2013-03-04 03:32:00,
2013-03-03 22:33:00,32.5,20.6,29.62,NW,315,10.3,10.3,61,0.00,,SKC,0.00,VWS V14.01,2013-03-04 03:33:00,
2013-03-03 22:34:00,32.5,20.6,29.62,NW,315,10.3,10.3,61,0.00,,SKC,0.00,VWS V14.01,2013-03-04 03:34:00,
2013-03-03 22:35:00,32.5,20.6,29.62,NW,315,10.3,10.3,61,0.00,,SKC,0.00,VWS V14.01,2013-03-04 03:35:00,
2013-03-03 22:36:00,32.5,20.6,29.62,NW,315,8.1,10.3,61,0.00,,SKC,0.00,VWS V14.01,2013-03-04 03:36:00,
2013-03-03 22:37:00,32.5,20.6,29.62,NW,315,8.1,10.3,61,0.00,,SKC,0.00,VWS V14.01,2013-03-04 03:37:00,
2013-03-03 22:38:00,32.5,20.6,29.62,NW,315,8.1,10.3,61,0.00,,SKC,0.00,VWS V14.01,2013-03-04 03:38:00,
2013-03-03 22:39:00,32.5,20.6,29.62,NW,315,8.1,10.3,61,0.00,,SKC,0.00,VWS V14.01,2013-03-04 03:39:00,
2013-03-03 22:40:00,32.5,20.6,29.62,NW,315,8.1,10.3,61,0.00,,SKC,0.00,VWS V14.01,2013-03-04 03:40:00,
2013-03-03 22:41:00,32.4,20.4,29.62,NW,315,8.1,10.3,61,0.00,,SKC,0.00,VWS V14.01,2013-03-04 03:41:00,
2013-03-03 22:42:00,32.5,20.6,29.62,NW,315,8.1,10.3,61,0.00,,SKC,0.00,VWS V14.01,2013-03-04 03:42:00,
2013-03-03 22:43:00,32.4,20.4,29.62,NW,315,8.1,10.3,61,0.00,,SKC,0.00,VWS V14.01,2013-03-04 03:43:00,
2013-03-03 22:44:00,32.4,20.4,29.62,NW,315,8.1,10.3,61,0.00,,SKC,0.00,VWS V14.01,2013-03-04 03:44:00,
2013-03-03 22:45:00,32.4,20.0,29.62,NW,315,8.1,10.3,60,0.00,,SKC,0.00,VWS V14.01,2013-03-04 03:45:00,
2013-03-03 22:46:00,32.4,20.0,29.62,NW,315,8.1,10.3,60,0.00,,SKC,0.00,VWS V14.01,2013-03-04 03:46:00,
2013-03-03 22:47:00,32.4,20.0,29.62,NW,315,8.1,10.3,60,0.00,,SKC,0.00,VWS V14.01,2013-03-04 03:47:00,
2013-03-03 22:48:00,32.4,20.0,29.62,NW,315,8.1,10.3,60,0.00,,SKC,0.00,VWS V14.01,2013-03-04 03:48:00,
2013-03-03 22:49:00,32.4,20.0,29.62,NW,315,8.1,10.3,60,0.00,,SKC,0.00,VWS V14.01,2013-03-04 03:49:00,
2013-03-03 22:50:00,32.4,20.0,29.62,NW,315,8.1,10.3,60,0.00,,SKC,0.00,VWS V14.01,2013-03-04 03:50:00,
2013-03-03 22:51:00,32.4,20.0,29.62,NW,315,8.1,10.3,60,0.00,,SKC,0.00,VWS V14.01,2013-03-04 03:51:00,
2013-03-03 22:52:00,32.4,20.0,29.62,NW,315,8.1,10.3,60,0.00,,SKC,0.00,VWS V14.01,2013-03-04 03:52:00,
2013-03-03 22:53:00,32.4,19.6,29.62,NW,315,8.1,10.3,59,0.00,,SKC,0.00,VWS V14.01,2013-03-04 03:53:00,
2013-03-03 22:54:00,32.4,19.6,29.62,NW,315,8.1,10.3,59,0.00,,SKC,0.00,VWS V14.01,2013-03-04 03:54:00,
2013-03-03 22:55:00,32.4,20.0,29.62,NW,315,8.7,8.7,60,0.00,,SKC,0.00,VWS V14.01,2013-03-04 03:55:00,
2013-03-03 22:56:00,32.4,19.6,29.62,NW,315,8.7,8.7,59,0.00,,SKC,0.00,VWS V14.01,2013-03-04 03:56:00,
2013-03-03 22:57:00,32.4,20.0,29.62,NW,315,8.7,8.7,60,0.00,,SKC,0.00,VWS V14.01,2013-03-04 03:57:00,
2013-03-03 22:58:00,32.4,20.0,29.62,NW,315,8.7,8.7,60,0.00,,SKC,0.00,VWS V14.01,2013-03-04 03:58:00,
2013-03-03 22:59:00,32.4,20.0,29.62,NW,315,8.7,8.7,60,0.00,,SKC,0.00,VWS V14.01,2013-03-04 03:59:00,
2013-03-03 23:00:00,32.4,20.0,29.62,NW,315,8.7,8.7,60,0.00,,SKC,0.00,VWS V14.01,2013-03-04 04:00:00,
2013-03-03 23:01:00,32.4,20.0,29.62,NW,315,8.7,8.7,60,0.00,,SKC,0.00,VWS V14.01,2013-03-04 04:01:00,
2013-03-03 23:02:00,32.4,20.0,29.62,NW,315,8.7,8.7,60,0.00,,SKC,0.00,VWS V14.01,2013-03-04 04:02:00,
2013-03-03 23:03:00,32.4,20.0,29.62,NW,315,8.7,8.7,60,0.00,,SKC,0.00,VWS V14.01,2013-03-04 04:03:00,
2013-03-03 23:04:00,32.4,20.0,29.62,NW,315,8.7,8.7,60,0.00,,SKC,0.00,VWS V14.01,2013-03-04 04:04:00,
2013-03-03 23:05:00,32.4,20.0,29.62,NNW,338,11.0,11.0,60,0.00,,SKC,0.00,VWS V14.01,2013-03-04 04:05:00,
2013-03-03 23:06:00,32.4,20.0,29.62,NNW,338,11.0,11.0,60,0.00,,SKC,0.00,VWS V14.01,2013-03-04 04:06:00,
2013-03-03 23:07:00,32.4,20.0,29.62,NNW,338,11.0,11.0,60,0.00,,SKC,0.00,VWS V14.01,2013-03-04 04:07:00,
2013-03-03 23:08:00,32.4,20.0,29.62,NNW,338,11.0,11.0,60,0.00,,SKC,0.00,VWS V14.01,2013-03-04 04:08:00,
2013-03-03 23:09:00,32.4,20.0,29.62,NNW,338,11.0,11.0,60,0.00,,SKC,0.00,VWS V14.01,2013-03-04 04:09:00,
2013-03-03 23:10:00,32.4,19.6,29.62,NNW,338,11.0,11.0,59,0.00,,SKC,0.00,VWS V14.01,2013-03-04 04:10:00,
2013-03-03 23:11:00,32.2,19.5,29.62,NNW,338,11.0,11.0,59,0.00,,SKC,0.00,VWS V14.01,2013-03-04 04:11:00,
2013-03-03 23:12:00,32.2,19.5,29.62,NW,315,10.7,11.0,59,0.00,,SKC,0.00,VWS V14.01,2013-03-04 04:12:00,
2013-03-03 23:13:00,32.4,20.0,29.65,NW,315,10.7,11.0,60,0.00,,SKC,0.00,VWS V14.01,2013-03-04 04:13:00,
2013-03-03 23:14:00,32.2,19.5,29.65,NW,315,10.7,11.0,59,0.00,,SKC,0.00,VWS V14.01,2013-03-04 04:14:00,
2013-03-03 23:15:00,32.2,19.5,29.65,NW,315,10.7,11.0,59,0.00,,SKC,0.00,VWS V14.01,2013-03-04 04:15:00,
2013-03-03 23:16:00,32.2,19.5,29.65,NW,315,10.7,11.0,59,0.00,,SKC,0.00,VWS V14.01,2013-03-04 04:16:00,
2013-03-03 23:17:00,32.2,19.9,29.65,NW,315,10.7,11.0,60,0.00,,SKC,0.00,VWS V14.01,2013-03-04 04:17:00,
2013-03-03 23:18:00,32.2,19.9,29.65,NW,315,10.7,11.0,60,0.00,,SKC,0.00,VWS V14.01,2013-03-04 04:18:00,
2013-03-03 23:19:00,32.2,19.9,29.65,NW,315,10.7,11.0,60,0.00,,SKC,0.00,VWS V14.01,2013-03-04 04:19:00,
2013-03-03 23:20:00,32.2,19.9,29.65,NW,315,10.7,11.0,60,0.00,,SKC,0.00,VWS V14.01,2013-03-04 04:20:00,
2013-03-03 23:21:00,32.2,19.9,29.65,NW,315,10.7,11.0,60,0.00,,SKC,0.00,VWS V14.01,2013-03-04 04:21:00,
2013-03-03 23:22:00,32.2,19.9,29.65,NW,315,9.8,11.0,60,0.00,,SKC,0.00,VWS V14.01,2013-03-04 04:22:00,
2013-03-03 23:23:00,32.2,19.9,29.65,NW,315,9.8,11.0,60,0.00,,SKC,0.00,VWS V14.01,2013-03-04 04:23:00,
2013-03-03 23:24:00,32.2,19.9,29.65,NW,315,9.8,11.0,60,0.00,,SKC,0.00,VWS V14.01,2013-03-04 04:24:00,
2013-03-03 23:25:00,32.2,19.9,29.65,NW,315,9.8,11.0,60,0.00,,SKC,0.00,VWS V14.01,2013-03-04 04:25:00,
2013-03-03 23:26:00,32.2,19.9,29.65,NW,315,8.7,11.0,60,0.00,,SKC,0.00,VWS V14.01,2013-03-04 04:26:00,
2013-03-03 23:27:00,32.2,19.9,29.65,NW,315,8.7,11.0,60,0.00,,SKC,0.00,VWS V14.01,2013-03-04 04:27:00,
2013-03-03 23:28:00,32.2,19.9,29.65,NW,315,8.7,11.0,60,0.00,,SKC,0.00,VWS V14.01,2013-03-04 04:28:00,
2013-03-03 23:29:00,32.2,19.9,29.65,NW,315,8.7,11.0,60,0.00,,SKC,0.00,VWS V14.01,2013-03-04 04:29:00,
2013-03-03 23:30:00,32.2,19.9,29.65,NW,315,8.7,11.0,60,0.00,,SKC,0.00,VWS V14.01,2013-03-04 04:30:00,
2013-03-03 23:31:00,32.2,19.9,29.65,NW,315,8.7,10.7,60,0.00,,SKC,0.00,VWS V14.01,2013-03-04 04:31:00,
2013-03-03 23:32:00,32.2,19.9,29.65,NW,315,8.7,10.7,60,0.00,,SKC,0.00,VWS V14.01,2013-03-04 04:32:00,
2013-03-03 23:33:00,32.0,19.7,29.65,NW,315,8.7,10.7,60,0.00,,SKC,0.00,VWS V14.01,2013-03-04 04:33:00,
2013-03-03 23:34:00,32.0,19.7,29.65,NW,315,8.7,10.7,60,0.00,,SKC,0.00,VWS V14.01,2013-03-04 04:34:00,
2013-03-03 23:35:00,32.0,19.7,29.65,NW,315,8.7,10.7,60,0.00,,SKC,0.00,VWS V14.01,2013-03-04 04:35:00,
2013-03-03 23:36:00,32.0,19.7,29.65,NW,315,8.7,10.7,60,0.00,,SKC,0.00,VWS V14.01,2013-03-04 04:36:00,
2013-03-03 23:37:00,32.0,19.7,29.65,NW,315,8.7,10.7,60,0.00,,SKC,0.00,VWS V14.01,2013-03-04 04:37:00,
2013-03-03 23:38:00,32.0,19.7,29.65,NW,315,8.7,10.7,60,0.00,,SKC,0.00,VWS V14.01,2013-03-04 04:38:00,
2013-03-03 23:39:00,32.0,19.7,29.65,NW,315,8.7,10.7,60,0.00,,SKC,0.00,VWS V14.01,2013-03-04 04:39:00,
2013-03-03 23:40:00,32.0,19.7,29.65,NW,315,8.7,10.7,60,0.00,,SKC,0.00,VWS V14.01,2013-03-04 04:40:00,
2013-03-03 23:41:00,32.0,19.7,29.65,WNW,292,10.1,10.1,60,0.00,,SKC,0.00,VWS V14.01,2013-03-04 04:41:00,
2013-03-03 23:42:00,32.0,19.7,29.65,WNW,292,10.1,10.1,60,0.00,,SKC,0.00,VWS V14.01,2013-03-04 04:42:00,
2013-03-03 23:43:00,32.0,19.7,29.65,WNW,292,10.1,10.1,60,0.00,,SKC,0.00,VWS V14.01,2013-03-04 04:43:00,
2013-03-03 23:44:00,32.0,19.7,29.65,WNW,292,10.1,10.1,60,0.00,,SKC,0.00,VWS V14.01,2013-03-04 04:44:00,
2013-03-03 23:45:00,32.0,19.7,29.65,WNW,292,10.1,10.1,60,0.00,,SKC,0.00,VWS V14.01,2013-03-04 04:45:00,
2013-03-03 23:46:00,32.0,19.7,29.65,WNW,292,10.1,10.1,60,0.00,,SKC,0.00,VWS V14.01,2013-03-04 04:46:00,
2013-03-03 23:47:00,32.0,19.7,29.65,WNW,292,10.1,10.1,60,0.00,,SKC,0.00,VWS V14.01,2013-03-04 04:47:00,
2013-03-03 23:48:00,32.0,19.7,29.65,WNW,292,10.1,10.1,60,0.00,,SKC,0.00,VWS V14.01,2013-03-04 04:48:00,
2013-03-03 23:49:00,32.0,19.7,29.65,WNW,292,14.5,14.5,60,0.00,,SKC,0.00,VWS V14.01,2013-03-04 04:49:00,
2013-03-03 23:50:00,32.0,19.7,29.65,WNW,292,14.5,14.5,60,0.00,,SKC,0.00,VWS V14.01,2013-03-04 04:50:00,
2013-03-03 23:51:00,32.0,19.7,29.65,WNW,292,14.5,14.5,60,0.00,,SKC,0.00,VWS V14.01,2013-03-04 04:51:00,
2013-03-03 23:52:00,32.0,19.7,29.65,WNW,292,14.5,14.5,60,0.00,,SKC,0.00,VWS V14.01,2013-03-04 04:52:00,
2013-03-03 23:53:00,32.0,19.7,29.65,WNW,292,14.5,14.5,60,0.00,,SKC,0.00,VWS V14.01,2013-03-04 04:53:00,
2013-03-03 23:54:00,32.0,19.7,29.65,WNW,292,14.5,14.5,60,0.00,,SKC,0.00,VWS V14.01,2013-03-04 04:54:00,
2013-03-03 23:55:00,32.0,19.3,29.65,WNW,292,14.5,14.5,59,0.00,,SKC,0.00,VWS V14.01,2013-03-04 04:55:00,
2013-03-03 23:56:00,32.0,19.3,29.65,WNW,292,14.5,14.5,59,0.00,,SKC,0.00,VWS V14.01,2013-03-04 04:56:00,
2013-03-03 23:57:00,32.0,19.3,29.65,WNW,292,14.5,14.5,59,0.00,,SKC,0.00,VWS V14.01,2013-03-04 04:57:00,
2013-03-03 23:58:00,32.0,19.3,29.65,WNW,292,14.5,14.5,59,0.00,,SKC,0.00,VWS V14.01,2013-03-04 04:58:00,
2013-03-03 23:59:00,32.0,19.3,29.65,WNW,292,14.5,14.5,59,0.00,,SKC,0.00,VWS V14.01,2013-03-04 04:59:00,